<?xml version="1.0" encoding="UTF-8" standalone="no" ?>
<gpx xmlns="http://www.topografix.com/GPX/1/1" xmlns:xsi="http://www.w3.org/2001/XMLSchema-instance" xsi:schemaLocation="http://www.topografix.com/GPX/1/1 http://www.topografix.com/GPX/1/1/gpx.xsd" version="1.1" creator="VisuGPX - https://www.visugpx.com">
  <metadata>
    <name>Canal des pernes</name>
    <desc><![CDATA[Du cote de lagnes]]></desc>
  </metadata>
  <trk>
    <name><![CDATA[Tracé actuel: 10 MARS 2013 14:30]]></name>
    <trkseg>
      <trkpt lat="43.92122" lon="5.10524">
        <ele>93.39</ele>
        <time>2013-03-10T12:30:11Z</time>
      </trkpt>
      <trkpt lat="43.92124" lon="5.10524">
        <ele>93.87</ele>
        <time>2013-03-10T12:30:35Z</time>
      </trkpt>
      <trkpt lat="43.92126" lon="5.10524">
        <ele>94.83</ele>
        <time>2013-03-10T12:31:00Z</time>
      </trkpt>
      <trkpt lat="43.92125" lon="5.10525">
        <ele>94.35</ele>
        <time>2013-03-10T12:31:42Z</time>
      </trkpt>
      <trkpt lat="43.92124" lon="5.10528">
        <ele>93.87</ele>
        <time>2013-03-10T12:31:59Z</time>
      </trkpt>
      <trkpt lat="43.92124" lon="5.10528">
        <ele>93.87</ele>
        <time>2013-03-10T12:32:26Z</time>
      </trkpt>
      <trkpt lat="43.92122" lon="5.10528">
        <ele>94.35</ele>
        <time>2013-03-10T12:32:31Z</time>
      </trkpt>
      <trkpt lat="43.92115" lon="5.10518">
        <ele>98.19</ele>
        <time>2013-03-10T12:32:47Z</time>
      </trkpt>
      <trkpt lat="43.92105" lon="5.10516">
        <ele>97.23</ele>
        <time>2013-03-10T12:33:00Z</time>
      </trkpt>
      <trkpt lat="43.92091" lon="5.10514">
        <ele>96.75</ele>
        <time>2013-03-10T12:33:16Z</time>
      </trkpt>
      <trkpt lat="43.92076" lon="5.10515">
        <ele>96.75</ele>
        <time>2013-03-10T12:33:32Z</time>
      </trkpt>
      <trkpt lat="43.9207" lon="5.10515">
        <ele>95.31</ele>
        <time>2013-03-10T12:33:38Z</time>
      </trkpt>
      <trkpt lat="43.92053" lon="5.1051">
        <ele>96.75</ele>
        <time>2013-03-10T12:33:55Z</time>
      </trkpt>
      <trkpt lat="43.92047" lon="5.1051">
        <ele>97.71</ele>
        <time>2013-03-10T12:34:06Z</time>
      </trkpt>
      <trkpt lat="43.92033" lon="5.10516">
        <ele>97.23</ele>
        <time>2013-03-10T12:34:22Z</time>
      </trkpt>
      <trkpt lat="43.92033" lon="5.10516">
        <ele>97.23</ele>
        <time>2013-03-10T12:34:23Z</time>
      </trkpt>
      <trkpt lat="43.92024" lon="5.10534">
        <ele>97.23</ele>
        <time>2013-03-10T12:34:38Z</time>
      </trkpt>
      <trkpt lat="43.92017" lon="5.10554">
        <ele>99.63</ele>
        <time>2013-03-10T12:34:54Z</time>
      </trkpt>
      <trkpt lat="43.92009" lon="5.10573">
        <ele>103.96</ele>
        <time>2013-03-10T12:35:11Z</time>
      </trkpt>
      <trkpt lat="43.92008" lon="5.10588">
        <ele>105.4</ele>
        <time>2013-03-10T12:35:20Z</time>
      </trkpt>
      <trkpt lat="43.91999" lon="5.10608">
        <ele>107.81</ele>
        <time>2013-03-10T12:35:36Z</time>
      </trkpt>
      <trkpt lat="43.91991" lon="5.10628">
        <ele>110.69</ele>
        <time>2013-03-10T12:35:52Z</time>
      </trkpt>
      <trkpt lat="43.91989" lon="5.10656">
        <ele>108.29</ele>
        <time>2013-03-10T12:36:09Z</time>
      </trkpt>
      <trkpt lat="43.91988" lon="5.10664">
        <ele>107.81</ele>
        <time>2013-03-10T12:36:14Z</time>
      </trkpt>
      <trkpt lat="43.91989" lon="5.10686">
        <ele>106.84</ele>
        <time>2013-03-10T12:36:29Z</time>
      </trkpt>
      <trkpt lat="43.91989" lon="5.10709">
        <ele>106.84</ele>
        <time>2013-03-10T12:36:44Z</time>
      </trkpt>
      <trkpt lat="43.9199" lon="5.10738">
        <ele>107.81</ele>
        <time>2013-03-10T12:37:03Z</time>
      </trkpt>
      <trkpt lat="43.9199" lon="5.10771">
        <ele>106.36</ele>
        <time>2013-03-10T12:37:23Z</time>
      </trkpt>
      <trkpt lat="43.91991" lon="5.10775">
        <ele>104.92</ele>
        <time>2013-03-10T12:37:39Z</time>
      </trkpt>
      <trkpt lat="43.91989" lon="5.10783">
        <ele>103.96</ele>
        <time>2013-03-10T12:38:05Z</time>
      </trkpt>
      <trkpt lat="43.91988" lon="5.10789">
        <ele>104.92</ele>
        <time>2013-03-10T12:38:20Z</time>
      </trkpt>
      <trkpt lat="43.91985" lon="5.10804">
        <ele>107.32</ele>
        <time>2013-03-10T12:38:32Z</time>
      </trkpt>
      <trkpt lat="43.91978" lon="5.10814">
        <ele>106.84</ele>
        <time>2013-03-10T12:38:48Z</time>
      </trkpt>
      <trkpt lat="43.91981" lon="5.10835">
        <ele>114.05</ele>
        <time>2013-03-10T12:39:06Z</time>
      </trkpt>
      <trkpt lat="43.91977" lon="5.10859">
        <ele>124.15</ele>
        <time>2013-03-10T12:39:25Z</time>
      </trkpt>
      <trkpt lat="43.91973" lon="5.10892">
        <ele>127.99</ele>
        <time>2013-03-10T12:39:45Z</time>
      </trkpt>
      <trkpt lat="43.9197" lon="5.10923">
        <ele>127.03</ele>
        <time>2013-03-10T12:40:05Z</time>
      </trkpt>
      <trkpt lat="43.91961" lon="5.10948">
        <ele>126.07</ele>
        <time>2013-03-10T12:40:23Z</time>
      </trkpt>
      <trkpt lat="43.91956" lon="5.10973">
        <ele>124.15</ele>
        <time>2013-03-10T12:40:40Z</time>
      </trkpt>
      <trkpt lat="43.91948" lon="5.10995">
        <ele>124.63</ele>
        <time>2013-03-10T12:40:57Z</time>
      </trkpt>
      <trkpt lat="43.91945" lon="5.11006">
        <ele>122.71</ele>
        <time>2013-03-10T12:41:16Z</time>
      </trkpt>
      <trkpt lat="43.91943" lon="5.11011">
        <ele>123.19</ele>
        <time>2013-03-10T12:41:31Z</time>
      </trkpt>
      <trkpt lat="43.9193" lon="5.11038">
        <ele>117.9</ele>
        <time>2013-03-10T12:41:51Z</time>
      </trkpt>
      <trkpt lat="43.91926" lon="5.11043">
        <ele>117.42</ele>
        <time>2013-03-10T12:41:59Z</time>
      </trkpt>
      <trkpt lat="43.91911" lon="5.11064">
        <ele>112.61</ele>
        <time>2013-03-10T12:42:17Z</time>
      </trkpt>
      <trkpt lat="43.91896" lon="5.11074">
        <ele>112.13</ele>
        <time>2013-03-10T12:42:35Z</time>
      </trkpt>
      <trkpt lat="43.91891" lon="5.11079">
        <ele>111.17</ele>
        <time>2013-03-10T12:42:54Z</time>
      </trkpt>
      <trkpt lat="43.91887" lon="5.11085">
        <ele>110.69</ele>
        <time>2013-03-10T12:43:21Z</time>
      </trkpt>
      <trkpt lat="43.91875" lon="5.11097">
        <ele>110.21</ele>
        <time>2013-03-10T12:43:35Z</time>
      </trkpt>
      <trkpt lat="43.91861" lon="5.11111">
        <ele>114.05</ele>
        <time>2013-03-10T12:43:56Z</time>
      </trkpt>
      <trkpt lat="43.91835" lon="5.11114">
        <ele>112.61</ele>
        <time>2013-03-10T12:44:14Z</time>
      </trkpt>
      <trkpt lat="43.91816" lon="5.11117">
        <ele>113.57</ele>
        <time>2013-03-10T12:44:31Z</time>
      </trkpt>
      <trkpt lat="43.91796" lon="5.11117">
        <ele>115.98</ele>
        <time>2013-03-10T12:44:49Z</time>
      </trkpt>
      <trkpt lat="43.91777" lon="5.11121">
        <ele>115.5</ele>
        <time>2013-03-10T12:45:07Z</time>
      </trkpt>
      <trkpt lat="43.91752" lon="5.11122">
        <ele>111.65</ele>
        <time>2013-03-10T12:45:27Z</time>
      </trkpt>
      <trkpt lat="43.91734" lon="5.11129">
        <ele>115.01</ele>
        <time>2013-03-10T12:45:46Z</time>
      </trkpt>
      <trkpt lat="43.91717" lon="5.11136">
        <ele>114.05</ele>
        <time>2013-03-10T12:46:03Z</time>
      </trkpt>
      <trkpt lat="43.91699" lon="5.11142">
        <ele>110.21</ele>
        <time>2013-03-10T12:46:20Z</time>
      </trkpt>
      <trkpt lat="43.91684" lon="5.11154">
        <ele>112.13</ele>
        <time>2013-03-10T12:46:39Z</time>
      </trkpt>
      <trkpt lat="43.91666" lon="5.1117">
        <ele>111.17</ele>
        <time>2013-03-10T12:46:57Z</time>
      </trkpt>
      <trkpt lat="43.91662" lon="5.11175">
        <ele>111.17</ele>
        <time>2013-03-10T12:47:03Z</time>
      </trkpt>
      <trkpt lat="43.91644" lon="5.11194">
        <ele>111.65</ele>
        <time>2013-03-10T12:47:24Z</time>
      </trkpt>
      <trkpt lat="43.91631" lon="5.11211">
        <ele>110.69</ele>
        <time>2013-03-10T12:47:41Z</time>
      </trkpt>
      <trkpt lat="43.91629" lon="5.1122">
        <ele>114.05</ele>
        <time>2013-03-10T12:47:58Z</time>
      </trkpt>
      <trkpt lat="43.91627" lon="5.11224">
        <ele>116.94</ele>
        <time>2013-03-10T12:48:15Z</time>
      </trkpt>
      <trkpt lat="43.91622" lon="5.11237">
        <ele>117.9</ele>
        <time>2013-03-10T12:48:30Z</time>
      </trkpt>
      <trkpt lat="43.9161" lon="5.11251">
        <ele>112.61</ele>
        <time>2013-03-10T12:48:49Z</time>
      </trkpt>
      <trkpt lat="43.91593" lon="5.11262">
        <ele>106.36</ele>
        <time>2013-03-10T12:49:06Z</time>
      </trkpt>
      <trkpt lat="43.9158" lon="5.11271">
        <ele>106.84</ele>
        <time>2013-03-10T12:49:26Z</time>
      </trkpt>
      <trkpt lat="43.9157" lon="5.11281">
        <ele>104.92</ele>
        <time>2013-03-10T12:49:42Z</time>
      </trkpt>
      <trkpt lat="43.91564" lon="5.11285">
        <ele>103.96</ele>
        <time>2013-03-10T12:49:58Z</time>
      </trkpt>
      <trkpt lat="43.9156" lon="5.11289">
        <ele>104.44</ele>
        <time>2013-03-10T12:50:14Z</time>
      </trkpt>
      <trkpt lat="43.91558" lon="5.11291">
        <ele>104.92</ele>
        <time>2013-03-10T12:50:30Z</time>
      </trkpt>
      <trkpt lat="43.91558" lon="5.11291">
        <ele>104.92</ele>
        <time>2013-03-10T12:51:05Z</time>
      </trkpt>
      <trkpt lat="43.91554" lon="5.11292">
        <ele>104.92</ele>
        <time>2013-03-10T12:51:30Z</time>
      </trkpt>
      <trkpt lat="43.91544" lon="5.11299">
        <ele>104.92</ele>
        <time>2013-03-10T12:51:43Z</time>
      </trkpt>
      <trkpt lat="43.91522" lon="5.11306">
        <ele>105.88</ele>
        <time>2013-03-10T12:52:02Z</time>
      </trkpt>
      <trkpt lat="43.91503" lon="5.11304">
        <ele>104.44</ele>
        <time>2013-03-10T12:52:16Z</time>
      </trkpt>
      <trkpt lat="43.91486" lon="5.11287">
        <ele>106.36</ele>
        <time>2013-03-10T12:52:36Z</time>
      </trkpt>
      <trkpt lat="43.9147" lon="5.11278">
        <ele>111.17</ele>
        <time>2013-03-10T12:52:54Z</time>
      </trkpt>
      <trkpt lat="43.91453" lon="5.11272">
        <ele>116.46</ele>
        <time>2013-03-10T12:53:12Z</time>
      </trkpt>
      <trkpt lat="43.91432" lon="5.11254">
        <ele>117.42</ele>
        <time>2013-03-10T12:53:30Z</time>
      </trkpt>
      <trkpt lat="43.9142" lon="5.11244">
        <ele>117.9</ele>
        <time>2013-03-10T12:53:47Z</time>
      </trkpt>
      <trkpt lat="43.91414" lon="5.11242">
        <ele>117.42</ele>
        <time>2013-03-10T12:53:53Z</time>
      </trkpt>
      <trkpt lat="43.91407" lon="5.11239">
        <ele>118.38</ele>
        <time>2013-03-10T12:54:00Z</time>
      </trkpt>
      <trkpt lat="43.91389" lon="5.11238">
        <ele>119.34</ele>
        <time>2013-03-10T12:54:17Z</time>
      </trkpt>
      <trkpt lat="43.91368" lon="5.11238">
        <ele>121.74</ele>
        <time>2013-03-10T12:54:35Z</time>
      </trkpt>
      <trkpt lat="43.91358" lon="5.11243">
        <ele>123.19</ele>
        <time>2013-03-10T12:54:42Z</time>
      </trkpt>
      <trkpt lat="43.91343" lon="5.11261">
        <ele>126.55</ele>
        <time>2013-03-10T12:55:00Z</time>
      </trkpt>
      <trkpt lat="43.9133" lon="5.11274">
        <ele>125.11</ele>
        <time>2013-03-10T12:55:16Z</time>
      </trkpt>
      <trkpt lat="43.91313" lon="5.11275">
        <ele>123.67</ele>
        <time>2013-03-10T12:55:34Z</time>
      </trkpt>
      <trkpt lat="43.91311" lon="5.11274">
        <ele>123.19</ele>
        <time>2013-03-10T12:55:36Z</time>
      </trkpt>
      <trkpt lat="43.91295" lon="5.11266">
        <ele>119.82</ele>
        <time>2013-03-10T12:55:50Z</time>
      </trkpt>
      <trkpt lat="43.91276" lon="5.11262">
        <ele>121.26</ele>
        <time>2013-03-10T12:56:08Z</time>
      </trkpt>
      <trkpt lat="43.91261" lon="5.11262">
        <ele>122.71</ele>
        <time>2013-03-10T12:56:24Z</time>
      </trkpt>
      <trkpt lat="43.91257" lon="5.11261">
        <ele>123.67</ele>
        <time>2013-03-10T12:56:28Z</time>
      </trkpt>
      <trkpt lat="43.91252" lon="5.11247">
        <ele>129.43</ele>
        <time>2013-03-10T12:56:45Z</time>
      </trkpt>
      <trkpt lat="43.9125" lon="5.11231">
        <ele>121.26</ele>
        <time>2013-03-10T12:57:01Z</time>
      </trkpt>
      <trkpt lat="43.91239" lon="5.11213">
        <ele>123.19</ele>
        <time>2013-03-10T12:57:16Z</time>
      </trkpt>
      <trkpt lat="43.91228" lon="5.11194">
        <ele>123.67</ele>
        <time>2013-03-10T12:57:31Z</time>
      </trkpt>
      <trkpt lat="43.91217" lon="5.11179">
        <ele>126.55</ele>
        <time>2013-03-10T12:57:48Z</time>
      </trkpt>
      <trkpt lat="43.91204" lon="5.11163">
        <ele>130.4</ele>
        <time>2013-03-10T12:58:04Z</time>
      </trkpt>
      <trkpt lat="43.9119" lon="5.11141">
        <ele>127.51</ele>
        <time>2013-03-10T12:58:21Z</time>
      </trkpt>
      <trkpt lat="43.91174" lon="5.11125">
        <ele>126.55</ele>
        <time>2013-03-10T12:58:38Z</time>
      </trkpt>
      <trkpt lat="43.91156" lon="5.11107">
        <ele>124.63</ele>
        <time>2013-03-10T12:58:55Z</time>
      </trkpt>
      <trkpt lat="43.91144" lon="5.1109">
        <ele>128.95</ele>
        <time>2013-03-10T12:59:11Z</time>
      </trkpt>
      <trkpt lat="43.91132" lon="5.11081">
        <ele>123.67</ele>
        <time>2013-03-10T12:59:27Z</time>
      </trkpt>
      <trkpt lat="43.91127" lon="5.1107">
        <ele>122.71</ele>
        <time>2013-03-10T12:59:50Z</time>
      </trkpt>
      <trkpt lat="43.9112" lon="5.11054">
        <ele>122.22</ele>
        <time>2013-03-10T13:00:08Z</time>
      </trkpt>
      <trkpt lat="43.91102" lon="5.11033">
        <ele>125.59</ele>
        <time>2013-03-10T13:00:28Z</time>
      </trkpt>
      <trkpt lat="43.91087" lon="5.11009">
        <ele>124.63</ele>
        <time>2013-03-10T13:00:49Z</time>
      </trkpt>
      <trkpt lat="43.91068" lon="5.10993">
        <ele>122.22</ele>
        <time>2013-03-10T13:01:07Z</time>
      </trkpt>
      <trkpt lat="43.91059" lon="5.10988">
        <ele>123.19</ele>
        <time>2013-03-10T13:01:24Z</time>
      </trkpt>
      <trkpt lat="43.91038" lon="5.10989">
        <ele>125.11</ele>
        <time>2013-03-10T13:01:40Z</time>
      </trkpt>
      <trkpt lat="43.91025" lon="5.10993">
        <ele>129.92</ele>
        <time>2013-03-10T13:01:53Z</time>
      </trkpt>
      <trkpt lat="43.90999" lon="5.10997">
        <ele>133.28</ele>
        <time>2013-03-10T13:02:14Z</time>
      </trkpt>
      <trkpt lat="43.90981" lon="5.11003">
        <ele>124.63</ele>
        <time>2013-03-10T13:02:31Z</time>
      </trkpt>
      <trkpt lat="43.90967" lon="5.11004">
        <ele>115.5</ele>
        <time>2013-03-10T13:02:49Z</time>
      </trkpt>
      <trkpt lat="43.90948" lon="5.11006">
        <ele>117.42</ele>
        <time>2013-03-10T13:03:10Z</time>
      </trkpt>
      <trkpt lat="43.9092" lon="5.11019">
        <ele>114.53</ele>
        <time>2013-03-10T13:03:32Z</time>
      </trkpt>
      <trkpt lat="43.90915" lon="5.11024">
        <ele>114.05</ele>
        <time>2013-03-10T13:03:39Z</time>
      </trkpt>
      <trkpt lat="43.90901" lon="5.1104">
        <ele>116.46</ele>
        <time>2013-03-10T13:03:57Z</time>
      </trkpt>
      <trkpt lat="43.90878" lon="5.11039">
        <ele>117.9</ele>
        <time>2013-03-10T13:04:16Z</time>
      </trkpt>
      <trkpt lat="43.90867" lon="5.1103">
        <ele>119.82</ele>
        <time>2013-03-10T13:04:33Z</time>
      </trkpt>
      <trkpt lat="43.90865" lon="5.11024">
        <ele>121.26</ele>
        <time>2013-03-10T13:04:51Z</time>
      </trkpt>
      <trkpt lat="43.90872" lon="5.11003">
        <ele>126.07</ele>
        <time>2013-03-10T13:05:11Z</time>
      </trkpt>
      <trkpt lat="43.90874" lon="5.10988">
        <ele>129.92</ele>
        <time>2013-03-10T13:05:31Z</time>
      </trkpt>
      <trkpt lat="43.90877" lon="5.10974">
        <ele>130.88</ele>
        <time>2013-03-10T13:05:49Z</time>
      </trkpt>
      <trkpt lat="43.90888" lon="5.10936">
        <ele>118.86</ele>
        <time>2013-03-10T13:06:08Z</time>
      </trkpt>
      <trkpt lat="43.90904" lon="5.10914">
        <ele>113.09</ele>
        <time>2013-03-10T13:06:25Z</time>
      </trkpt>
      <trkpt lat="43.90909" lon="5.10905">
        <ele>112.13</ele>
        <time>2013-03-10T13:06:32Z</time>
      </trkpt>
      <trkpt lat="43.9091" lon="5.109">
        <ele>112.13</ele>
        <time>2013-03-10T13:06:36Z</time>
      </trkpt>
      <trkpt lat="43.909" lon="5.10886">
        <ele>110.69</ele>
        <time>2013-03-10T13:06:53Z</time>
      </trkpt>
      <trkpt lat="43.90889" lon="5.10878">
        <ele>113.09</ele>
        <time>2013-03-10T13:07:11Z</time>
      </trkpt>
      <trkpt lat="43.90868" lon="5.10867">
        <ele>113.57</ele>
        <time>2013-03-10T13:07:32Z</time>
      </trkpt>
      <trkpt lat="43.9086" lon="5.10868">
        <ele>110.69</ele>
        <time>2013-03-10T13:07:45Z</time>
      </trkpt>
      <trkpt lat="43.90846" lon="5.10868">
        <ele>113.09</ele>
        <time>2013-03-10T13:07:57Z</time>
      </trkpt>
      <trkpt lat="43.90839" lon="5.10872">
        <ele>114.53</ele>
        <time>2013-03-10T13:08:02Z</time>
      </trkpt>
      <trkpt lat="43.90819" lon="5.10874">
        <ele>115.01</ele>
        <time>2013-03-10T13:08:22Z</time>
      </trkpt>
      <trkpt lat="43.9081" lon="5.10881">
        <ele>115.01</ele>
        <time>2013-03-10T13:08:41Z</time>
      </trkpt>
      <trkpt lat="43.90808" lon="5.10883">
        <ele>115.98</ele>
        <time>2013-03-10T13:09:00Z</time>
      </trkpt>
      <trkpt lat="43.90806" lon="5.10882">
        <ele>114.53</ele>
        <time>2013-03-10T13:09:20Z</time>
      </trkpt>
      <trkpt lat="43.90796" lon="5.10882">
        <ele>112.61</ele>
        <time>2013-03-10T13:09:26Z</time>
      </trkpt>
      <trkpt lat="43.9078" lon="5.10872">
        <ele>110.69</ele>
        <time>2013-03-10T13:09:44Z</time>
      </trkpt>
      <trkpt lat="43.90765" lon="5.10866">
        <ele>109.73</ele>
        <time>2013-03-10T13:10:02Z</time>
      </trkpt>
      <trkpt lat="43.90756" lon="5.10859">
        <ele>111.65</ele>
        <time>2013-03-10T13:10:20Z</time>
      </trkpt>
      <trkpt lat="43.90741" lon="5.10852">
        <ele>115.5</ele>
        <time>2013-03-10T13:10:36Z</time>
      </trkpt>
      <trkpt lat="43.90725" lon="5.10841">
        <ele>118.38</ele>
        <time>2013-03-10T13:10:52Z</time>
      </trkpt>
      <trkpt lat="43.90703" lon="5.10839">
        <ele>122.71</ele>
        <time>2013-03-10T13:11:10Z</time>
      </trkpt>
      <trkpt lat="43.9068" lon="5.10842">
        <ele>126.55</ele>
        <time>2013-03-10T13:11:28Z</time>
      </trkpt>
      <trkpt lat="43.90659" lon="5.10848">
        <ele>132.8</ele>
        <time>2013-03-10T13:11:48Z</time>
      </trkpt>
      <trkpt lat="43.90637" lon="5.10858">
        <ele>140.01</ele>
        <time>2013-03-10T13:12:10Z</time>
      </trkpt>
      <trkpt lat="43.9062" lon="5.10863">
        <ele>145.78</ele>
        <time>2013-03-10T13:12:27Z</time>
      </trkpt>
      <trkpt lat="43.90602" lon="5.10871">
        <ele>147.7</ele>
        <time>2013-03-10T13:12:43Z</time>
      </trkpt>
      <trkpt lat="43.90578" lon="5.10883">
        <ele>134.72</ele>
        <time>2013-03-10T13:13:01Z</time>
      </trkpt>
      <trkpt lat="43.90561" lon="5.10895">
        <ele>130.88</ele>
        <time>2013-03-10T13:13:20Z</time>
      </trkpt>
      <trkpt lat="43.90557" lon="5.10901">
        <ele>130.88</ele>
        <time>2013-03-10T13:13:28Z</time>
      </trkpt>
      <trkpt lat="43.90541" lon="5.10921">
        <ele>131.84</ele>
        <time>2013-03-10T13:13:46Z</time>
      </trkpt>
      <trkpt lat="43.90525" lon="5.10947">
        <ele>129.43</ele>
        <time>2013-03-10T13:14:06Z</time>
      </trkpt>
      <trkpt lat="43.90512" lon="5.10968">
        <ele>126.55</ele>
        <time>2013-03-10T13:14:25Z</time>
      </trkpt>
      <trkpt lat="43.90495" lon="5.10989">
        <ele>121.26</ele>
        <time>2013-03-10T13:14:44Z</time>
      </trkpt>
      <trkpt lat="43.90476" lon="5.11006">
        <ele>116.94</ele>
        <time>2013-03-10T13:15:04Z</time>
      </trkpt>
      <trkpt lat="43.90463" lon="5.11022">
        <ele>115.5</ele>
        <time>2013-03-10T13:15:21Z</time>
      </trkpt>
      <trkpt lat="43.90447" lon="5.11038">
        <ele>116.46</ele>
        <time>2013-03-10T13:15:40Z</time>
      </trkpt>
      <trkpt lat="43.90432" lon="5.11053">
        <ele>116.46</ele>
        <time>2013-03-10T13:15:57Z</time>
      </trkpt>
      <trkpt lat="43.90411" lon="5.11063">
        <ele>115.5</ele>
        <time>2013-03-10T13:16:17Z</time>
      </trkpt>
      <trkpt lat="43.90389" lon="5.11071">
        <ele>114.53</ele>
        <time>2013-03-10T13:16:36Z</time>
      </trkpt>
      <trkpt lat="43.90376" lon="5.11079">
        <ele>115.5</ele>
        <time>2013-03-10T13:16:52Z</time>
      </trkpt>
      <trkpt lat="43.90361" lon="5.1108">
        <ele>116.94</ele>
        <time>2013-03-10T13:17:09Z</time>
      </trkpt>
      <trkpt lat="43.90341" lon="5.11077">
        <ele>117.42</ele>
        <time>2013-03-10T13:17:27Z</time>
      </trkpt>
      <trkpt lat="43.90318" lon="5.11076">
        <ele>116.46</ele>
        <time>2013-03-10T13:17:46Z</time>
      </trkpt>
      <trkpt lat="43.90301" lon="5.11076">
        <ele>118.86</ele>
        <time>2013-03-10T13:18:03Z</time>
      </trkpt>
      <trkpt lat="43.90281" lon="5.11077">
        <ele>122.22</ele>
        <time>2013-03-10T13:18:21Z</time>
      </trkpt>
      <trkpt lat="43.90262" lon="5.11078">
        <ele>124.63</ele>
        <time>2013-03-10T13:18:37Z</time>
      </trkpt>
      <trkpt lat="43.90247" lon="5.11079">
        <ele>127.03</ele>
        <time>2013-03-10T13:18:50Z</time>
      </trkpt>
      <trkpt lat="43.90221" lon="5.11087">
        <ele>125.11</ele>
        <time>2013-03-10T13:19:11Z</time>
      </trkpt>
      <trkpt lat="43.90202" lon="5.11095">
        <ele>122.71</ele>
        <time>2013-03-10T13:19:29Z</time>
      </trkpt>
      <trkpt lat="43.90194" lon="5.11097">
        <ele>119.82</ele>
        <time>2013-03-10T13:19:36Z</time>
      </trkpt>
      <trkpt lat="43.90174" lon="5.11099">
        <ele>115.98</ele>
        <time>2013-03-10T13:19:53Z</time>
      </trkpt>
      <trkpt lat="43.90158" lon="5.11099">
        <ele>113.57</ele>
        <time>2013-03-10T13:20:08Z</time>
      </trkpt>
      <trkpt lat="43.90153" lon="5.11099">
        <ele>113.09</ele>
        <time>2013-03-10T13:20:13Z</time>
      </trkpt>
      <trkpt lat="43.90136" lon="5.11098">
        <ele>112.61</ele>
        <time>2013-03-10T13:20:28Z</time>
      </trkpt>
      <trkpt lat="43.9012" lon="5.11098">
        <ele>112.61</ele>
        <time>2013-03-10T13:20:43Z</time>
      </trkpt>
      <trkpt lat="43.90105" lon="5.11099">
        <ele>113.09</ele>
        <time>2013-03-10T13:20:58Z</time>
      </trkpt>
      <trkpt lat="43.90089" lon="5.11098">
        <ele>113.57</ele>
        <time>2013-03-10T13:21:14Z</time>
      </trkpt>
      <trkpt lat="43.90076" lon="5.11097">
        <ele>112.61</ele>
        <time>2013-03-10T13:21:27Z</time>
      </trkpt>
      <trkpt lat="43.90061" lon="5.11093">
        <ele>112.61</ele>
        <time>2013-03-10T13:21:40Z</time>
      </trkpt>
      <trkpt lat="43.90047" lon="5.11089">
        <ele>113.57</ele>
        <time>2013-03-10T13:21:54Z</time>
      </trkpt>
      <trkpt lat="43.90046" lon="5.11089">
        <ele>113.57</ele>
        <time>2013-03-10T13:21:55Z</time>
      </trkpt>
      <trkpt lat="43.9003" lon="5.11088">
        <ele>113.09</ele>
        <time>2013-03-10T13:22:11Z</time>
      </trkpt>
      <trkpt lat="43.90028" lon="5.11088">
        <ele>112.61</ele>
        <time>2013-03-10T13:22:14Z</time>
      </trkpt>
      <trkpt lat="43.90025" lon="5.11087">
        <ele>112.61</ele>
        <time>2013-03-10T13:22:16Z</time>
      </trkpt>
      <trkpt lat="43.90002" lon="5.11084">
        <ele>111.17</ele>
        <time>2013-03-10T13:22:35Z</time>
      </trkpt>
      <trkpt lat="43.89985" lon="5.11081">
        <ele>110.21</ele>
        <time>2013-03-10T13:22:51Z</time>
      </trkpt>
      <trkpt lat="43.89968" lon="5.11078">
        <ele>109.25</ele>
        <time>2013-03-10T13:23:07Z</time>
      </trkpt>
      <trkpt lat="43.8995" lon="5.11076">
        <ele>107.81</ele>
        <time>2013-03-10T13:23:23Z</time>
      </trkpt>
      <trkpt lat="43.89935" lon="5.11077">
        <ele>107.81</ele>
        <time>2013-03-10T13:23:39Z</time>
      </trkpt>
      <trkpt lat="43.89923" lon="5.11076">
        <ele>108.77</ele>
        <time>2013-03-10T13:23:50Z</time>
      </trkpt>
      <trkpt lat="43.89921" lon="5.11076">
        <ele>109.25</ele>
        <time>2013-03-10T13:23:52Z</time>
      </trkpt>
      <trkpt lat="43.89904" lon="5.11071">
        <ele>110.21</ele>
        <time>2013-03-10T13:24:07Z</time>
      </trkpt>
      <trkpt lat="43.8989" lon="5.11058">
        <ele>111.65</ele>
        <time>2013-03-10T13:24:22Z</time>
      </trkpt>
      <trkpt lat="43.89875" lon="5.11042">
        <ele>113.09</ele>
        <time>2013-03-10T13:24:38Z</time>
      </trkpt>
      <trkpt lat="43.89861" lon="5.11027">
        <ele>113.57</ele>
        <time>2013-03-10T13:24:53Z</time>
      </trkpt>
      <trkpt lat="43.89847" lon="5.11011">
        <ele>113.57</ele>
        <time>2013-03-10T13:25:08Z</time>
      </trkpt>
      <trkpt lat="43.89832" lon="5.11">
        <ele>111.17</ele>
        <time>2013-03-10T13:25:23Z</time>
      </trkpt>
      <trkpt lat="43.89817" lon="5.1099">
        <ele>110.21</ele>
        <time>2013-03-10T13:25:39Z</time>
      </trkpt>
      <trkpt lat="43.89805" lon="5.10985">
        <ele>109.73</ele>
        <time>2013-03-10T13:25:55Z</time>
      </trkpt>
      <trkpt lat="43.8979" lon="5.10982">
        <ele>108.29</ele>
        <time>2013-03-10T13:26:10Z</time>
      </trkpt>
      <trkpt lat="43.89777" lon="5.10975">
        <ele>108.77</ele>
        <time>2013-03-10T13:26:25Z</time>
      </trkpt>
      <trkpt lat="43.89763" lon="5.10971">
        <ele>108.29</ele>
        <time>2013-03-10T13:26:41Z</time>
      </trkpt>
      <trkpt lat="43.89748" lon="5.10966">
        <ele>107.81</ele>
        <time>2013-03-10T13:26:55Z</time>
      </trkpt>
      <trkpt lat="43.89744" lon="5.10965">
        <ele>107.81</ele>
        <time>2013-03-10T13:26:59Z</time>
      </trkpt>
      <trkpt lat="43.89733" lon="5.10962">
        <ele>107.81</ele>
        <time>2013-03-10T13:27:15Z</time>
      </trkpt>
      <trkpt lat="43.89733" lon="5.10962">
        <ele>107.81</ele>
        <time>2013-03-10T13:27:41Z</time>
      </trkpt>
      <trkpt lat="43.89733" lon="5.1096">
        <ele>107.81</ele>
        <time>2013-03-10T13:28:08Z</time>
      </trkpt>
      <trkpt lat="43.89724" lon="5.10957">
        <ele>108.77</ele>
        <time>2013-03-10T13:28:26Z</time>
      </trkpt>
      <trkpt lat="43.89713" lon="5.10956">
        <ele>110.21</ele>
        <time>2013-03-10T13:28:42Z</time>
      </trkpt>
      <trkpt lat="43.89691" lon="5.10956">
        <ele>110.21</ele>
        <time>2013-03-10T13:29:01Z</time>
      </trkpt>
      <trkpt lat="43.89681" lon="5.10958">
        <ele>111.17</ele>
        <time>2013-03-10T13:29:15Z</time>
      </trkpt>
      <trkpt lat="43.8967" lon="5.1096">
        <ele>112.13</ele>
        <time>2013-03-10T13:29:25Z</time>
      </trkpt>
      <trkpt lat="43.89648" lon="5.10961">
        <ele>111.65</ele>
        <time>2013-03-10T13:29:43Z</time>
      </trkpt>
      <trkpt lat="43.89628" lon="5.10961">
        <ele>113.09</ele>
        <time>2013-03-10T13:30:00Z</time>
      </trkpt>
      <trkpt lat="43.89611" lon="5.10963">
        <ele>112.61</ele>
        <time>2013-03-10T13:30:17Z</time>
      </trkpt>
      <trkpt lat="43.89601" lon="5.10965">
        <ele>112.61</ele>
        <time>2013-03-10T13:30:30Z</time>
      </trkpt>
      <trkpt lat="43.89587" lon="5.1096">
        <ele>114.53</ele>
        <time>2013-03-10T13:30:45Z</time>
      </trkpt>
      <trkpt lat="43.89574" lon="5.10959">
        <ele>117.42</ele>
        <time>2013-03-10T13:30:58Z</time>
      </trkpt>
      <trkpt lat="43.89556" lon="5.10954">
        <ele>121.26</ele>
        <time>2013-03-10T13:31:14Z</time>
      </trkpt>
      <trkpt lat="43.89537" lon="5.10948">
        <ele>121.74</ele>
        <time>2013-03-10T13:31:31Z</time>
      </trkpt>
      <trkpt lat="43.89521" lon="5.10944">
        <ele>121.26</ele>
        <time>2013-03-10T13:31:45Z</time>
      </trkpt>
      <trkpt lat="43.89506" lon="5.10936">
        <ele>116.46</ele>
        <time>2013-03-10T13:32:00Z</time>
      </trkpt>
      <trkpt lat="43.89497" lon="5.10932">
        <ele>112.61</ele>
        <time>2013-03-10T13:32:13Z</time>
      </trkpt>
      <trkpt lat="43.89485" lon="5.10927">
        <ele>110.21</ele>
        <time>2013-03-10T13:32:26Z</time>
      </trkpt>
      <trkpt lat="43.89485" lon="5.10927">
        <ele>110.21</ele>
        <time>2013-03-10T13:32:41Z</time>
      </trkpt>
      <trkpt lat="43.89485" lon="5.10927">
        <ele>110.21</ele>
        <time>2013-03-10T13:32:59Z</time>
      </trkpt>
      <trkpt lat="43.89477" lon="5.1092">
        <ele>107.81</ele>
        <time>2013-03-10T13:33:11Z</time>
      </trkpt>
      <trkpt lat="43.89475" lon="5.10918">
        <ele>106.84</ele>
        <time>2013-03-10T13:33:13Z</time>
      </trkpt>
      <trkpt lat="43.89462" lon="5.1091">
        <ele>105.4</ele>
        <time>2013-03-10T13:33:26Z</time>
      </trkpt>
      <trkpt lat="43.89458" lon="5.10909">
        <ele>104.92</ele>
        <time>2013-03-10T13:33:30Z</time>
      </trkpt>
      <trkpt lat="43.89456" lon="5.10908">
        <ele>105.4</ele>
        <time>2013-03-10T13:33:39Z</time>
      </trkpt>
      <trkpt lat="43.89451" lon="5.10905">
        <ele>105.4</ele>
        <time>2013-03-10T13:33:45Z</time>
      </trkpt>
      <trkpt lat="43.89444" lon="5.10901">
        <ele>104.92</ele>
        <time>2013-03-10T13:33:51Z</time>
      </trkpt>
      <trkpt lat="43.89437" lon="5.10897">
        <ele>104.92</ele>
        <time>2013-03-10T13:34:03Z</time>
      </trkpt>
      <trkpt lat="43.89433" lon="5.10896">
        <ele>103.96</ele>
        <time>2013-03-10T13:34:14Z</time>
      </trkpt>
      <trkpt lat="43.89429" lon="5.10896">
        <ele>103.48</ele>
        <time>2013-03-10T13:34:25Z</time>
      </trkpt>
      <trkpt lat="43.89427" lon="5.10895">
        <ele>103.48</ele>
        <time>2013-03-10T13:34:36Z</time>
      </trkpt>
      <trkpt lat="43.89423" lon="5.10892">
        <ele>103.48</ele>
        <time>2013-03-10T13:34:57Z</time>
      </trkpt>
      <trkpt lat="43.89421" lon="5.10891">
        <ele>103.48</ele>
        <time>2013-03-10T13:34:58Z</time>
      </trkpt>
      <trkpt lat="43.89408" lon="5.10888">
        <ele>103</ele>
        <time>2013-03-10T13:35:12Z</time>
      </trkpt>
      <trkpt lat="43.89407" lon="5.10887">
        <ele>103</ele>
        <time>2013-03-10T13:35:14Z</time>
      </trkpt>
      <trkpt lat="43.89397" lon="5.10884">
        <ele>106.84</ele>
        <time>2013-03-10T13:35:22Z</time>
      </trkpt>
      <trkpt lat="43.89389" lon="5.10883">
        <ele>110.21</ele>
        <time>2013-03-10T13:35:29Z</time>
      </trkpt>
      <trkpt lat="43.8938" lon="5.10879">
        <ele>112.61</ele>
        <time>2013-03-10T13:35:42Z</time>
      </trkpt>
      <trkpt lat="43.89368" lon="5.10875">
        <ele>115.5</ele>
        <time>2013-03-10T13:35:54Z</time>
      </trkpt>
      <trkpt lat="43.89352" lon="5.1087">
        <ele>117.42</ele>
        <time>2013-03-10T13:36:07Z</time>
      </trkpt>
      <trkpt lat="43.89349" lon="5.10869">
        <ele>117.42</ele>
        <time>2013-03-10T13:36:10Z</time>
      </trkpt>
      <trkpt lat="43.89345" lon="5.10867">
        <ele>117.42</ele>
        <time>2013-03-10T13:36:13Z</time>
      </trkpt>
      <trkpt lat="43.89328" lon="5.10861">
        <ele>120.78</ele>
        <time>2013-03-10T13:36:26Z</time>
      </trkpt>
      <trkpt lat="43.89313" lon="5.10854">
        <ele>125.59</ele>
        <time>2013-03-10T13:36:41Z</time>
      </trkpt>
      <trkpt lat="43.89297" lon="5.10851">
        <ele>123.19</ele>
        <time>2013-03-10T13:36:53Z</time>
      </trkpt>
      <trkpt lat="43.89291" lon="5.10849">
        <ele>120.78</ele>
        <time>2013-03-10T13:36:58Z</time>
      </trkpt>
      <trkpt lat="43.89283" lon="5.10847">
        <ele>120.78</ele>
        <time>2013-03-10T13:37:04Z</time>
      </trkpt>
      <trkpt lat="43.89273" lon="5.10843">
        <ele>121.74</ele>
        <time>2013-03-10T13:37:13Z</time>
      </trkpt>
      <trkpt lat="43.8927" lon="5.10842">
        <ele>120.78</ele>
        <time>2013-03-10T13:37:15Z</time>
      </trkpt>
      <trkpt lat="43.89264" lon="5.10841">
        <ele>119.82</ele>
        <time>2013-03-10T13:37:21Z</time>
      </trkpt>
      <trkpt lat="43.8926" lon="5.1084">
        <ele>119.34</ele>
        <time>2013-03-10T13:37:24Z</time>
      </trkpt>
      <trkpt lat="43.89248" lon="5.10836">
        <ele>118.86</ele>
        <time>2013-03-10T13:37:36Z</time>
      </trkpt>
      <trkpt lat="43.89233" lon="5.10833">
        <ele>114.53</ele>
        <time>2013-03-10T13:37:48Z</time>
      </trkpt>
      <trkpt lat="43.89221" lon="5.10831">
        <ele>109.73</ele>
        <time>2013-03-10T13:37:57Z</time>
      </trkpt>
      <trkpt lat="43.89206" lon="5.10828">
        <ele>104.92</ele>
        <time>2013-03-10T13:38:10Z</time>
      </trkpt>
      <trkpt lat="43.89204" lon="5.10827">
        <ele>104.44</ele>
        <time>2013-03-10T13:38:12Z</time>
      </trkpt>
      <trkpt lat="43.89192" lon="5.10824">
        <ele>102.52</ele>
        <time>2013-03-10T13:38:22Z</time>
      </trkpt>
      <trkpt lat="43.89183" lon="5.10822">
        <ele>101.56</ele>
        <time>2013-03-10T13:38:31Z</time>
      </trkpt>
      <trkpt lat="43.89175" lon="5.1082">
        <ele>100.6</ele>
        <time>2013-03-10T13:38:38Z</time>
      </trkpt>
      <trkpt lat="43.89165" lon="5.10818">
        <ele>98.67</ele>
        <time>2013-03-10T13:38:48Z</time>
      </trkpt>
      <trkpt lat="43.89158" lon="5.10815">
        <ele>97.71</ele>
        <time>2013-03-10T13:38:55Z</time>
      </trkpt>
      <trkpt lat="43.89153" lon="5.10813">
        <ele>97.71</ele>
        <time>2013-03-10T13:38:59Z</time>
      </trkpt>
      <trkpt lat="43.89151" lon="5.10813">
        <ele>97.23</ele>
        <time>2013-03-10T13:39:01Z</time>
      </trkpt>
      <trkpt lat="43.89138" lon="5.10807">
        <ele>95.79</ele>
        <time>2013-03-10T13:39:14Z</time>
      </trkpt>
      <trkpt lat="43.89126" lon="5.10806">
        <ele>94.83</ele>
        <time>2013-03-10T13:39:25Z</time>
      </trkpt>
      <trkpt lat="43.89123" lon="5.10805">
        <ele>94.83</ele>
        <time>2013-03-10T13:39:28Z</time>
      </trkpt>
      <trkpt lat="43.89121" lon="5.10805">
        <ele>94.83</ele>
        <time>2013-03-10T13:39:30Z</time>
      </trkpt>
      <trkpt lat="43.89115" lon="5.10805">
        <ele>95.79</ele>
        <time>2013-03-10T13:39:35Z</time>
      </trkpt>
      <trkpt lat="43.89105" lon="5.10804">
        <ele>95.31</ele>
        <time>2013-03-10T13:39:44Z</time>
      </trkpt>
      <trkpt lat="43.89094" lon="5.10803">
        <ele>95.31</ele>
        <time>2013-03-10T13:39:54Z</time>
      </trkpt>
      <trkpt lat="43.8909" lon="5.10806">
        <ele>95.79</ele>
        <time>2013-03-10T13:40:00Z</time>
      </trkpt>
      <trkpt lat="43.89088" lon="5.10806">
        <ele>96.27</ele>
        <time>2013-03-10T13:40:02Z</time>
      </trkpt>
      <trkpt lat="43.89081" lon="5.10813">
        <ele>97.23</ele>
        <time>2013-03-10T13:40:14Z</time>
      </trkpt>
      <trkpt lat="43.8908" lon="5.10814">
        <ele>97.71</ele>
        <time>2013-03-10T13:40:28Z</time>
      </trkpt>
      <trkpt lat="43.8908" lon="5.10815">
        <ele>98.19</ele>
        <time>2013-03-10T13:40:43Z</time>
      </trkpt>
      <trkpt lat="43.89075" lon="5.10817">
        <ele>97.23</ele>
        <time>2013-03-10T13:41:02Z</time>
      </trkpt>
      <trkpt lat="43.89059" lon="5.10822">
        <ele>98.67</ele>
        <time>2013-03-10T13:41:16Z</time>
      </trkpt>
      <trkpt lat="43.89041" lon="5.10824">
        <ele>100.11</ele>
        <time>2013-03-10T13:41:30Z</time>
      </trkpt>
      <trkpt lat="43.89028" lon="5.10827">
        <ele>100.6</ele>
        <time>2013-03-10T13:41:43Z</time>
      </trkpt>
      <trkpt lat="43.89025" lon="5.10828">
        <ele>101.08</ele>
        <time>2013-03-10T13:41:46Z</time>
      </trkpt>
      <trkpt lat="43.89011" lon="5.10829">
        <ele>101.08</ele>
        <time>2013-03-10T13:41:58Z</time>
      </trkpt>
      <trkpt lat="43.89008" lon="5.1083">
        <ele>101.56</ele>
        <time>2013-03-10T13:42:01Z</time>
      </trkpt>
      <trkpt lat="43.89004" lon="5.10829">
        <ele>101.56</ele>
        <time>2013-03-10T13:42:04Z</time>
      </trkpt>
      <trkpt lat="43.88995" lon="5.10831">
        <ele>100.11</ele>
        <time>2013-03-10T13:42:12Z</time>
      </trkpt>
      <trkpt lat="43.88979" lon="5.10835">
        <ele>98.19</ele>
        <time>2013-03-10T13:42:26Z</time>
      </trkpt>
      <trkpt lat="43.88977" lon="5.10836">
        <ele>97.71</ele>
        <time>2013-03-10T13:42:29Z</time>
      </trkpt>
      <trkpt lat="43.88973" lon="5.10836">
        <ele>98.19</ele>
        <time>2013-03-10T13:42:32Z</time>
      </trkpt>
      <trkpt lat="43.88961" lon="5.10839">
        <ele>98.19</ele>
        <time>2013-03-10T13:42:43Z</time>
      </trkpt>
      <trkpt lat="43.88947" lon="5.10842">
        <ele>98.67</ele>
        <time>2013-03-10T13:42:56Z</time>
      </trkpt>
      <trkpt lat="43.88941" lon="5.10843">
        <ele>99.15</ele>
        <time>2013-03-10T13:43:02Z</time>
      </trkpt>
      <trkpt lat="43.88927" lon="5.10848">
        <ele>99.15</ele>
        <time>2013-03-10T13:43:17Z</time>
      </trkpt>
      <trkpt lat="43.88916" lon="5.10852">
        <ele>99.63</ele>
        <time>2013-03-10T13:43:26Z</time>
      </trkpt>
      <trkpt lat="43.88911" lon="5.10855">
        <ele>100.6</ele>
        <time>2013-03-10T13:43:31Z</time>
      </trkpt>
      <trkpt lat="43.88908" lon="5.10857">
        <ele>100.6</ele>
        <time>2013-03-10T13:43:34Z</time>
      </trkpt>
      <trkpt lat="43.88905" lon="5.10858">
        <ele>100.11</ele>
        <time>2013-03-10T13:43:38Z</time>
      </trkpt>
      <trkpt lat="43.88903" lon="5.1086">
        <ele>100.6</ele>
        <time>2013-03-10T13:43:40Z</time>
      </trkpt>
      <trkpt lat="43.88892" lon="5.10865">
        <ele>101.56</ele>
        <time>2013-03-10T13:43:57Z</time>
      </trkpt>
      <trkpt lat="43.88883" lon="5.1087">
        <ele>101.56</ele>
        <time>2013-03-10T13:44:07Z</time>
      </trkpt>
      <trkpt lat="43.88868" lon="5.10878">
        <ele>102.04</ele>
        <time>2013-03-10T13:44:22Z</time>
      </trkpt>
      <trkpt lat="43.88855" lon="5.10885">
        <ele>103.96</ele>
        <time>2013-03-10T13:44:35Z</time>
      </trkpt>
      <trkpt lat="43.88851" lon="5.10885">
        <ele>103.96</ele>
        <time>2013-03-10T13:44:38Z</time>
      </trkpt>
      <trkpt lat="43.88841" lon="5.10885">
        <ele>103.48</ele>
        <time>2013-03-10T13:44:49Z</time>
      </trkpt>
      <trkpt lat="43.88835" lon="5.10884">
        <ele>103</ele>
        <time>2013-03-10T13:44:54Z</time>
      </trkpt>
      <trkpt lat="43.88827" lon="5.10882">
        <ele>103.48</ele>
        <time>2013-03-10T13:45:01Z</time>
      </trkpt>
      <trkpt lat="43.88817" lon="5.10879">
        <ele>102.52</ele>
        <time>2013-03-10T13:45:11Z</time>
      </trkpt>
      <trkpt lat="43.88803" lon="5.10877">
        <ele>102.52</ele>
        <time>2013-03-10T13:45:25Z</time>
      </trkpt>
      <trkpt lat="43.88799" lon="5.10877">
        <ele>103</ele>
        <time>2013-03-10T13:45:29Z</time>
      </trkpt>
      <trkpt lat="43.88797" lon="5.10878">
        <ele>103.48</ele>
        <time>2013-03-10T13:45:32Z</time>
      </trkpt>
      <trkpt lat="43.88795" lon="5.10878">
        <ele>103.96</ele>
        <time>2013-03-10T13:45:34Z</time>
      </trkpt>
      <trkpt lat="43.88792" lon="5.10879">
        <ele>103.96</ele>
        <time>2013-03-10T13:45:37Z</time>
      </trkpt>
      <trkpt lat="43.88784" lon="5.10881">
        <ele>104.44</ele>
        <time>2013-03-10T13:45:44Z</time>
      </trkpt>
      <trkpt lat="43.88777" lon="5.10882">
        <ele>104.44</ele>
        <time>2013-03-10T13:45:50Z</time>
      </trkpt>
      <trkpt lat="43.88775" lon="5.10884">
        <ele>104.44</ele>
        <time>2013-03-10T13:45:53Z</time>
      </trkpt>
      <trkpt lat="43.88771" lon="5.10884">
        <ele>104.92</ele>
        <time>2013-03-10T13:45:56Z</time>
      </trkpt>
      <trkpt lat="43.88769" lon="5.10885">
        <ele>104.92</ele>
        <time>2013-03-10T13:45:58Z</time>
      </trkpt>
      <trkpt lat="43.88767" lon="5.10885">
        <ele>104.44</ele>
        <time>2013-03-10T13:46:00Z</time>
      </trkpt>
      <trkpt lat="43.88757" lon="5.10888">
        <ele>104.92</ele>
        <time>2013-03-10T13:46:09Z</time>
      </trkpt>
      <trkpt lat="43.88741" lon="5.10892">
        <ele>103</ele>
        <time>2013-03-10T13:46:23Z</time>
      </trkpt>
      <trkpt lat="43.88726" lon="5.10895">
        <ele>101.08</ele>
        <time>2013-03-10T13:46:37Z</time>
      </trkpt>
      <trkpt lat="43.88714" lon="5.10898">
        <ele>102.04</ele>
        <time>2013-03-10T13:46:50Z</time>
      </trkpt>
      <trkpt lat="43.88701" lon="5.109">
        <ele>103.96</ele>
        <time>2013-03-10T13:47:03Z</time>
      </trkpt>
      <trkpt lat="43.88688" lon="5.10904">
        <ele>106.36</ele>
        <time>2013-03-10T13:47:17Z</time>
      </trkpt>
      <trkpt lat="43.88679" lon="5.10905">
        <ele>106.36</ele>
        <time>2013-03-10T13:47:27Z</time>
      </trkpt>
      <trkpt lat="43.88666" lon="5.10906">
        <ele>109.73</ele>
        <time>2013-03-10T13:47:40Z</time>
      </trkpt>
      <trkpt lat="43.88652" lon="5.10908">
        <ele>113.09</ele>
        <time>2013-03-10T13:47:54Z</time>
      </trkpt>
      <trkpt lat="43.88641" lon="5.10911">
        <ele>114.53</ele>
        <time>2013-03-10T13:48:06Z</time>
      </trkpt>
      <trkpt lat="43.88628" lon="5.10912">
        <ele>111.17</ele>
        <time>2013-03-10T13:48:20Z</time>
      </trkpt>
      <trkpt lat="43.88627" lon="5.10912">
        <ele>111.17</ele>
        <time>2013-03-10T13:48:21Z</time>
      </trkpt>
      <trkpt lat="43.88615" lon="5.10909">
        <ele>111.17</ele>
        <time>2013-03-10T13:48:33Z</time>
      </trkpt>
      <trkpt lat="43.88605" lon="5.10906">
        <ele>107.32</ele>
        <time>2013-03-10T13:48:45Z</time>
      </trkpt>
      <trkpt lat="43.88605" lon="5.10904">
        <ele>106.84</ele>
        <time>2013-03-10T13:48:47Z</time>
      </trkpt>
      <trkpt lat="43.88603" lon="5.10901">
        <ele>105.88</ele>
        <time>2013-03-10T13:48:56Z</time>
      </trkpt>
      <trkpt lat="43.88603" lon="5.10901">
        <ele>105.88</ele>
        <time>2013-03-10T13:49:20Z</time>
      </trkpt>
      <trkpt lat="43.88603" lon="5.109">
        <ele>104.92</ele>
        <time>2013-03-10T13:49:59Z</time>
      </trkpt>
      <trkpt lat="43.88603" lon="5.109">
        <ele>104.92</ele>
        <time>2013-03-10T13:50:38Z</time>
      </trkpt>
      <trkpt lat="43.88603" lon="5.109">
        <ele>104.44</ele>
        <time>2013-03-10T13:51:16Z</time>
      </trkpt>
      <trkpt lat="43.88603" lon="5.10901">
        <ele>103.48</ele>
        <time>2013-03-10T13:51:54Z</time>
      </trkpt>
      <trkpt lat="43.88603" lon="5.10901">
        <ele>103</ele>
        <time>2013-03-10T13:52:27Z</time>
      </trkpt>
      <trkpt lat="43.88603" lon="5.10901">
        <ele>103</ele>
        <time>2013-03-10T13:53:00Z</time>
      </trkpt>
      <trkpt lat="43.88603" lon="5.10901">
        <ele>103</ele>
        <time>2013-03-10T13:53:23Z</time>
      </trkpt>
      <trkpt lat="43.88602" lon="5.10901">
        <ele>102.04</ele>
        <time>2013-03-10T13:53:50Z</time>
      </trkpt>
      <trkpt lat="43.88602" lon="5.10901">
        <ele>102.04</ele>
        <time>2013-03-10T13:54:30Z</time>
      </trkpt>
      <trkpt lat="43.88602" lon="5.10901">
        <ele>102.04</ele>
        <time>2013-03-10T13:55:00Z</time>
      </trkpt>
      <trkpt lat="43.88601" lon="5.109">
        <ele>102.52</ele>
        <time>2013-03-10T13:55:38Z</time>
      </trkpt>
      <trkpt lat="43.88601" lon="5.10901">
        <ele>102.52</ele>
        <time>2013-03-10T13:56:10Z</time>
      </trkpt>
      <trkpt lat="43.88601" lon="5.10901">
        <ele>102.52</ele>
        <time>2013-03-10T13:56:40Z</time>
      </trkpt>
      <trkpt lat="43.88601" lon="5.10901">
        <ele>102.52</ele>
        <time>2013-03-10T13:57:03Z</time>
      </trkpt>
      <trkpt lat="43.88599" lon="5.10905">
        <ele>103</ele>
        <time>2013-03-10T13:57:13Z</time>
      </trkpt>
      <trkpt lat="43.88598" lon="5.10905">
        <ele>103</ele>
        <time>2013-03-10T13:57:15Z</time>
      </trkpt>
      <trkpt lat="43.88587" lon="5.1091">
        <ele>101.56</ele>
        <time>2013-03-10T13:57:27Z</time>
      </trkpt>
      <trkpt lat="43.8858" lon="5.1091">
        <ele>100.11</ele>
        <time>2013-03-10T13:57:36Z</time>
      </trkpt>
      <trkpt lat="43.88567" lon="5.1091">
        <ele>98.19</ele>
        <time>2013-03-10T13:57:50Z</time>
      </trkpt>
      <trkpt lat="43.88551" lon="5.10912">
        <ele>98.19</ele>
        <time>2013-03-10T13:58:05Z</time>
      </trkpt>
      <trkpt lat="43.88542" lon="5.10912">
        <ele>98.67</ele>
        <time>2013-03-10T13:58:15Z</time>
      </trkpt>
      <trkpt lat="43.8854" lon="5.10912">
        <ele>99.63</ele>
        <time>2013-03-10T13:58:17Z</time>
      </trkpt>
      <trkpt lat="43.88526" lon="5.10914">
        <ele>102.04</ele>
        <time>2013-03-10T13:58:32Z</time>
      </trkpt>
      <trkpt lat="43.88512" lon="5.10916">
        <ele>104.92</ele>
        <time>2013-03-10T13:58:46Z</time>
      </trkpt>
      <trkpt lat="43.88501" lon="5.10917">
        <ele>103.96</ele>
        <time>2013-03-10T13:58:58Z</time>
      </trkpt>
      <trkpt lat="43.88489" lon="5.10918">
        <ele>104.44</ele>
        <time>2013-03-10T13:59:11Z</time>
      </trkpt>
      <trkpt lat="43.88476" lon="5.1092">
        <ele>103.96</ele>
        <time>2013-03-10T13:59:21Z</time>
      </trkpt>
      <trkpt lat="43.88457" lon="5.10922">
        <ele>103</ele>
        <time>2013-03-10T13:59:32Z</time>
      </trkpt>
      <trkpt lat="43.8845" lon="5.10923">
        <ele>103</ele>
        <time>2013-03-10T13:59:43Z</time>
      </trkpt>
      <trkpt lat="43.88436" lon="5.10923">
        <ele>103</ele>
        <time>2013-03-10T13:59:55Z</time>
      </trkpt>
      <trkpt lat="43.88429" lon="5.10918">
        <ele>103.48</ele>
        <time>2013-03-10T14:00:07Z</time>
      </trkpt>
      <trkpt lat="43.88427" lon="5.10917">
        <ele>104.92</ele>
        <time>2013-03-10T14:00:09Z</time>
      </trkpt>
      <trkpt lat="43.88419" lon="5.10911">
        <ele>109.25</ele>
        <time>2013-03-10T14:00:21Z</time>
      </trkpt>
      <trkpt lat="43.88416" lon="5.10906">
        <ele>110.21</ele>
        <time>2013-03-10T14:00:31Z</time>
      </trkpt>
      <trkpt lat="43.88403" lon="5.10901">
        <ele>112.61</ele>
        <time>2013-03-10T14:00:42Z</time>
      </trkpt>
      <trkpt lat="43.884" lon="5.10897">
        <ele>115.01</ele>
        <time>2013-03-10T14:00:48Z</time>
      </trkpt>
      <trkpt lat="43.88398" lon="5.10896">
        <ele>115.5</ele>
        <time>2013-03-10T14:00:50Z</time>
      </trkpt>
      <trkpt lat="43.88391" lon="5.10892">
        <ele>115.98</ele>
        <time>2013-03-10T14:00:56Z</time>
      </trkpt>
      <trkpt lat="43.88385" lon="5.10888">
        <ele>116.46</ele>
        <time>2013-03-10T14:01:02Z</time>
      </trkpt>
      <trkpt lat="43.88374" lon="5.10882">
        <ele>117.9</ele>
        <time>2013-03-10T14:01:13Z</time>
      </trkpt>
      <trkpt lat="43.88354" lon="5.10873">
        <ele>114.05</ele>
        <time>2013-03-10T14:01:26Z</time>
      </trkpt>
      <trkpt lat="43.88343" lon="5.10864">
        <ele>112.13</ele>
        <time>2013-03-10T14:01:37Z</time>
      </trkpt>
      <trkpt lat="43.88339" lon="5.10862">
        <ele>111.17</ele>
        <time>2013-03-10T14:01:40Z</time>
      </trkpt>
      <trkpt lat="43.88335" lon="5.10859">
        <ele>109.73</ele>
        <time>2013-03-10T14:01:44Z</time>
      </trkpt>
      <trkpt lat="43.8833" lon="5.10855">
        <ele>107.32</ele>
        <time>2013-03-10T14:01:48Z</time>
      </trkpt>
      <trkpt lat="43.88313" lon="5.1085">
        <ele>104.92</ele>
        <time>2013-03-10T14:02:00Z</time>
      </trkpt>
      <trkpt lat="43.883" lon="5.10843">
        <ele>103.48</ele>
        <time>2013-03-10T14:02:12Z</time>
      </trkpt>
      <trkpt lat="43.8829" lon="5.10838">
        <ele>103.96</ele>
        <time>2013-03-10T14:02:21Z</time>
      </trkpt>
      <trkpt lat="43.88277" lon="5.10829">
        <ele>105.4</ele>
        <time>2013-03-10T14:02:34Z</time>
      </trkpt>
      <trkpt lat="43.8827" lon="5.1082">
        <ele>108.29</ele>
        <time>2013-03-10T14:02:46Z</time>
      </trkpt>
      <trkpt lat="43.88263" lon="5.10812">
        <ele>112.13</ele>
        <time>2013-03-10T14:02:56Z</time>
      </trkpt>
      <trkpt lat="43.88257" lon="5.10802">
        <ele>117.42</ele>
        <time>2013-03-10T14:03:08Z</time>
      </trkpt>
      <trkpt lat="43.88255" lon="5.108">
        <ele>118.38</ele>
        <time>2013-03-10T14:03:11Z</time>
      </trkpt>
      <trkpt lat="43.8825" lon="5.10793">
        <ele>121.74</ele>
        <time>2013-03-10T14:03:21Z</time>
      </trkpt>
      <trkpt lat="43.88237" lon="5.10786">
        <ele>121.26</ele>
        <time>2013-03-10T14:03:33Z</time>
      </trkpt>
      <trkpt lat="43.88228" lon="5.10781">
        <ele>121.74</ele>
        <time>2013-03-10T14:03:43Z</time>
      </trkpt>
      <trkpt lat="43.88208" lon="5.10778">
        <ele>115.5</ele>
        <time>2013-03-10T14:03:56Z</time>
      </trkpt>
      <trkpt lat="43.88195" lon="5.10776">
        <ele>110.69</ele>
        <time>2013-03-10T14:04:06Z</time>
      </trkpt>
      <trkpt lat="43.88187" lon="5.10776">
        <ele>109.73</ele>
        <time>2013-03-10T14:04:13Z</time>
      </trkpt>
      <trkpt lat="43.88169" lon="5.10776">
        <ele>107.32</ele>
        <time>2013-03-10T14:04:26Z</time>
      </trkpt>
      <trkpt lat="43.88161" lon="5.10775">
        <ele>105.88</ele>
        <time>2013-03-10T14:04:32Z</time>
      </trkpt>
      <trkpt lat="43.88147" lon="5.10774">
        <ele>103</ele>
        <time>2013-03-10T14:04:44Z</time>
      </trkpt>
      <trkpt lat="43.88136" lon="5.10771">
        <ele>103.96</ele>
        <time>2013-03-10T14:04:57Z</time>
      </trkpt>
      <trkpt lat="43.88129" lon="5.10773">
        <ele>108.29</ele>
        <time>2013-03-10T14:05:11Z</time>
      </trkpt>
      <trkpt lat="43.88123" lon="5.10776">
        <ele>113.57</ele>
        <time>2013-03-10T14:05:22Z</time>
      </trkpt>
      <trkpt lat="43.88118" lon="5.10781">
        <ele>115.98</ele>
        <time>2013-03-10T14:05:28Z</time>
      </trkpt>
      <trkpt lat="43.88108" lon="5.10791">
        <ele>119.34</ele>
        <time>2013-03-10T14:05:40Z</time>
      </trkpt>
      <trkpt lat="43.88102" lon="5.10796">
        <ele>118.86</ele>
        <time>2013-03-10T14:05:45Z</time>
      </trkpt>
      <trkpt lat="43.881" lon="5.10797">
        <ele>117.9</ele>
        <time>2013-03-10T14:05:47Z</time>
      </trkpt>
      <trkpt lat="43.88094" lon="5.108">
        <ele>115.5</ele>
        <time>2013-03-10T14:05:58Z</time>
      </trkpt>
      <trkpt lat="43.88092" lon="5.10801">
        <ele>115.01</ele>
        <time>2013-03-10T14:06:05Z</time>
      </trkpt>
      <trkpt lat="43.88084" lon="5.10805">
        <ele>112.61</ele>
        <time>2013-03-10T14:06:10Z</time>
      </trkpt>
      <trkpt lat="43.88072" lon="5.1081">
        <ele>109.25</ele>
        <time>2013-03-10T14:06:18Z</time>
      </trkpt>
      <trkpt lat="43.88059" lon="5.10807">
        <ele>108.77</ele>
        <time>2013-03-10T14:06:29Z</time>
      </trkpt>
      <trkpt lat="43.88044" lon="5.10803">
        <ele>109.25</ele>
        <time>2013-03-10T14:06:44Z</time>
      </trkpt>
      <trkpt lat="43.88033" lon="5.10799">
        <ele>111.17</ele>
        <time>2013-03-10T14:06:55Z</time>
      </trkpt>
      <trkpt lat="43.88023" lon="5.10795">
        <ele>114.05</ele>
        <time>2013-03-10T14:07:07Z</time>
      </trkpt>
      <trkpt lat="43.8801" lon="5.10789">
        <ele>113.57</ele>
        <time>2013-03-10T14:07:19Z</time>
      </trkpt>
      <trkpt lat="43.87997" lon="5.10783">
        <ele>115.01</ele>
        <time>2013-03-10T14:07:33Z</time>
      </trkpt>
      <trkpt lat="43.8799" lon="5.10779">
        <ele>115.5</ele>
        <time>2013-03-10T14:07:41Z</time>
      </trkpt>
      <trkpt lat="43.8798" lon="5.10775">
        <ele>115.01</ele>
        <time>2013-03-10T14:07:49Z</time>
      </trkpt>
      <trkpt lat="43.87968" lon="5.10768">
        <ele>114.53</ele>
        <time>2013-03-10T14:08:01Z</time>
      </trkpt>
      <trkpt lat="43.87954" lon="5.10762">
        <ele>112.61</ele>
        <time>2013-03-10T14:08:14Z</time>
      </trkpt>
      <trkpt lat="43.87951" lon="5.10759">
        <ele>112.61</ele>
        <time>2013-03-10T14:08:17Z</time>
      </trkpt>
      <trkpt lat="43.8794" lon="5.10751">
        <ele>111.65</ele>
        <time>2013-03-10T14:08:30Z</time>
      </trkpt>
      <trkpt lat="43.87928" lon="5.10745">
        <ele>109.73</ele>
        <time>2013-03-10T14:08:42Z</time>
      </trkpt>
      <trkpt lat="43.87923" lon="5.10742">
        <ele>107.81</ele>
        <time>2013-03-10T14:08:56Z</time>
      </trkpt>
      <trkpt lat="43.87916" lon="5.10737">
        <ele>104.92</ele>
        <time>2013-03-10T14:09:11Z</time>
      </trkpt>
      <trkpt lat="43.87903" lon="5.1073">
        <ele>102.04</ele>
        <time>2013-03-10T14:09:23Z</time>
      </trkpt>
      <trkpt lat="43.8789" lon="5.10724">
        <ele>101.08</ele>
        <time>2013-03-10T14:09:36Z</time>
      </trkpt>
      <trkpt lat="43.87888" lon="5.10724">
        <ele>101.08</ele>
        <time>2013-03-10T14:09:38Z</time>
      </trkpt>
      <trkpt lat="43.87874" lon="5.10718">
        <ele>98.67</ele>
        <time>2013-03-10T14:09:52Z</time>
      </trkpt>
      <trkpt lat="43.87869" lon="5.10715">
        <ele>99.15</ele>
        <time>2013-03-10T14:09:57Z</time>
      </trkpt>
      <trkpt lat="43.87853" lon="5.10709">
        <ele>100.11</ele>
        <time>2013-03-10T14:10:12Z</time>
      </trkpt>
      <trkpt lat="43.8785" lon="5.10706">
        <ele>101.08</ele>
        <time>2013-03-10T14:10:16Z</time>
      </trkpt>
      <trkpt lat="43.87838" lon="5.107">
        <ele>101.56</ele>
        <time>2013-03-10T14:10:27Z</time>
      </trkpt>
      <trkpt lat="43.87823" lon="5.10694">
        <ele>100.6</ele>
        <time>2013-03-10T14:10:40Z</time>
      </trkpt>
      <trkpt lat="43.87807" lon="5.10686">
        <ele>99.15</ele>
        <time>2013-03-10T14:10:55Z</time>
      </trkpt>
      <trkpt lat="43.87791" lon="5.10671">
        <ele>100.11</ele>
        <time>2013-03-10T14:11:12Z</time>
      </trkpt>
      <trkpt lat="43.8778" lon="5.10655">
        <ele>99.63</ele>
        <time>2013-03-10T14:11:27Z</time>
      </trkpt>
      <trkpt lat="43.87779" lon="5.10653">
        <ele>99.63</ele>
        <time>2013-03-10T14:11:29Z</time>
      </trkpt>
      <trkpt lat="43.87777" lon="5.10648">
        <ele>99.15</ele>
        <time>2013-03-10T14:11:44Z</time>
      </trkpt>
      <trkpt lat="43.87775" lon="5.10645">
        <ele>98.67</ele>
        <time>2013-03-10T14:11:54Z</time>
      </trkpt>
      <trkpt lat="43.8777" lon="5.10638">
        <ele>97.71</ele>
        <time>2013-03-10T14:12:00Z</time>
      </trkpt>
      <trkpt lat="43.87766" lon="5.1063">
        <ele>97.71</ele>
        <time>2013-03-10T14:12:08Z</time>
      </trkpt>
      <trkpt lat="43.87763" lon="5.10628">
        <ele>97.23</ele>
        <time>2013-03-10T14:12:11Z</time>
      </trkpt>
      <trkpt lat="43.87752" lon="5.10614">
        <ele>96.75</ele>
        <time>2013-03-10T14:12:25Z</time>
      </trkpt>
      <trkpt lat="43.87751" lon="5.10614">
        <ele>96.75</ele>
        <time>2013-03-10T14:12:26Z</time>
      </trkpt>
      <trkpt lat="43.87747" lon="5.10612">
        <ele>96.75</ele>
        <time>2013-03-10T14:12:30Z</time>
      </trkpt>
      <trkpt lat="43.87743" lon="5.10612">
        <ele>96.75</ele>
        <time>2013-03-10T14:12:33Z</time>
      </trkpt>
      <trkpt lat="43.8774" lon="5.10612">
        <ele>96.75</ele>
        <time>2013-03-10T14:12:36Z</time>
      </trkpt>
      <trkpt lat="43.87725" lon="5.10622">
        <ele>96.75</ele>
        <time>2013-03-10T14:12:51Z</time>
      </trkpt>
      <trkpt lat="43.87719" lon="5.10631">
        <ele>97.23</ele>
        <time>2013-03-10T14:12:59Z</time>
      </trkpt>
      <trkpt lat="43.87707" lon="5.10644">
        <ele>98.19</ele>
        <time>2013-03-10T14:13:12Z</time>
      </trkpt>
      <trkpt lat="43.87698" lon="5.10658">
        <ele>99.15</ele>
        <time>2013-03-10T14:13:26Z</time>
      </trkpt>
      <trkpt lat="43.87695" lon="5.10661">
        <ele>99.15</ele>
        <time>2013-03-10T14:13:29Z</time>
      </trkpt>
      <trkpt lat="43.87691" lon="5.10664">
        <ele>98.67</ele>
        <time>2013-03-10T14:13:33Z</time>
      </trkpt>
      <trkpt lat="43.87683" lon="5.10678">
        <ele>101.08</ele>
        <time>2013-03-10T14:13:47Z</time>
      </trkpt>
      <trkpt lat="43.87672" lon="5.10692">
        <ele>102.04</ele>
        <time>2013-03-10T14:14:01Z</time>
      </trkpt>
      <trkpt lat="43.87661" lon="5.10699">
        <ele>103</ele>
        <time>2013-03-10T14:14:15Z</time>
      </trkpt>
      <trkpt lat="43.87661" lon="5.10699">
        <ele>103</ele>
        <time>2013-03-10T14:14:17Z</time>
      </trkpt>
      <trkpt lat="43.87659" lon="5.10701">
        <ele>103.48</ele>
        <time>2013-03-10T14:14:19Z</time>
      </trkpt>
      <trkpt lat="43.87655" lon="5.10707">
        <ele>103.48</ele>
        <time>2013-03-10T14:14:25Z</time>
      </trkpt>
      <trkpt lat="43.87642" lon="5.1072">
        <ele>101.08</ele>
        <time>2013-03-10T14:14:39Z</time>
      </trkpt>
      <trkpt lat="43.87633" lon="5.10732">
        <ele>101.08</ele>
        <time>2013-03-10T14:14:51Z</time>
      </trkpt>
      <trkpt lat="43.87622" lon="5.10745">
        <ele>101.08</ele>
        <time>2013-03-10T14:15:05Z</time>
      </trkpt>
      <trkpt lat="43.87614" lon="5.10757">
        <ele>100.6</ele>
        <time>2013-03-10T14:15:17Z</time>
      </trkpt>
      <trkpt lat="43.87612" lon="5.10759">
        <ele>100.6</ele>
        <time>2013-03-10T14:15:19Z</time>
      </trkpt>
      <trkpt lat="43.87611" lon="5.10761">
        <ele>101.08</ele>
        <time>2013-03-10T14:15:22Z</time>
      </trkpt>
      <trkpt lat="43.87606" lon="5.10764">
        <ele>100.6</ele>
        <time>2013-03-10T14:15:26Z</time>
      </trkpt>
      <trkpt lat="43.87598" lon="5.1077">
        <ele>102.04</ele>
        <time>2013-03-10T14:15:37Z</time>
      </trkpt>
      <trkpt lat="43.87595" lon="5.10777">
        <ele>102.04</ele>
        <time>2013-03-10T14:15:43Z</time>
      </trkpt>
      <trkpt lat="43.87586" lon="5.10789">
        <ele>102.52</ele>
        <time>2013-03-10T14:15:56Z</time>
      </trkpt>
      <trkpt lat="43.87575" lon="5.10802">
        <ele>103.96</ele>
        <time>2013-03-10T14:16:10Z</time>
      </trkpt>
      <trkpt lat="43.87569" lon="5.10808">
        <ele>103.48</ele>
        <time>2013-03-10T14:16:16Z</time>
      </trkpt>
      <trkpt lat="43.87564" lon="5.10813">
        <ele>103.48</ele>
        <time>2013-03-10T14:16:21Z</time>
      </trkpt>
      <trkpt lat="43.87555" lon="5.10825">
        <ele>101.56</ele>
        <time>2013-03-10T14:16:33Z</time>
      </trkpt>
      <trkpt lat="43.87544" lon="5.10838">
        <ele>101.56</ele>
        <time>2013-03-10T14:16:46Z</time>
      </trkpt>
      <trkpt lat="43.87538" lon="5.10845">
        <ele>101.08</ele>
        <time>2013-03-10T14:16:54Z</time>
      </trkpt>
      <trkpt lat="43.87527" lon="5.10857">
        <ele>99.15</ele>
        <time>2013-03-10T14:17:08Z</time>
      </trkpt>
      <trkpt lat="43.87524" lon="5.10861">
        <ele>98.67</ele>
        <time>2013-03-10T14:17:12Z</time>
      </trkpt>
      <trkpt lat="43.87521" lon="5.10865">
        <ele>99.15</ele>
        <time>2013-03-10T14:17:16Z</time>
      </trkpt>
      <trkpt lat="43.87519" lon="5.10868">
        <ele>99.15</ele>
        <time>2013-03-10T14:17:19Z</time>
      </trkpt>
      <trkpt lat="43.8751" lon="5.10881">
        <ele>98.67</ele>
        <time>2013-03-10T14:17:32Z</time>
      </trkpt>
      <trkpt lat="43.87501" lon="5.1089">
        <ele>100.11</ele>
        <time>2013-03-10T14:17:44Z</time>
      </trkpt>
      <trkpt lat="43.87496" lon="5.10894">
        <ele>99.63</ele>
        <time>2013-03-10T14:17:56Z</time>
      </trkpt>
      <trkpt lat="43.87495" lon="5.10895">
        <ele>99.63</ele>
        <time>2013-03-10T14:17:57Z</time>
      </trkpt>
      <trkpt lat="43.87486" lon="5.10907">
        <ele>99.15</ele>
        <time>2013-03-10T14:18:09Z</time>
      </trkpt>
      <trkpt lat="43.87476" lon="5.1092">
        <ele>98.19</ele>
        <time>2013-03-10T14:18:22Z</time>
      </trkpt>
      <trkpt lat="43.87473" lon="5.10923">
        <ele>97.23</ele>
        <time>2013-03-10T14:18:33Z</time>
      </trkpt>
      <trkpt lat="43.87472" lon="5.10924">
        <ele>96.75</ele>
        <time>2013-03-10T14:18:47Z</time>
      </trkpt>
      <trkpt lat="43.87467" lon="5.1093">
        <ele>96.27</ele>
        <time>2013-03-10T14:18:55Z</time>
      </trkpt>
      <trkpt lat="43.87464" lon="5.10932">
        <ele>96.27</ele>
        <time>2013-03-10T14:18:58Z</time>
      </trkpt>
      <trkpt lat="43.87463" lon="5.10934">
        <ele>96.27</ele>
        <time>2013-03-10T14:19:00Z</time>
      </trkpt>
      <trkpt lat="43.87458" lon="5.10941">
        <ele>95.79</ele>
        <time>2013-03-10T14:19:07Z</time>
      </trkpt>
      <trkpt lat="43.87457" lon="5.10943">
        <ele>95.79</ele>
        <time>2013-03-10T14:19:09Z</time>
      </trkpt>
      <trkpt lat="43.87447" lon="5.10955">
        <ele>95.31</ele>
        <time>2013-03-10T14:19:22Z</time>
      </trkpt>
      <trkpt lat="43.87441" lon="5.10962">
        <ele>95.31</ele>
        <time>2013-03-10T14:19:29Z</time>
      </trkpt>
      <trkpt lat="43.87439" lon="5.10965">
        <ele>96.27</ele>
        <time>2013-03-10T14:19:32Z</time>
      </trkpt>
      <trkpt lat="43.87431" lon="5.10976">
        <ele>96.75</ele>
        <time>2013-03-10T14:19:42Z</time>
      </trkpt>
      <trkpt lat="43.87418" lon="5.1099">
        <ele>99.63</ele>
        <time>2013-03-10T14:19:57Z</time>
      </trkpt>
      <trkpt lat="43.87413" lon="5.10998">
        <ele>99.15</ele>
        <time>2013-03-10T14:20:04Z</time>
      </trkpt>
      <trkpt lat="43.87411" lon="5.11003">
        <ele>98.67</ele>
        <time>2013-03-10T14:20:08Z</time>
      </trkpt>
      <trkpt lat="43.87408" lon="5.11007">
        <ele>97.71</ele>
        <time>2013-03-10T14:20:12Z</time>
      </trkpt>
      <trkpt lat="43.87398" lon="5.1102">
        <ele>97.71</ele>
        <time>2013-03-10T14:20:25Z</time>
      </trkpt>
      <trkpt lat="43.87395" lon="5.11024">
        <ele>97.71</ele>
        <time>2013-03-10T14:20:29Z</time>
      </trkpt>
      <trkpt lat="43.87392" lon="5.1103">
        <ele>97.71</ele>
        <time>2013-03-10T14:20:34Z</time>
      </trkpt>
      <trkpt lat="43.87385" lon="5.11041">
        <ele>97.71</ele>
        <time>2013-03-10T14:20:44Z</time>
      </trkpt>
      <trkpt lat="43.87381" lon="5.11049">
        <ele>98.19</ele>
        <time>2013-03-10T14:20:52Z</time>
      </trkpt>
      <trkpt lat="43.87371" lon="5.11062">
        <ele>99.15</ele>
        <time>2013-03-10T14:21:05Z</time>
      </trkpt>
      <trkpt lat="43.87366" lon="5.11068">
        <ele>99.63</ele>
        <time>2013-03-10T14:21:11Z</time>
      </trkpt>
      <trkpt lat="43.87355" lon="5.11082">
        <ele>100.11</ele>
        <time>2013-03-10T14:21:25Z</time>
      </trkpt>
      <trkpt lat="43.87353" lon="5.11085">
        <ele>100.6</ele>
        <time>2013-03-10T14:21:28Z</time>
      </trkpt>
      <trkpt lat="43.87347" lon="5.11095">
        <ele>99.15</ele>
        <time>2013-03-10T14:21:38Z</time>
      </trkpt>
      <trkpt lat="43.87337" lon="5.11106">
        <ele>98.67</ele>
        <time>2013-03-10T14:21:49Z</time>
      </trkpt>
      <trkpt lat="43.87331" lon="5.11113">
        <ele>99.15</ele>
        <time>2013-03-10T14:21:56Z</time>
      </trkpt>
      <trkpt lat="43.87322" lon="5.11123">
        <ele>99.15</ele>
        <time>2013-03-10T14:22:07Z</time>
      </trkpt>
      <trkpt lat="43.87316" lon="5.1113">
        <ele>99.15</ele>
        <time>2013-03-10T14:22:16Z</time>
      </trkpt>
      <trkpt lat="43.87312" lon="5.11135">
        <ele>99.15</ele>
        <time>2013-03-10T14:22:21Z</time>
      </trkpt>
      <trkpt lat="43.87302" lon="5.11147">
        <ele>99.63</ele>
        <time>2013-03-10T14:22:33Z</time>
      </trkpt>
      <trkpt lat="43.87295" lon="5.11156">
        <ele>100.6</ele>
        <time>2013-03-10T14:22:43Z</time>
      </trkpt>
      <trkpt lat="43.87286" lon="5.11167">
        <ele>101.08</ele>
        <time>2013-03-10T14:22:56Z</time>
      </trkpt>
      <trkpt lat="43.87278" lon="5.11176">
        <ele>102.52</ele>
        <time>2013-03-10T14:23:06Z</time>
      </trkpt>
      <trkpt lat="43.8727" lon="5.11184">
        <ele>102.52</ele>
        <time>2013-03-10T14:23:16Z</time>
      </trkpt>
      <trkpt lat="43.87262" lon="5.11194">
        <ele>102.52</ele>
        <time>2013-03-10T14:23:28Z</time>
      </trkpt>
      <trkpt lat="43.8726" lon="5.11198">
        <ele>102.52</ele>
        <time>2013-03-10T14:23:32Z</time>
      </trkpt>
      <trkpt lat="43.87253" lon="5.11202">
        <ele>103</ele>
        <time>2013-03-10T14:23:39Z</time>
      </trkpt>
      <trkpt lat="43.87252" lon="5.11206">
        <ele>103</ele>
        <time>2013-03-10T14:23:42Z</time>
      </trkpt>
      <trkpt lat="43.87242" lon="5.11217">
        <ele>102.52</ele>
        <time>2013-03-10T14:23:53Z</time>
      </trkpt>
      <trkpt lat="43.87235" lon="5.11226">
        <ele>102.52</ele>
        <time>2013-03-10T14:24:03Z</time>
      </trkpt>
      <trkpt lat="43.87232" lon="5.1123">
        <ele>102.04</ele>
        <time>2013-03-10T14:24:06Z</time>
      </trkpt>
      <trkpt lat="43.87226" lon="5.11238">
        <ele>102.04</ele>
        <time>2013-03-10T14:24:14Z</time>
      </trkpt>
      <trkpt lat="43.87225" lon="5.1124">
        <ele>101.56</ele>
        <time>2013-03-10T14:24:16Z</time>
      </trkpt>
      <trkpt lat="43.87215" lon="5.1125">
        <ele>101.56</ele>
        <time>2013-03-10T14:24:28Z</time>
      </trkpt>
      <trkpt lat="43.87206" lon="5.11262">
        <ele>100.6</ele>
        <time>2013-03-10T14:24:40Z</time>
      </trkpt>
      <trkpt lat="43.872" lon="5.11267">
        <ele>99.15</ele>
        <time>2013-03-10T14:24:47Z</time>
      </trkpt>
      <trkpt lat="43.8719" lon="5.11276">
        <ele>101.08</ele>
        <time>2013-03-10T14:25:00Z</time>
      </trkpt>
      <trkpt lat="43.87178" lon="5.11283">
        <ele>102.52</ele>
        <time>2013-03-10T14:25:12Z</time>
      </trkpt>
      <trkpt lat="43.87169" lon="5.11287">
        <ele>104.44</ele>
        <time>2013-03-10T14:25:22Z</time>
      </trkpt>
      <trkpt lat="43.87165" lon="5.11288">
        <ele>104.92</ele>
        <time>2013-03-10T14:25:27Z</time>
      </trkpt>
      <trkpt lat="43.87155" lon="5.11287">
        <ele>105.4</ele>
        <time>2013-03-10T14:25:39Z</time>
      </trkpt>
      <trkpt lat="43.87144" lon="5.11285">
        <ele>105.4</ele>
        <time>2013-03-10T14:25:50Z</time>
      </trkpt>
      <trkpt lat="43.87132" lon="5.11284">
        <ele>106.36</ele>
        <time>2013-03-10T14:26:02Z</time>
      </trkpt>
      <trkpt lat="43.87122" lon="5.11283">
        <ele>105.88</ele>
        <time>2013-03-10T14:26:13Z</time>
      </trkpt>
      <trkpt lat="43.87106" lon="5.1128">
        <ele>103.48</ele>
        <time>2013-03-10T14:26:27Z</time>
      </trkpt>
      <trkpt lat="43.8709" lon="5.11277">
        <ele>103</ele>
        <time>2013-03-10T14:26:42Z</time>
      </trkpt>
      <trkpt lat="43.87076" lon="5.11274">
        <ele>101.56</ele>
        <time>2013-03-10T14:26:56Z</time>
      </trkpt>
      <trkpt lat="43.87071" lon="5.11274">
        <ele>101.56</ele>
        <time>2013-03-10T14:27:00Z</time>
      </trkpt>
      <trkpt lat="43.8706" lon="5.11273">
        <ele>99.63</ele>
        <time>2013-03-10T14:27:12Z</time>
      </trkpt>
      <trkpt lat="43.87055" lon="5.11274">
        <ele>99.63</ele>
        <time>2013-03-10T14:27:24Z</time>
      </trkpt>
      <trkpt lat="43.87053" lon="5.11274">
        <ele>99.63</ele>
        <time>2013-03-10T14:27:33Z</time>
      </trkpt>
      <trkpt lat="43.87051" lon="5.11272">
        <ele>100.11</ele>
        <time>2013-03-10T14:27:44Z</time>
      </trkpt>
      <trkpt lat="43.87047" lon="5.11276">
        <ele>99.63</ele>
        <time>2013-03-10T14:27:56Z</time>
      </trkpt>
      <trkpt lat="43.87046" lon="5.11276">
        <ele>98.19</ele>
        <time>2013-03-10T14:28:06Z</time>
      </trkpt>
      <trkpt lat="43.87046" lon="5.11275">
        <ele>97.71</ele>
        <time>2013-03-10T14:28:08Z</time>
      </trkpt>
      <trkpt lat="43.87048" lon="5.11273">
        <ele>97.23</ele>
        <time>2013-03-10T14:28:18Z</time>
      </trkpt>
      <trkpt lat="43.87048" lon="5.11273">
        <ele>97.23</ele>
        <time>2013-03-10T14:28:37Z</time>
      </trkpt>
      <trkpt lat="43.87051" lon="5.11272">
        <ele>97.71</ele>
        <time>2013-03-10T14:28:48Z</time>
      </trkpt>
      <trkpt lat="43.87057" lon="5.11271">
        <ele>96.27</ele>
        <time>2013-03-10T14:28:59Z</time>
      </trkpt>
      <trkpt lat="43.87066" lon="5.11274">
        <ele>96.75</ele>
        <time>2013-03-10T14:29:08Z</time>
      </trkpt>
      <trkpt lat="43.87067" lon="5.11275">
        <ele>97.23</ele>
        <time>2013-03-10T14:29:10Z</time>
      </trkpt>
      <trkpt lat="43.87075" lon="5.11277">
        <ele>97.23</ele>
        <time>2013-03-10T14:29:18Z</time>
      </trkpt>
      <trkpt lat="43.8709" lon="5.11278">
        <ele>100.6</ele>
        <time>2013-03-10T14:29:33Z</time>
      </trkpt>
      <trkpt lat="43.87101" lon="5.11279">
        <ele>102.04</ele>
        <time>2013-03-10T14:29:46Z</time>
      </trkpt>
      <trkpt lat="43.87114" lon="5.11282">
        <ele>104.44</ele>
        <time>2013-03-10T14:29:59Z</time>
      </trkpt>
      <trkpt lat="43.8713" lon="5.11285">
        <ele>103.96</ele>
        <time>2013-03-10T14:30:13Z</time>
      </trkpt>
      <trkpt lat="43.87143" lon="5.11287">
        <ele>105.88</ele>
        <time>2013-03-10T14:30:26Z</time>
      </trkpt>
      <trkpt lat="43.87153" lon="5.11288">
        <ele>106.36</ele>
        <time>2013-03-10T14:30:36Z</time>
      </trkpt>
      <trkpt lat="43.87173" lon="5.11285">
        <ele>106.84</ele>
        <time>2013-03-10T14:30:54Z</time>
      </trkpt>
      <trkpt lat="43.87186" lon="5.11277">
        <ele>106.84</ele>
        <time>2013-03-10T14:31:08Z</time>
      </trkpt>
      <trkpt lat="43.87188" lon="5.11276">
        <ele>106.36</ele>
        <time>2013-03-10T14:31:09Z</time>
      </trkpt>
      <trkpt lat="43.87199" lon="5.11267">
        <ele>104.92</ele>
        <time>2013-03-10T14:31:21Z</time>
      </trkpt>
      <trkpt lat="43.87202" lon="5.11264">
        <ele>105.4</ele>
        <time>2013-03-10T14:31:24Z</time>
      </trkpt>
      <trkpt lat="43.87204" lon="5.11262">
        <ele>104.92</ele>
        <time>2013-03-10T14:31:26Z</time>
      </trkpt>
      <trkpt lat="43.87214" lon="5.1125">
        <ele>103.48</ele>
        <time>2013-03-10T14:31:40Z</time>
      </trkpt>
      <trkpt lat="43.87217" lon="5.11247">
        <ele>103</ele>
        <time>2013-03-10T14:31:43Z</time>
      </trkpt>
      <trkpt lat="43.87224" lon="5.11238">
        <ele>102.52</ele>
        <time>2013-03-10T14:31:52Z</time>
      </trkpt>
      <trkpt lat="43.87227" lon="5.11236">
        <ele>102.04</ele>
        <time>2013-03-10T14:31:55Z</time>
      </trkpt>
      <trkpt lat="43.87228" lon="5.11234">
        <ele>102.52</ele>
        <time>2013-03-10T14:31:57Z</time>
      </trkpt>
      <trkpt lat="43.87231" lon="5.11232">
        <ele>102.52</ele>
        <time>2013-03-10T14:31:59Z</time>
      </trkpt>
      <trkpt lat="43.87235" lon="5.11226">
        <ele>101.56</ele>
        <time>2013-03-10T14:32:04Z</time>
      </trkpt>
      <trkpt lat="43.87237" lon="5.11224">
        <ele>101.56</ele>
        <time>2013-03-10T14:32:07Z</time>
      </trkpt>
      <trkpt lat="43.87238" lon="5.11222">
        <ele>102.04</ele>
        <time>2013-03-10T14:32:09Z</time>
      </trkpt>
      <trkpt lat="43.87247" lon="5.11211">
        <ele>100.6</ele>
        <time>2013-03-10T14:32:20Z</time>
      </trkpt>
      <trkpt lat="43.87252" lon="5.11204">
        <ele>98.67</ele>
        <time>2013-03-10T14:32:26Z</time>
      </trkpt>
      <trkpt lat="43.87254" lon="5.11202">
        <ele>99.15</ele>
        <time>2013-03-10T14:32:29Z</time>
      </trkpt>
      <trkpt lat="43.87256" lon="5.11199">
        <ele>99.63</ele>
        <time>2013-03-10T14:32:32Z</time>
      </trkpt>
      <trkpt lat="43.8726" lon="5.11195">
        <ele>100.11</ele>
        <time>2013-03-10T14:32:37Z</time>
      </trkpt>
      <trkpt lat="43.87267" lon="5.11186">
        <ele>101.56</ele>
        <time>2013-03-10T14:32:46Z</time>
      </trkpt>
      <trkpt lat="43.8727" lon="5.11183">
        <ele>101.56</ele>
        <time>2013-03-10T14:32:49Z</time>
      </trkpt>
      <trkpt lat="43.87282" lon="5.11168">
        <ele>101.08</ele>
        <time>2013-03-10T14:33:04Z</time>
      </trkpt>
      <trkpt lat="43.87283" lon="5.11166">
        <ele>100.11</ele>
        <time>2013-03-10T14:33:06Z</time>
      </trkpt>
      <trkpt lat="43.87287" lon="5.11164">
        <ele>99.15</ele>
        <time>2013-03-10T14:33:09Z</time>
      </trkpt>
      <trkpt lat="43.87296" lon="5.11154">
        <ele>99.15</ele>
        <time>2013-03-10T14:33:23Z</time>
      </trkpt>
      <trkpt lat="43.87303" lon="5.11146">
        <ele>99.15</ele>
        <time>2013-03-10T14:33:36Z</time>
      </trkpt>
      <trkpt lat="43.87303" lon="5.11146">
        <ele>99.15</ele>
        <time>2013-03-10T14:34:06Z</time>
      </trkpt>
      <trkpt lat="43.87304" lon="5.11146">
        <ele>98.67</ele>
        <time>2013-03-10T14:34:24Z</time>
      </trkpt>
      <trkpt lat="43.87304" lon="5.11145">
        <ele>98.19</ele>
        <time>2013-03-10T14:34:36Z</time>
      </trkpt>
      <trkpt lat="43.87304" lon="5.11144">
        <ele>97.71</ele>
        <time>2013-03-10T14:34:49Z</time>
      </trkpt>
      <trkpt lat="43.87304" lon="5.11144">
        <ele>97.71</ele>
        <time>2013-03-10T14:35:07Z</time>
      </trkpt>
      <trkpt lat="43.87304" lon="5.11144">
        <ele>97.71</ele>
        <time>2013-03-10T14:35:20Z</time>
      </trkpt>
      <trkpt lat="43.87308" lon="5.11139">
        <ele>99.15</ele>
        <time>2013-03-10T14:35:26Z</time>
      </trkpt>
      <trkpt lat="43.87316" lon="5.11131">
        <ele>101.08</ele>
        <time>2013-03-10T14:35:35Z</time>
      </trkpt>
      <trkpt lat="43.87318" lon="5.11127">
        <ele>102.04</ele>
        <time>2013-03-10T14:35:38Z</time>
      </trkpt>
      <trkpt lat="43.87324" lon="5.11121">
        <ele>103</ele>
        <time>2013-03-10T14:35:45Z</time>
      </trkpt>
      <trkpt lat="43.87325" lon="5.11119">
        <ele>103</ele>
        <time>2013-03-10T14:35:47Z</time>
      </trkpt>
      <trkpt lat="43.87336" lon="5.11106">
        <ele>103.96</ele>
        <time>2013-03-10T14:36:01Z</time>
      </trkpt>
      <trkpt lat="43.87342" lon="5.11101">
        <ele>103.48</ele>
        <time>2013-03-10T14:36:08Z</time>
      </trkpt>
      <trkpt lat="43.87353" lon="5.11084">
        <ele>102.52</ele>
        <time>2013-03-10T14:36:22Z</time>
      </trkpt>
      <trkpt lat="43.87362" lon="5.11071">
        <ele>102.52</ele>
        <time>2013-03-10T14:36:34Z</time>
      </trkpt>
      <trkpt lat="43.87373" lon="5.11056">
        <ele>103.96</ele>
        <time>2013-03-10T14:36:49Z</time>
      </trkpt>
      <trkpt lat="43.87381" lon="5.11046">
        <ele>103.48</ele>
        <time>2013-03-10T14:36:59Z</time>
      </trkpt>
      <trkpt lat="43.87382" lon="5.11043">
        <ele>103</ele>
        <time>2013-03-10T14:37:02Z</time>
      </trkpt>
      <trkpt lat="43.87387" lon="5.11036">
        <ele>102.52</ele>
        <time>2013-03-10T14:37:09Z</time>
      </trkpt>
      <trkpt lat="43.87389" lon="5.11033">
        <ele>102.52</ele>
        <time>2013-03-10T14:37:11Z</time>
      </trkpt>
      <trkpt lat="43.87395" lon="5.11024">
        <ele>102.52</ele>
        <time>2013-03-10T14:37:20Z</time>
      </trkpt>
      <trkpt lat="43.87397" lon="5.11022">
        <ele>102.52</ele>
        <time>2013-03-10T14:37:22Z</time>
      </trkpt>
      <trkpt lat="43.874" lon="5.11018">
        <ele>103</ele>
        <time>2013-03-10T14:37:26Z</time>
      </trkpt>
      <trkpt lat="43.87402" lon="5.11014">
        <ele>103.48</ele>
        <time>2013-03-10T14:37:30Z</time>
      </trkpt>
      <trkpt lat="43.87411" lon="5.11002">
        <ele>104.92</ele>
        <time>2013-03-10T14:37:42Z</time>
      </trkpt>
      <trkpt lat="43.87418" lon="5.10991">
        <ele>104.44</ele>
        <time>2013-03-10T14:37:53Z</time>
      </trkpt>
      <trkpt lat="43.8742" lon="5.10988">
        <ele>104.44</ele>
        <time>2013-03-10T14:37:56Z</time>
      </trkpt>
      <trkpt lat="43.87422" lon="5.10985">
        <ele>104.92</ele>
        <time>2013-03-10T14:37:59Z</time>
      </trkpt>
      <trkpt lat="43.87423" lon="5.10983">
        <ele>104.92</ele>
        <time>2013-03-10T14:38:01Z</time>
      </trkpt>
      <trkpt lat="43.87435" lon="5.10969">
        <ele>103.96</ele>
        <time>2013-03-10T14:38:16Z</time>
      </trkpt>
      <trkpt lat="43.87439" lon="5.10963">
        <ele>103.96</ele>
        <time>2013-03-10T14:38:22Z</time>
      </trkpt>
      <trkpt lat="43.87451" lon="5.10949">
        <ele>104.44</ele>
        <time>2013-03-10T14:38:36Z</time>
      </trkpt>
      <trkpt lat="43.87458" lon="5.10941">
        <ele>105.88</ele>
        <time>2013-03-10T14:38:46Z</time>
      </trkpt>
      <trkpt lat="43.87472" lon="5.10925">
        <ele>105.88</ele>
        <time>2013-03-10T14:39:03Z</time>
      </trkpt>
      <trkpt lat="43.87476" lon="5.1092">
        <ele>105.4</ele>
        <time>2013-03-10T14:39:08Z</time>
      </trkpt>
      <trkpt lat="43.87482" lon="5.10912">
        <ele>105.4</ele>
        <time>2013-03-10T14:39:16Z</time>
      </trkpt>
      <trkpt lat="43.87494" lon="5.10898">
        <ele>103.48</ele>
        <time>2013-03-10T14:39:30Z</time>
      </trkpt>
      <trkpt lat="43.87495" lon="5.10897">
        <ele>103</ele>
        <time>2013-03-10T14:39:31Z</time>
      </trkpt>
      <trkpt lat="43.87502" lon="5.10888">
        <ele>101.08</ele>
        <time>2013-03-10T14:39:40Z</time>
      </trkpt>
      <trkpt lat="43.87511" lon="5.10874">
        <ele>100.6</ele>
        <time>2013-03-10T14:39:52Z</time>
      </trkpt>
      <trkpt lat="43.87513" lon="5.10872">
        <ele>100.6</ele>
        <time>2013-03-10T14:39:54Z</time>
      </trkpt>
      <trkpt lat="43.87514" lon="5.10871">
        <ele>100.6</ele>
        <time>2013-03-10T14:39:56Z</time>
      </trkpt>
      <trkpt lat="43.87521" lon="5.10863">
        <ele>101.08</ele>
        <time>2013-03-10T14:40:05Z</time>
      </trkpt>
      <trkpt lat="43.8753" lon="5.10854">
        <ele>101.08</ele>
        <time>2013-03-10T14:40:17Z</time>
      </trkpt>
      <trkpt lat="43.87531" lon="5.10852">
        <ele>100.6</ele>
        <time>2013-03-10T14:40:19Z</time>
      </trkpt>
      <trkpt lat="43.87536" lon="5.10846">
        <ele>101.08</ele>
        <time>2013-03-10T14:40:25Z</time>
      </trkpt>
      <trkpt lat="43.87538" lon="5.10843">
        <ele>101.08</ele>
        <time>2013-03-10T14:40:27Z</time>
      </trkpt>
      <trkpt lat="43.87549" lon="5.1083">
        <ele>101.56</ele>
        <time>2013-03-10T14:40:41Z</time>
      </trkpt>
      <trkpt lat="43.87554" lon="5.10824">
        <ele>103.96</ele>
        <time>2013-03-10T14:40:48Z</time>
      </trkpt>
      <trkpt lat="43.87566" lon="5.10812">
        <ele>105.4</ele>
        <time>2013-03-10T14:41:01Z</time>
      </trkpt>
      <trkpt lat="43.87577" lon="5.108">
        <ele>102.52</ele>
        <time>2013-03-10T14:41:13Z</time>
      </trkpt>
      <trkpt lat="43.87582" lon="5.10796">
        <ele>103.96</ele>
        <time>2013-03-10T14:41:20Z</time>
      </trkpt>
      <trkpt lat="43.87586" lon="5.1079">
        <ele>103</ele>
        <time>2013-03-10T14:41:25Z</time>
      </trkpt>
      <trkpt lat="43.87589" lon="5.10784">
        <ele>102.52</ele>
        <time>2013-03-10T14:41:30Z</time>
      </trkpt>
      <trkpt lat="43.87595" lon="5.10775">
        <ele>103.96</ele>
        <time>2013-03-10T14:41:40Z</time>
      </trkpt>
      <trkpt lat="43.87598" lon="5.10772">
        <ele>103.96</ele>
        <time>2013-03-10T14:41:45Z</time>
      </trkpt>
      <trkpt lat="43.87604" lon="5.10765">
        <ele>104.92</ele>
        <time>2013-03-10T14:41:52Z</time>
      </trkpt>
      <trkpt lat="43.8761" lon="5.10757">
        <ele>104.92</ele>
        <time>2013-03-10T14:42:00Z</time>
      </trkpt>
      <trkpt lat="43.87617" lon="5.10751">
        <ele>103</ele>
        <time>2013-03-10T14:42:09Z</time>
      </trkpt>
      <trkpt lat="43.87626" lon="5.1074">
        <ele>101.56</ele>
        <time>2013-03-10T14:42:21Z</time>
      </trkpt>
      <trkpt lat="43.87627" lon="5.1074">
        <ele>101.08</ele>
        <time>2013-03-10T14:42:22Z</time>
      </trkpt>
      <trkpt lat="43.87629" lon="5.10735">
        <ele>100.6</ele>
        <time>2013-03-10T14:42:26Z</time>
      </trkpt>
      <trkpt lat="43.87639" lon="5.10728">
        <ele>101.08</ele>
        <time>2013-03-10T14:42:37Z</time>
      </trkpt>
      <trkpt lat="43.87645" lon="5.1072">
        <ele>103</ele>
        <time>2013-03-10T14:42:47Z</time>
      </trkpt>
      <trkpt lat="43.87656" lon="5.10707">
        <ele>104.92</ele>
        <time>2013-03-10T14:43:01Z</time>
      </trkpt>
      <trkpt lat="43.87661" lon="5.10702">
        <ele>104.44</ele>
        <time>2013-03-10T14:43:08Z</time>
      </trkpt>
      <trkpt lat="43.87674" lon="5.10694">
        <ele>106.36</ele>
        <time>2013-03-10T14:43:21Z</time>
      </trkpt>
      <trkpt lat="43.87684" lon="5.10687">
        <ele>109.73</ele>
        <time>2013-03-10T14:43:34Z</time>
      </trkpt>
      <trkpt lat="43.87684" lon="5.10686">
        <ele>110.21</ele>
        <time>2013-03-10T14:43:35Z</time>
      </trkpt>
      <trkpt lat="43.87689" lon="5.1068">
        <ele>110.69</ele>
        <time>2013-03-10T14:43:41Z</time>
      </trkpt>
      <trkpt lat="43.87694" lon="5.10668">
        <ele>112.13</ele>
        <time>2013-03-10T14:43:47Z</time>
      </trkpt>
      <trkpt lat="43.87696" lon="5.10664">
        <ele>111.17</ele>
        <time>2013-03-10T14:43:49Z</time>
      </trkpt>
      <trkpt lat="43.87708" lon="5.10645">
        <ele>108.29</ele>
        <time>2013-03-10T14:44:04Z</time>
      </trkpt>
      <trkpt lat="43.87719" lon="5.1063">
        <ele>107.81</ele>
        <time>2013-03-10T14:44:17Z</time>
      </trkpt>
      <trkpt lat="43.87722" lon="5.10626">
        <ele>107.81</ele>
        <time>2013-03-10T14:44:21Z</time>
      </trkpt>
      <trkpt lat="43.8773" lon="5.10616">
        <ele>106.36</ele>
        <time>2013-03-10T14:44:31Z</time>
      </trkpt>
      <trkpt lat="43.87735" lon="5.10612">
        <ele>105.4</ele>
        <time>2013-03-10T14:44:37Z</time>
      </trkpt>
      <trkpt lat="43.87741" lon="5.10609">
        <ele>104.44</ele>
        <time>2013-03-10T14:44:43Z</time>
      </trkpt>
      <trkpt lat="43.87748" lon="5.1061">
        <ele>103</ele>
        <time>2013-03-10T14:44:49Z</time>
      </trkpt>
      <trkpt lat="43.87761" lon="5.10622">
        <ele>100.11</ele>
        <time>2013-03-10T14:45:04Z</time>
      </trkpt>
      <trkpt lat="43.87767" lon="5.10632">
        <ele>101.56</ele>
        <time>2013-03-10T14:45:15Z</time>
      </trkpt>
      <trkpt lat="43.87771" lon="5.10639">
        <ele>103</ele>
        <time>2013-03-10T14:45:20Z</time>
      </trkpt>
      <trkpt lat="43.87775" lon="5.10649">
        <ele>105.4</ele>
        <time>2013-03-10T14:45:27Z</time>
      </trkpt>
      <trkpt lat="43.87783" lon="5.10663">
        <ele>105.4</ele>
        <time>2013-03-10T14:45:39Z</time>
      </trkpt>
      <trkpt lat="43.87786" lon="5.10668">
        <ele>104.44</ele>
        <time>2013-03-10T14:45:43Z</time>
      </trkpt>
      <trkpt lat="43.8779" lon="5.10674">
        <ele>103.96</ele>
        <time>2013-03-10T14:45:48Z</time>
      </trkpt>
      <trkpt lat="43.87803" lon="5.10684">
        <ele>104.44</ele>
        <time>2013-03-10T14:46:02Z</time>
      </trkpt>
      <trkpt lat="43.87815" lon="5.10691">
        <ele>103.48</ele>
        <time>2013-03-10T14:46:14Z</time>
      </trkpt>
      <trkpt lat="43.87816" lon="5.10691">
        <ele>103.96</ele>
        <time>2013-03-10T14:46:23Z</time>
      </trkpt>
      <trkpt lat="43.87817" lon="5.10693">
        <ele>103</ele>
        <time>2013-03-10T14:46:36Z</time>
      </trkpt>
      <trkpt lat="43.87819" lon="5.10693">
        <ele>101.08</ele>
        <time>2013-03-10T14:46:46Z</time>
      </trkpt>
      <trkpt lat="43.87821" lon="5.10694">
        <ele>100.11</ele>
        <time>2013-03-10T14:46:59Z</time>
      </trkpt>
      <trkpt lat="43.87826" lon="5.10696">
        <ele>99.63</ele>
        <time>2013-03-10T14:47:04Z</time>
      </trkpt>
      <trkpt lat="43.87827" lon="5.10698">
        <ele>99.63</ele>
        <time>2013-03-10T14:47:06Z</time>
      </trkpt>
      <trkpt lat="43.87842" lon="5.10704">
        <ele>99.15</ele>
        <time>2013-03-10T14:47:21Z</time>
      </trkpt>
      <trkpt lat="43.87854" lon="5.10711">
        <ele>100.6</ele>
        <time>2013-03-10T14:47:34Z</time>
      </trkpt>
      <trkpt lat="43.87865" lon="5.10716">
        <ele>103</ele>
        <time>2013-03-10T14:47:46Z</time>
      </trkpt>
      <trkpt lat="43.87877" lon="5.10721">
        <ele>101.56</ele>
        <time>2013-03-10T14:47:57Z</time>
      </trkpt>
      <trkpt lat="43.87892" lon="5.10728">
        <ele>100.11</ele>
        <time>2013-03-10T14:48:11Z</time>
      </trkpt>
      <trkpt lat="43.87905" lon="5.10735">
        <ele>100.11</ele>
        <time>2013-03-10T14:48:25Z</time>
      </trkpt>
      <trkpt lat="43.87917" lon="5.10742">
        <ele>99.63</ele>
        <time>2013-03-10T14:48:37Z</time>
      </trkpt>
      <trkpt lat="43.87927" lon="5.10746">
        <ele>99.15</ele>
        <time>2013-03-10T14:48:48Z</time>
      </trkpt>
      <trkpt lat="43.87928" lon="5.10746">
        <ele>99.63</ele>
        <time>2013-03-10T14:49:03Z</time>
      </trkpt>
      <trkpt lat="43.8793" lon="5.10747">
        <ele>99.63</ele>
        <time>2013-03-10T14:49:19Z</time>
      </trkpt>
      <trkpt lat="43.8793" lon="5.10747">
        <ele>99.63</ele>
        <time>2013-03-10T14:49:31Z</time>
      </trkpt>
      <trkpt lat="43.87945" lon="5.10755">
        <ele>98.67</ele>
        <time>2013-03-10T14:49:46Z</time>
      </trkpt>
      <trkpt lat="43.87956" lon="5.10761">
        <ele>98.67</ele>
        <time>2013-03-10T14:49:59Z</time>
      </trkpt>
      <trkpt lat="43.87964" lon="5.10766">
        <ele>99.15</ele>
        <time>2013-03-10T14:50:07Z</time>
      </trkpt>
      <trkpt lat="43.87973" lon="5.1077">
        <ele>100.6</ele>
        <time>2013-03-10T14:50:15Z</time>
      </trkpt>
      <trkpt lat="43.87975" lon="5.10772">
        <ele>100.6</ele>
        <time>2013-03-10T14:50:17Z</time>
      </trkpt>
      <trkpt lat="43.87977" lon="5.10772">
        <ele>101.08</ele>
        <time>2013-03-10T14:50:19Z</time>
      </trkpt>
      <trkpt lat="43.87993" lon="5.10779">
        <ele>102.52</ele>
        <time>2013-03-10T14:50:35Z</time>
      </trkpt>
      <trkpt lat="43.88002" lon="5.10785">
        <ele>102.52</ele>
        <time>2013-03-10T14:50:45Z</time>
      </trkpt>
      <trkpt lat="43.88005" lon="5.10786">
        <ele>102.04</ele>
        <time>2013-03-10T14:50:47Z</time>
      </trkpt>
      <trkpt lat="43.88007" lon="5.10787">
        <ele>102.52</ele>
        <time>2013-03-10T14:50:50Z</time>
      </trkpt>
      <trkpt lat="43.88022" lon="5.10795">
        <ele>102.04</ele>
        <time>2013-03-10T14:51:05Z</time>
      </trkpt>
      <trkpt lat="43.88026" lon="5.10798">
        <ele>102.04</ele>
        <time>2013-03-10T14:51:10Z</time>
      </trkpt>
      <trkpt lat="43.8804" lon="5.10803">
        <ele>103.48</ele>
        <time>2013-03-10T14:51:23Z</time>
      </trkpt>
      <trkpt lat="43.88043" lon="5.10804">
        <ele>103.96</ele>
        <time>2013-03-10T14:51:26Z</time>
      </trkpt>
      <trkpt lat="43.88058" lon="5.10812">
        <ele>103</ele>
        <time>2013-03-10T14:51:40Z</time>
      </trkpt>
      <trkpt lat="43.8806" lon="5.10812">
        <ele>102.52</ele>
        <time>2013-03-10T14:51:42Z</time>
      </trkpt>
      <trkpt lat="43.88063" lon="5.10813">
        <ele>103</ele>
        <time>2013-03-10T14:51:45Z</time>
      </trkpt>
      <trkpt lat="43.88065" lon="5.10812">
        <ele>103</ele>
        <time>2013-03-10T14:51:47Z</time>
      </trkpt>
      <trkpt lat="43.88077" lon="5.10805">
        <ele>101.08</ele>
        <time>2013-03-10T14:52:00Z</time>
      </trkpt>
      <trkpt lat="43.88088" lon="5.10793">
        <ele>98.67</ele>
        <time>2013-03-10T14:52:12Z</time>
      </trkpt>
      <trkpt lat="43.88089" lon="5.10792">
        <ele>98.67</ele>
        <time>2013-03-10T14:52:13Z</time>
      </trkpt>
      <trkpt lat="43.88091" lon="5.1079">
        <ele>98.67</ele>
        <time>2013-03-10T14:52:15Z</time>
      </trkpt>
      <trkpt lat="43.88094" lon="5.10786">
        <ele>98.19</ele>
        <time>2013-03-10T14:52:19Z</time>
      </trkpt>
      <trkpt lat="43.88108" lon="5.10775">
        <ele>96.27</ele>
        <time>2013-03-10T14:52:33Z</time>
      </trkpt>
      <trkpt lat="43.88118" lon="5.10772">
        <ele>96.27</ele>
        <time>2013-03-10T14:52:45Z</time>
      </trkpt>
      <trkpt lat="43.88129" lon="5.10773">
        <ele>98.19</ele>
        <time>2013-03-10T14:52:59Z</time>
      </trkpt>
      <trkpt lat="43.88142" lon="5.10777">
        <ele>99.15</ele>
        <time>2013-03-10T14:53:12Z</time>
      </trkpt>
      <trkpt lat="43.88147" lon="5.10778">
        <ele>100.11</ele>
        <time>2013-03-10T14:53:17Z</time>
      </trkpt>
      <trkpt lat="43.88154" lon="5.10779">
        <ele>102.04</ele>
        <time>2013-03-10T14:53:24Z</time>
      </trkpt>
      <trkpt lat="43.88169" lon="5.10779">
        <ele>101.56</ele>
        <time>2013-03-10T14:53:38Z</time>
      </trkpt>
      <trkpt lat="43.88171" lon="5.10779">
        <ele>102.04</ele>
        <time>2013-03-10T14:53:40Z</time>
      </trkpt>
      <trkpt lat="43.88184" lon="5.10782">
        <ele>101.08</ele>
        <time>2013-03-10T14:53:53Z</time>
      </trkpt>
      <trkpt lat="43.88191" lon="5.10784">
        <ele>100.6</ele>
        <time>2013-03-10T14:53:59Z</time>
      </trkpt>
      <trkpt lat="43.88194" lon="5.10784">
        <ele>100.6</ele>
        <time>2013-03-10T14:54:02Z</time>
      </trkpt>
      <trkpt lat="43.88209" lon="5.10789">
        <ele>103</ele>
        <time>2013-03-10T14:54:16Z</time>
      </trkpt>
      <trkpt lat="43.88221" lon="5.10795">
        <ele>101.56</ele>
        <time>2013-03-10T14:54:29Z</time>
      </trkpt>
      <trkpt lat="43.88237" lon="5.10803">
        <ele>101.56</ele>
        <time>2013-03-10T14:54:44Z</time>
      </trkpt>
      <trkpt lat="43.88245" lon="5.10809">
        <ele>100.6</ele>
        <time>2013-03-10T14:54:52Z</time>
      </trkpt>
      <trkpt lat="43.88258" lon="5.10818">
        <ele>101.56</ele>
        <time>2013-03-10T14:55:06Z</time>
      </trkpt>
      <trkpt lat="43.88272" lon="5.10828">
        <ele>101.08</ele>
        <time>2013-03-10T14:55:20Z</time>
      </trkpt>
      <trkpt lat="43.88288" lon="5.10836">
        <ele>103.48</ele>
        <time>2013-03-10T14:55:35Z</time>
      </trkpt>
      <trkpt lat="43.88301" lon="5.10845">
        <ele>104.44</ele>
        <time>2013-03-10T14:55:49Z</time>
      </trkpt>
      <trkpt lat="43.88312" lon="5.10852">
        <ele>102.52</ele>
        <time>2013-03-10T14:56:01Z</time>
      </trkpt>
      <trkpt lat="43.88325" lon="5.10861">
        <ele>100.6</ele>
        <time>2013-03-10T14:56:14Z</time>
      </trkpt>
      <trkpt lat="43.88331" lon="5.10863">
        <ele>99.15</ele>
        <time>2013-03-10T14:56:26Z</time>
      </trkpt>
      <trkpt lat="43.88331" lon="5.10863">
        <ele>99.15</ele>
        <time>2013-03-10T14:56:54Z</time>
      </trkpt>
      <trkpt lat="43.88331" lon="5.10864">
        <ele>98.67</ele>
        <time>2013-03-10T14:57:25Z</time>
      </trkpt>
      <trkpt lat="43.88337" lon="5.1087">
        <ele>99.15</ele>
        <time>2013-03-10T14:57:36Z</time>
      </trkpt>
      <trkpt lat="43.88338" lon="5.10871">
        <ele>99.15</ele>
        <time>2013-03-10T14:57:37Z</time>
      </trkpt>
      <trkpt lat="43.88345" lon="5.10877">
        <ele>100.6</ele>
        <time>2013-03-10T14:57:44Z</time>
      </trkpt>
      <trkpt lat="43.88361" lon="5.10886">
        <ele>102.04</ele>
        <time>2013-03-10T14:58:00Z</time>
      </trkpt>
      <trkpt lat="43.88372" lon="5.10894">
        <ele>101.56</ele>
        <time>2013-03-10T14:58:11Z</time>
      </trkpt>
      <trkpt lat="43.88387" lon="5.10905">
        <ele>100.11</ele>
        <time>2013-03-10T14:58:25Z</time>
      </trkpt>
      <trkpt lat="43.88389" lon="5.10907">
        <ele>99.63</ele>
        <time>2013-03-10T14:58:28Z</time>
      </trkpt>
      <trkpt lat="43.88394" lon="5.10906">
        <ele>99.15</ele>
        <time>2013-03-10T14:58:32Z</time>
      </trkpt>
      <trkpt lat="43.88401" lon="5.10912">
        <ele>98.19</ele>
        <time>2013-03-10T14:58:39Z</time>
      </trkpt>
      <trkpt lat="43.88406" lon="5.10917">
        <ele>97.71</ele>
        <time>2013-03-10T14:58:45Z</time>
      </trkpt>
      <trkpt lat="43.88411" lon="5.1092">
        <ele>99.15</ele>
        <time>2013-03-10T14:58:51Z</time>
      </trkpt>
      <trkpt lat="43.88417" lon="5.10922">
        <ele>98.19</ele>
        <time>2013-03-10T14:59:03Z</time>
      </trkpt>
      <trkpt lat="43.88422" lon="5.10923">
        <ele>99.15</ele>
        <time>2013-03-10T14:59:15Z</time>
      </trkpt>
      <trkpt lat="43.88427" lon="5.10924">
        <ele>101.56</ele>
        <time>2013-03-10T14:59:21Z</time>
      </trkpt>
      <trkpt lat="43.88433" lon="5.10925">
        <ele>103.48</ele>
        <time>2013-03-10T14:59:27Z</time>
      </trkpt>
      <trkpt lat="43.88444" lon="5.10926">
        <ele>106.84</ele>
        <time>2013-03-10T14:59:38Z</time>
      </trkpt>
      <trkpt lat="43.88451" lon="5.10927">
        <ele>107.32</ele>
        <time>2013-03-10T14:59:44Z</time>
      </trkpt>
      <trkpt lat="43.88457" lon="5.10926">
        <ele>105.4</ele>
        <time>2013-03-10T14:59:50Z</time>
      </trkpt>
      <trkpt lat="43.88461" lon="5.10926">
        <ele>104.92</ele>
        <time>2013-03-10T14:59:53Z</time>
      </trkpt>
      <trkpt lat="43.88474" lon="5.10924">
        <ele>101.56</ele>
        <time>2013-03-10T15:00:05Z</time>
      </trkpt>
      <trkpt lat="43.88488" lon="5.10922">
        <ele>102.04</ele>
        <time>2013-03-10T15:00:17Z</time>
      </trkpt>
      <trkpt lat="43.88503" lon="5.10922">
        <ele>103.48</ele>
        <time>2013-03-10T15:00:30Z</time>
      </trkpt>
      <trkpt lat="43.88519" lon="5.10919">
        <ele>103</ele>
        <time>2013-03-10T15:00:44Z</time>
      </trkpt>
      <trkpt lat="43.88524" lon="5.10917">
        <ele>103.96</ele>
        <time>2013-03-10T15:00:49Z</time>
      </trkpt>
      <trkpt lat="43.88531" lon="5.10916">
        <ele>105.88</ele>
        <time>2013-03-10T15:00:56Z</time>
      </trkpt>
      <trkpt lat="43.8854" lon="5.10915">
        <ele>106.36</ele>
        <time>2013-03-10T15:01:04Z</time>
      </trkpt>
      <trkpt lat="43.88542" lon="5.10914">
        <ele>106.36</ele>
        <time>2013-03-10T15:01:06Z</time>
      </trkpt>
      <trkpt lat="43.88555" lon="5.10913">
        <ele>106.84</ele>
        <time>2013-03-10T15:01:19Z</time>
      </trkpt>
      <trkpt lat="43.88571" lon="5.10913">
        <ele>104.44</ele>
        <time>2013-03-10T15:01:31Z</time>
      </trkpt>
      <trkpt lat="43.88585" lon="5.10911">
        <ele>104.44</ele>
        <time>2013-03-10T15:01:44Z</time>
      </trkpt>
      <trkpt lat="43.88598" lon="5.10907">
        <ele>103</ele>
        <time>2013-03-10T15:01:55Z</time>
      </trkpt>
      <trkpt lat="43.88603" lon="5.10905">
        <ele>101.08</ele>
        <time>2013-03-10T15:02:07Z</time>
      </trkpt>
      <trkpt lat="43.88604" lon="5.10904">
        <ele>100.11</ele>
        <time>2013-03-10T15:02:45Z</time>
      </trkpt>
      <trkpt lat="43.88604" lon="5.109">
        <ele>97.23</ele>
        <time>2013-03-10T15:03:16Z</time>
      </trkpt>
      <trkpt lat="43.88606" lon="5.10898">
        <ele>93.87</ele>
        <time>2013-03-10T15:03:52Z</time>
      </trkpt>
      <trkpt lat="43.88606" lon="5.10898">
        <ele>93.87</ele>
        <time>2013-03-10T15:04:21Z</time>
      </trkpt>
      <trkpt lat="43.88605" lon="5.10903">
        <ele>93.87</ele>
        <time>2013-03-10T15:04:50Z</time>
      </trkpt>
      <trkpt lat="43.88603" lon="5.10905">
        <ele>95.79</ele>
        <time>2013-03-10T15:05:03Z</time>
      </trkpt>
      <trkpt lat="43.88603" lon="5.10905">
        <ele>95.79</ele>
        <time>2013-03-10T15:05:18Z</time>
      </trkpt>
      <trkpt lat="43.88604" lon="5.10908">
        <ele>96.27</ele>
        <time>2013-03-10T15:05:33Z</time>
      </trkpt>
      <trkpt lat="43.88608" lon="5.10911">
        <ele>96.75</ele>
        <time>2013-03-10T15:05:43Z</time>
      </trkpt>
      <trkpt lat="43.88611" lon="5.1091">
        <ele>97.23</ele>
        <time>2013-03-10T15:05:46Z</time>
      </trkpt>
      <trkpt lat="43.88614" lon="5.10911">
        <ele>97.71</ele>
        <time>2013-03-10T15:05:49Z</time>
      </trkpt>
      <trkpt lat="43.88629" lon="5.10915">
        <ele>99.15</ele>
        <time>2013-03-10T15:06:04Z</time>
      </trkpt>
      <trkpt lat="43.88647" lon="5.10911">
        <ele>99.15</ele>
        <time>2013-03-10T15:06:19Z</time>
      </trkpt>
      <trkpt lat="43.88655" lon="5.10909">
        <ele>98.67</ele>
        <time>2013-03-10T15:06:26Z</time>
      </trkpt>
      <trkpt lat="43.8867" lon="5.10908">
        <ele>100.6</ele>
        <time>2013-03-10T15:06:40Z</time>
      </trkpt>
      <trkpt lat="43.88672" lon="5.10908">
        <ele>100.11</ele>
        <time>2013-03-10T15:06:42Z</time>
      </trkpt>
      <trkpt lat="43.88676" lon="5.10908">
        <ele>99.63</ele>
        <time>2013-03-10T15:06:45Z</time>
      </trkpt>
      <trkpt lat="43.8868" lon="5.10908">
        <ele>99.63</ele>
        <time>2013-03-10T15:06:48Z</time>
      </trkpt>
      <trkpt lat="43.88691" lon="5.10904">
        <ele>100.11</ele>
        <time>2013-03-10T15:06:57Z</time>
      </trkpt>
      <trkpt lat="43.88706" lon="5.10902">
        <ele>101.08</ele>
        <time>2013-03-10T15:07:11Z</time>
      </trkpt>
      <trkpt lat="43.88723" lon="5.10897">
        <ele>102.04</ele>
        <time>2013-03-10T15:07:25Z</time>
      </trkpt>
      <trkpt lat="43.88726" lon="5.10897">
        <ele>101.56</ele>
        <time>2013-03-10T15:07:27Z</time>
      </trkpt>
      <trkpt lat="43.88737" lon="5.10894">
        <ele>101.56</ele>
        <time>2013-03-10T15:07:36Z</time>
      </trkpt>
      <trkpt lat="43.88745" lon="5.10893">
        <ele>102.04</ele>
        <time>2013-03-10T15:07:43Z</time>
      </trkpt>
      <trkpt lat="43.88754" lon="5.10889">
        <ele>101.56</ele>
        <time>2013-03-10T15:07:51Z</time>
      </trkpt>
      <trkpt lat="43.88762" lon="5.10887">
        <ele>100.11</ele>
        <time>2013-03-10T15:07:58Z</time>
      </trkpt>
      <trkpt lat="43.88773" lon="5.10884">
        <ele>99.15</ele>
        <time>2013-03-10T15:08:07Z</time>
      </trkpt>
      <trkpt lat="43.88789" lon="5.10878">
        <ele>97.71</ele>
        <time>2013-03-10T15:08:20Z</time>
      </trkpt>
      <trkpt lat="43.88792" lon="5.10877">
        <ele>97.23</ele>
        <time>2013-03-10T15:08:23Z</time>
      </trkpt>
      <trkpt lat="43.88804" lon="5.10877">
        <ele>95.79</ele>
        <time>2013-03-10T15:08:36Z</time>
      </trkpt>
      <trkpt lat="43.88804" lon="5.10878">
        <ele>96.27</ele>
        <time>2013-03-10T15:08:46Z</time>
      </trkpt>
      <trkpt lat="43.8881" lon="5.10878">
        <ele>96.75</ele>
        <time>2013-03-10T15:08:54Z</time>
      </trkpt>
      <trkpt lat="43.88811" lon="5.10879">
        <ele>97.23</ele>
        <time>2013-03-10T15:08:56Z</time>
      </trkpt>
      <trkpt lat="43.88816" lon="5.10879">
        <ele>97.71</ele>
        <time>2013-03-10T15:09:00Z</time>
      </trkpt>
      <trkpt lat="43.88829" lon="5.10882">
        <ele>98.19</ele>
        <time>2013-03-10T15:09:13Z</time>
      </trkpt>
      <trkpt lat="43.88834" lon="5.10883">
        <ele>98.19</ele>
        <time>2013-03-10T15:09:17Z</time>
      </trkpt>
      <trkpt lat="43.88841" lon="5.10886">
        <ele>99.63</ele>
        <time>2013-03-10T15:09:24Z</time>
      </trkpt>
      <trkpt lat="43.88845" lon="5.10886">
        <ele>99.63</ele>
        <time>2013-03-10T15:09:28Z</time>
      </trkpt>
      <trkpt lat="43.88849" lon="5.10886">
        <ele>99.15</ele>
        <time>2013-03-10T15:09:31Z</time>
      </trkpt>
      <trkpt lat="43.88852" lon="5.10886">
        <ele>99.63</ele>
        <time>2013-03-10T15:09:34Z</time>
      </trkpt>
      <trkpt lat="43.88857" lon="5.10885">
        <ele>100.6</ele>
        <time>2013-03-10T15:09:39Z</time>
      </trkpt>
      <trkpt lat="43.88865" lon="5.10881">
        <ele>101.56</ele>
        <time>2013-03-10T15:09:54Z</time>
      </trkpt>
      <trkpt lat="43.88865" lon="5.10881">
        <ele>101.56</ele>
        <time>2013-03-10T15:10:10Z</time>
      </trkpt>
      <trkpt lat="43.88865" lon="5.1088">
        <ele>101.56</ele>
        <time>2013-03-10T15:10:33Z</time>
      </trkpt>
      <trkpt lat="43.88872" lon="5.10877">
        <ele>103</ele>
        <time>2013-03-10T15:10:45Z</time>
      </trkpt>
      <trkpt lat="43.88886" lon="5.1087">
        <ele>103.96</ele>
        <time>2013-03-10T15:10:58Z</time>
      </trkpt>
      <trkpt lat="43.88893" lon="5.10865">
        <ele>102.52</ele>
        <time>2013-03-10T15:11:05Z</time>
      </trkpt>
      <trkpt lat="43.88894" lon="5.10864">
        <ele>103</ele>
        <time>2013-03-10T15:11:07Z</time>
      </trkpt>
      <trkpt lat="43.88902" lon="5.1086">
        <ele>103.96</ele>
        <time>2013-03-10T15:11:14Z</time>
      </trkpt>
      <trkpt lat="43.88916" lon="5.10853">
        <ele>106.36</ele>
        <time>2013-03-10T15:11:28Z</time>
      </trkpt>
      <trkpt lat="43.88918" lon="5.10852">
        <ele>106.84</ele>
        <time>2013-03-10T15:11:30Z</time>
      </trkpt>
      <trkpt lat="43.88924" lon="5.10851">
        <ele>107.81</ele>
        <time>2013-03-10T15:11:35Z</time>
      </trkpt>
      <trkpt lat="43.88938" lon="5.10847">
        <ele>109.25</ele>
        <time>2013-03-10T15:11:48Z</time>
      </trkpt>
      <trkpt lat="43.88942" lon="5.10844">
        <ele>108.77</ele>
        <time>2013-03-10T15:11:51Z</time>
      </trkpt>
      <trkpt lat="43.88953" lon="5.10842">
        <ele>107.32</ele>
        <time>2013-03-10T15:12:01Z</time>
      </trkpt>
      <trkpt lat="43.88956" lon="5.10841">
        <ele>107.81</ele>
        <time>2013-03-10T15:12:04Z</time>
      </trkpt>
      <trkpt lat="43.88968" lon="5.10839">
        <ele>107.32</ele>
        <time>2013-03-10T15:12:14Z</time>
      </trkpt>
      <trkpt lat="43.88983" lon="5.10837">
        <ele>109.25</ele>
        <time>2013-03-10T15:12:28Z</time>
      </trkpt>
      <trkpt lat="43.88994" lon="5.10836">
        <ele>109.73</ele>
        <time>2013-03-10T15:12:38Z</time>
      </trkpt>
      <trkpt lat="43.89009" lon="5.10833">
        <ele>107.81</ele>
        <time>2013-03-10T15:12:50Z</time>
      </trkpt>
      <trkpt lat="43.89026" lon="5.10829">
        <ele>107.81</ele>
        <time>2013-03-10T15:13:06Z</time>
      </trkpt>
      <trkpt lat="43.89038" lon="5.10826">
        <ele>107.81</ele>
        <time>2013-03-10T15:13:17Z</time>
      </trkpt>
      <trkpt lat="43.89043" lon="5.10827">
        <ele>108.29</ele>
        <time>2013-03-10T15:13:21Z</time>
      </trkpt>
      <trkpt lat="43.89056" lon="5.10824">
        <ele>108.77</ele>
        <time>2013-03-10T15:13:34Z</time>
      </trkpt>
      <trkpt lat="43.8906" lon="5.10822">
        <ele>108.77</ele>
        <time>2013-03-10T15:13:38Z</time>
      </trkpt>
      <trkpt lat="43.89064" lon="5.10821">
        <ele>108.77</ele>
        <time>2013-03-10T15:13:41Z</time>
      </trkpt>
      <trkpt lat="43.89067" lon="5.10819">
        <ele>109.25</ele>
        <time>2013-03-10T15:13:44Z</time>
      </trkpt>
      <trkpt lat="43.89075" lon="5.10818">
        <ele>109.25</ele>
        <time>2013-03-10T15:13:56Z</time>
      </trkpt>
      <trkpt lat="43.89079" lon="5.10816">
        <ele>109.25</ele>
        <time>2013-03-10T15:14:00Z</time>
      </trkpt>
      <trkpt lat="43.89082" lon="5.10816">
        <ele>108.29</ele>
        <time>2013-03-10T15:14:15Z</time>
      </trkpt>
      <trkpt lat="43.89083" lon="5.10815">
        <ele>107.81</ele>
        <time>2013-03-10T15:14:28Z</time>
      </trkpt>
      <trkpt lat="43.89086" lon="5.10808">
        <ele>105.88</ele>
        <time>2013-03-10T15:14:33Z</time>
      </trkpt>
      <trkpt lat="43.89091" lon="5.10806">
        <ele>105.4</ele>
        <time>2013-03-10T15:14:38Z</time>
      </trkpt>
      <trkpt lat="43.89103" lon="5.10804">
        <ele>103.48</ele>
        <time>2013-03-10T15:14:50Z</time>
      </trkpt>
      <trkpt lat="43.89117" lon="5.10808">
        <ele>104.44</ele>
        <time>2013-03-10T15:15:03Z</time>
      </trkpt>
      <trkpt lat="43.89121" lon="5.10807">
        <ele>104.44</ele>
        <time>2013-03-10T15:15:06Z</time>
      </trkpt>
      <trkpt lat="43.8914" lon="5.10811">
        <ele>102.04</ele>
        <time>2013-03-10T15:15:21Z</time>
      </trkpt>
      <trkpt lat="43.8914" lon="5.10811">
        <ele>102.04</ele>
        <time>2013-03-10T15:15:22Z</time>
      </trkpt>
      <trkpt lat="43.89155" lon="5.10816">
        <ele>101.08</ele>
        <time>2013-03-10T15:15:35Z</time>
      </trkpt>
      <trkpt lat="43.89167" lon="5.10819">
        <ele>100.11</ele>
        <time>2013-03-10T15:15:46Z</time>
      </trkpt>
      <trkpt lat="43.89172" lon="5.10821">
        <ele>101.08</ele>
        <time>2013-03-10T15:15:51Z</time>
      </trkpt>
      <trkpt lat="43.89175" lon="5.10821">
        <ele>101.08</ele>
        <time>2013-03-10T15:15:54Z</time>
      </trkpt>
      <trkpt lat="43.89192" lon="5.10824">
        <ele>100.11</ele>
        <time>2013-03-10T15:16:07Z</time>
      </trkpt>
      <trkpt lat="43.89198" lon="5.10827">
        <ele>100.11</ele>
        <time>2013-03-10T15:16:13Z</time>
      </trkpt>
      <trkpt lat="43.89212" lon="5.10832">
        <ele>96.75</ele>
        <time>2013-03-10T15:16:27Z</time>
      </trkpt>
      <trkpt lat="43.89214" lon="5.10832">
        <ele>96.75</ele>
        <time>2013-03-10T15:16:28Z</time>
      </trkpt>
      <trkpt lat="43.89228" lon="5.10836">
        <ele>97.71</ele>
        <time>2013-03-10T15:16:41Z</time>
      </trkpt>
      <trkpt lat="43.89241" lon="5.1084">
        <ele>97.23</ele>
        <time>2013-03-10T15:16:53Z</time>
      </trkpt>
      <trkpt lat="43.89253" lon="5.10844">
        <ele>96.27</ele>
        <time>2013-03-10T15:17:04Z</time>
      </trkpt>
      <trkpt lat="43.89265" lon="5.10847">
        <ele>95.31</ele>
        <time>2013-03-10T15:17:16Z</time>
      </trkpt>
      <trkpt lat="43.89275" lon="5.10852">
        <ele>94.83</ele>
        <time>2013-03-10T15:17:26Z</time>
      </trkpt>
      <trkpt lat="43.89281" lon="5.10851">
        <ele>94.83</ele>
        <time>2013-03-10T15:17:31Z</time>
      </trkpt>
      <trkpt lat="43.89292" lon="5.10855">
        <ele>97.23</ele>
        <time>2013-03-10T15:17:40Z</time>
      </trkpt>
      <trkpt lat="43.89307" lon="5.10859">
        <ele>97.71</ele>
        <time>2013-03-10T15:17:53Z</time>
      </trkpt>
      <trkpt lat="43.89318" lon="5.10864">
        <ele>101.56</ele>
        <time>2013-03-10T15:18:06Z</time>
      </trkpt>
      <trkpt lat="43.89325" lon="5.10866">
        <ele>104.44</ele>
        <time>2013-03-10T15:18:12Z</time>
      </trkpt>
      <trkpt lat="43.89339" lon="5.10871">
        <ele>108.29</ele>
        <time>2013-03-10T15:18:26Z</time>
      </trkpt>
      <trkpt lat="43.8935" lon="5.10875">
        <ele>109.25</ele>
        <time>2013-03-10T15:18:37Z</time>
      </trkpt>
      <trkpt lat="43.89363" lon="5.10881">
        <ele>108.77</ele>
        <time>2013-03-10T15:18:50Z</time>
      </trkpt>
      <trkpt lat="43.89376" lon="5.10885">
        <ele>109.73</ele>
        <time>2013-03-10T15:19:03Z</time>
      </trkpt>
      <trkpt lat="43.8938" lon="5.10887">
        <ele>111.17</ele>
        <time>2013-03-10T15:19:07Z</time>
      </trkpt>
      <trkpt lat="43.89383" lon="5.10887">
        <ele>112.61</ele>
        <time>2013-03-10T15:19:10Z</time>
      </trkpt>
      <trkpt lat="43.89394" lon="5.10891">
        <ele>115.5</ele>
        <time>2013-03-10T15:19:22Z</time>
      </trkpt>
      <trkpt lat="43.89401" lon="5.10891">
        <ele>117.42</ele>
        <time>2013-03-10T15:19:29Z</time>
      </trkpt>
      <trkpt lat="43.89405" lon="5.1089">
        <ele>116.46</ele>
        <time>2013-03-10T15:19:32Z</time>
      </trkpt>
      <trkpt lat="43.89413" lon="5.10891">
        <ele>113.57</ele>
        <time>2013-03-10T15:19:37Z</time>
      </trkpt>
      <trkpt lat="43.89424" lon="5.10896">
        <ele>112.13</ele>
        <time>2013-03-10T15:19:47Z</time>
      </trkpt>
      <trkpt lat="43.89439" lon="5.10901">
        <ele>109.25</ele>
        <time>2013-03-10T15:20:00Z</time>
      </trkpt>
      <trkpt lat="43.89454" lon="5.10907">
        <ele>104.44</ele>
        <time>2013-03-10T15:20:12Z</time>
      </trkpt>
      <trkpt lat="43.89457" lon="5.1091">
        <ele>104.44</ele>
        <time>2013-03-10T15:20:16Z</time>
      </trkpt>
      <trkpt lat="43.8947" lon="5.10917">
        <ele>103.96</ele>
        <time>2013-03-10T15:20:29Z</time>
      </trkpt>
      <trkpt lat="43.89481" lon="5.10924">
        <ele>104.92</ele>
        <time>2013-03-10T15:20:41Z</time>
      </trkpt>
      <trkpt lat="43.89484" lon="5.10925">
        <ele>104.92</ele>
        <time>2013-03-10T15:20:43Z</time>
      </trkpt>
      <trkpt lat="43.89487" lon="5.10928">
        <ele>104.92</ele>
        <time>2013-03-10T15:20:46Z</time>
      </trkpt>
      <trkpt lat="43.89499" lon="5.10935">
        <ele>106.36</ele>
        <time>2013-03-10T15:20:59Z</time>
      </trkpt>
      <trkpt lat="43.89509" lon="5.10941">
        <ele>108.77</ele>
        <time>2013-03-10T15:21:10Z</time>
      </trkpt>
      <trkpt lat="43.89519" lon="5.10945">
        <ele>108.29</ele>
        <time>2013-03-10T15:21:19Z</time>
      </trkpt>
      <trkpt lat="43.89531" lon="5.1095">
        <ele>107.81</ele>
        <time>2013-03-10T15:21:31Z</time>
      </trkpt>
      <trkpt lat="43.89544" lon="5.10954">
        <ele>108.77</ele>
        <time>2013-03-10T15:21:43Z</time>
      </trkpt>
      <trkpt lat="43.89547" lon="5.10956">
        <ele>109.73</ele>
        <time>2013-03-10T15:21:47Z</time>
      </trkpt>
      <trkpt lat="43.89561" lon="5.1096">
        <ele>110.69</ele>
        <time>2013-03-10T15:21:59Z</time>
      </trkpt>
      <trkpt lat="43.89565" lon="5.10961">
        <ele>111.17</ele>
        <time>2013-03-10T15:22:03Z</time>
      </trkpt>
      <trkpt lat="43.89581" lon="5.10963">
        <ele>110.69</ele>
        <time>2013-03-10T15:22:17Z</time>
      </trkpt>
      <trkpt lat="43.89591" lon="5.10962">
        <ele>112.61</ele>
        <time>2013-03-10T15:22:29Z</time>
      </trkpt>
      <trkpt lat="43.89598" lon="5.1096">
        <ele>112.13</ele>
        <time>2013-03-10T15:22:36Z</time>
      </trkpt>
      <trkpt lat="43.89606" lon="5.10962">
        <ele>110.21</ele>
        <time>2013-03-10T15:22:44Z</time>
      </trkpt>
      <trkpt lat="43.89616" lon="5.10962">
        <ele>110.69</ele>
        <time>2013-03-10T15:22:53Z</time>
      </trkpt>
      <trkpt lat="43.89628" lon="5.10962">
        <ele>111.17</ele>
        <time>2013-03-10T15:23:03Z</time>
      </trkpt>
      <trkpt lat="43.89635" lon="5.10961">
        <ele>111.17</ele>
        <time>2013-03-10T15:23:11Z</time>
      </trkpt>
      <trkpt lat="43.89647" lon="5.10961">
        <ele>110.21</ele>
        <time>2013-03-10T15:23:21Z</time>
      </trkpt>
      <trkpt lat="43.89665" lon="5.10961">
        <ele>108.29</ele>
        <time>2013-03-10T15:23:36Z</time>
      </trkpt>
      <trkpt lat="43.89669" lon="5.10963">
        <ele>107.32</ele>
        <time>2013-03-10T15:23:45Z</time>
      </trkpt>
      <trkpt lat="43.89667" lon="5.10963">
        <ele>105.88</ele>
        <time>2013-03-10T15:23:56Z</time>
      </trkpt>
      <trkpt lat="43.89667" lon="5.10963">
        <ele>105.88</ele>
        <time>2013-03-10T15:23:58Z</time>
      </trkpt>
      <trkpt lat="43.89667" lon="5.10964">
        <ele>106.36</ele>
        <time>2013-03-10T15:24:08Z</time>
      </trkpt>
      <trkpt lat="43.89667" lon="5.10964">
        <ele>106.36</ele>
        <time>2013-03-10T15:24:30Z</time>
      </trkpt>
      <trkpt lat="43.89667" lon="5.10964">
        <ele>104.92</ele>
        <time>2013-03-10T15:24:44Z</time>
      </trkpt>
      <trkpt lat="43.89669" lon="5.10962">
        <ele>103.96</ele>
        <time>2013-03-10T15:24:54Z</time>
      </trkpt>
      <trkpt lat="43.89682" lon="5.1096">
        <ele>105.4</ele>
        <time>2013-03-10T15:25:07Z</time>
      </trkpt>
      <trkpt lat="43.89691" lon="5.10958">
        <ele>107.32</ele>
        <time>2013-03-10T15:25:17Z</time>
      </trkpt>
      <trkpt lat="43.89698" lon="5.10956">
        <ele>108.77</ele>
        <time>2013-03-10T15:25:23Z</time>
      </trkpt>
      <trkpt lat="43.89707" lon="5.10955">
        <ele>110.69</ele>
        <time>2013-03-10T15:25:36Z</time>
      </trkpt>
      <trkpt lat="43.89717" lon="5.10958">
        <ele>112.61</ele>
        <time>2013-03-10T15:25:48Z</time>
      </trkpt>
      <trkpt lat="43.8973" lon="5.10961">
        <ele>111.65</ele>
        <time>2013-03-10T15:26:00Z</time>
      </trkpt>
      <trkpt lat="43.89737" lon="5.10963">
        <ele>112.13</ele>
        <time>2013-03-10T15:26:17Z</time>
      </trkpt>
      <trkpt lat="43.89739" lon="5.10963">
        <ele>112.13</ele>
        <time>2013-03-10T15:26:42Z</time>
      </trkpt>
      <trkpt lat="43.8974" lon="5.10965">
        <ele>111.65</ele>
        <time>2013-03-10T15:26:48Z</time>
      </trkpt>
      <trkpt lat="43.89742" lon="5.10966">
        <ele>112.13</ele>
        <time>2013-03-10T15:26:50Z</time>
      </trkpt>
      <trkpt lat="43.89755" lon="5.1097">
        <ele>110.21</ele>
        <time>2013-03-10T15:27:02Z</time>
      </trkpt>
      <trkpt lat="43.89769" lon="5.10972">
        <ele>108.29</ele>
        <time>2013-03-10T15:27:14Z</time>
      </trkpt>
      <trkpt lat="43.89771" lon="5.10972">
        <ele>107.81</ele>
        <time>2013-03-10T15:27:15Z</time>
      </trkpt>
      <trkpt lat="43.8978" lon="5.10976">
        <ele>107.81</ele>
        <time>2013-03-10T15:27:24Z</time>
      </trkpt>
      <trkpt lat="43.89798" lon="5.10981">
        <ele>107.81</ele>
        <time>2013-03-10T15:27:41Z</time>
      </trkpt>
      <trkpt lat="43.89813" lon="5.10984">
        <ele>106.84</ele>
        <time>2013-03-10T15:27:54Z</time>
      </trkpt>
      <trkpt lat="43.89816" lon="5.10986">
        <ele>106.84</ele>
        <time>2013-03-10T15:27:57Z</time>
      </trkpt>
      <trkpt lat="43.89829" lon="5.10993">
        <ele>107.81</ele>
        <time>2013-03-10T15:28:10Z</time>
      </trkpt>
      <trkpt lat="43.89831" lon="5.10995">
        <ele>107.81</ele>
        <time>2013-03-10T15:28:12Z</time>
      </trkpt>
      <trkpt lat="43.89837" lon="5.10999">
        <ele>107.32</ele>
        <time>2013-03-10T15:28:18Z</time>
      </trkpt>
      <trkpt lat="43.89849" lon="5.11013">
        <ele>103.96</ele>
        <time>2013-03-10T15:28:32Z</time>
      </trkpt>
      <trkpt lat="43.89851" lon="5.11014">
        <ele>103.48</ele>
        <time>2013-03-10T15:28:34Z</time>
      </trkpt>
      <trkpt lat="43.89853" lon="5.11018">
        <ele>103</ele>
        <time>2013-03-10T15:28:37Z</time>
      </trkpt>
      <trkpt lat="43.89862" lon="5.11029">
        <ele>100.6</ele>
        <time>2013-03-10T15:28:47Z</time>
      </trkpt>
      <trkpt lat="43.89875" lon="5.11044">
        <ele>98.19</ele>
        <time>2013-03-10T15:29:01Z</time>
      </trkpt>
      <trkpt lat="43.89881" lon="5.11052">
        <ele>98.67</ele>
        <time>2013-03-10T15:29:09Z</time>
      </trkpt>
      <trkpt lat="43.89887" lon="5.1106">
        <ele>98.19</ele>
        <time>2013-03-10T15:29:17Z</time>
      </trkpt>
      <trkpt lat="43.89899" lon="5.1107">
        <ele>98.19</ele>
        <time>2013-03-10T15:29:29Z</time>
      </trkpt>
      <trkpt lat="43.89906" lon="5.11073">
        <ele>99.15</ele>
        <time>2013-03-10T15:29:36Z</time>
      </trkpt>
      <trkpt lat="43.8991" lon="5.11074">
        <ele>99.15</ele>
        <time>2013-03-10T15:29:40Z</time>
      </trkpt>
      <trkpt lat="43.89923" lon="5.11076">
        <ele>103</ele>
        <time>2013-03-10T15:29:51Z</time>
      </trkpt>
      <trkpt lat="43.89934" lon="5.11075">
        <ele>105.88</ele>
        <time>2013-03-10T15:30:00Z</time>
      </trkpt>
      <trkpt lat="43.89946" lon="5.11075">
        <ele>107.32</ele>
        <time>2013-03-10T15:30:12Z</time>
      </trkpt>
      <trkpt lat="43.89955" lon="5.11074">
        <ele>107.81</ele>
        <time>2013-03-10T15:30:20Z</time>
      </trkpt>
      <trkpt lat="43.89963" lon="5.11076">
        <ele>107.81</ele>
        <time>2013-03-10T15:30:30Z</time>
      </trkpt>
      <trkpt lat="43.89972" lon="5.11078">
        <ele>110.21</ele>
        <time>2013-03-10T15:30:38Z</time>
      </trkpt>
      <trkpt lat="43.89982" lon="5.11079">
        <ele>110.69</ele>
        <time>2013-03-10T15:30:47Z</time>
      </trkpt>
      <trkpt lat="43.89996" lon="5.11081">
        <ele>110.69</ele>
        <time>2013-03-10T15:31:01Z</time>
      </trkpt>
      <trkpt lat="43.90004" lon="5.11083">
        <ele>110.69</ele>
        <time>2013-03-10T15:31:09Z</time>
      </trkpt>
      <trkpt lat="43.90009" lon="5.11084">
        <ele>110.69</ele>
        <time>2013-03-10T15:31:13Z</time>
      </trkpt>
      <trkpt lat="43.90012" lon="5.11085">
        <ele>111.17</ele>
        <time>2013-03-10T15:31:16Z</time>
      </trkpt>
      <trkpt lat="43.90015" lon="5.11086">
        <ele>111.17</ele>
        <time>2013-03-10T15:31:19Z</time>
      </trkpt>
      <trkpt lat="43.90019" lon="5.11087">
        <ele>110.69</ele>
        <time>2013-03-10T15:31:22Z</time>
      </trkpt>
      <trkpt lat="43.90024" lon="5.11087">
        <ele>111.65</ele>
        <time>2013-03-10T15:31:26Z</time>
      </trkpt>
      <trkpt lat="43.90026" lon="5.11087">
        <ele>111.65</ele>
        <time>2013-03-10T15:31:28Z</time>
      </trkpt>
      <trkpt lat="43.90029" lon="5.11086">
        <ele>111.65</ele>
        <time>2013-03-10T15:31:31Z</time>
      </trkpt>
      <trkpt lat="43.90038" lon="5.11087">
        <ele>112.61</ele>
        <time>2013-03-10T15:31:39Z</time>
      </trkpt>
      <trkpt lat="43.90049" lon="5.11091">
        <ele>113.09</ele>
        <time>2013-03-10T15:31:51Z</time>
      </trkpt>
      <trkpt lat="43.90051" lon="5.11091">
        <ele>113.57</ele>
        <time>2013-03-10T15:31:52Z</time>
      </trkpt>
      <trkpt lat="43.90054" lon="5.11093">
        <ele>114.05</ele>
        <time>2013-03-10T15:31:55Z</time>
      </trkpt>
      <trkpt lat="43.90057" lon="5.11093">
        <ele>114.53</ele>
        <time>2013-03-10T15:31:58Z</time>
      </trkpt>
      <trkpt lat="43.90064" lon="5.11094">
        <ele>115.01</ele>
        <time>2013-03-10T15:32:04Z</time>
      </trkpt>
      <trkpt lat="43.90076" lon="5.11097">
        <ele>116.46</ele>
        <time>2013-03-10T15:32:16Z</time>
      </trkpt>
      <trkpt lat="43.90089" lon="5.11098">
        <ele>115.5</ele>
        <time>2013-03-10T15:32:29Z</time>
      </trkpt>
      <trkpt lat="43.90101" lon="5.111">
        <ele>118.38</ele>
        <time>2013-03-10T15:32:41Z</time>
      </trkpt>
      <trkpt lat="43.90114" lon="5.11101">
        <ele>118.86</ele>
        <time>2013-03-10T15:32:54Z</time>
      </trkpt>
      <trkpt lat="43.90129" lon="5.11099">
        <ele>120.78</ele>
        <time>2013-03-10T15:33:07Z</time>
      </trkpt>
      <trkpt lat="43.90133" lon="5.111">
        <ele>121.74</ele>
        <time>2013-03-10T15:33:12Z</time>
      </trkpt>
      <trkpt lat="43.90145" lon="5.111">
        <ele>126.07</ele>
        <time>2013-03-10T15:33:23Z</time>
      </trkpt>
      <trkpt lat="43.90152" lon="5.11101">
        <ele>128.95</ele>
        <time>2013-03-10T15:33:32Z</time>
      </trkpt>
      <trkpt lat="43.90162" lon="5.11099">
        <ele>129.92</ele>
        <time>2013-03-10T15:33:44Z</time>
      </trkpt>
      <trkpt lat="43.90175" lon="5.11097">
        <ele>129.92</ele>
        <time>2013-03-10T15:33:56Z</time>
      </trkpt>
      <trkpt lat="43.90183" lon="5.11097">
        <ele>129.92</ele>
        <time>2013-03-10T15:34:02Z</time>
      </trkpt>
      <trkpt lat="43.90197" lon="5.11092">
        <ele>129.43</ele>
        <time>2013-03-10T15:34:16Z</time>
      </trkpt>
      <trkpt lat="43.90209" lon="5.11091">
        <ele>128.47</ele>
        <time>2013-03-10T15:34:28Z</time>
      </trkpt>
      <trkpt lat="43.90215" lon="5.11089">
        <ele>128.95</ele>
        <time>2013-03-10T15:34:33Z</time>
      </trkpt>
      <trkpt lat="43.90228" lon="5.11088">
        <ele>128.95</ele>
        <time>2013-03-10T15:34:45Z</time>
      </trkpt>
      <trkpt lat="43.90237" lon="5.11086">
        <ele>128.95</ele>
        <time>2013-03-10T15:34:54Z</time>
      </trkpt>
      <trkpt lat="43.90247" lon="5.11086">
        <ele>132.32</ele>
        <time>2013-03-10T15:35:05Z</time>
      </trkpt>
      <trkpt lat="43.90256" lon="5.11086">
        <ele>134.72</ele>
        <time>2013-03-10T15:35:15Z</time>
      </trkpt>
      <trkpt lat="43.90263" lon="5.11085">
        <ele>136.16</ele>
        <time>2013-03-10T15:35:22Z</time>
      </trkpt>
      <trkpt lat="43.90265" lon="5.11085">
        <ele>137.13</ele>
        <time>2013-03-10T15:35:24Z</time>
      </trkpt>
      <trkpt lat="43.90274" lon="5.11084">
        <ele>143.85</ele>
        <time>2013-03-10T15:35:36Z</time>
      </trkpt>
      <trkpt lat="43.90285" lon="5.11085">
        <ele>152.03</ele>
        <time>2013-03-10T15:35:48Z</time>
      </trkpt>
      <trkpt lat="43.90298" lon="5.11083">
        <ele>160.68</ele>
        <time>2013-03-10T15:36:02Z</time>
      </trkpt>
      <trkpt lat="43.90311" lon="5.1108">
        <ele>161.64</ele>
        <time>2013-03-10T15:36:13Z</time>
      </trkpt>
      <trkpt lat="43.9032" lon="5.11083">
        <ele>166.93</ele>
        <time>2013-03-10T15:36:23Z</time>
      </trkpt>
      <trkpt lat="43.90332" lon="5.11086">
        <ele>167.41</ele>
        <time>2013-03-10T15:36:34Z</time>
      </trkpt>
      <trkpt lat="43.90334" lon="5.11087">
        <ele>167.89</ele>
        <time>2013-03-10T15:36:37Z</time>
      </trkpt>
      <trkpt lat="43.90348" lon="5.11082">
        <ele>168.85</ele>
        <time>2013-03-10T15:36:48Z</time>
      </trkpt>
      <trkpt lat="43.90356" lon="5.11078">
        <ele>168.85</ele>
        <time>2013-03-10T15:36:55Z</time>
      </trkpt>
      <trkpt lat="43.9036" lon="5.11078">
        <ele>168.37</ele>
        <time>2013-03-10T15:36:58Z</time>
      </trkpt>
      <trkpt lat="43.90363" lon="5.11078">
        <ele>167.89</ele>
        <time>2013-03-10T15:37:01Z</time>
      </trkpt>
      <trkpt lat="43.9038" lon="5.11075">
        <ele>165.96</ele>
        <time>2013-03-10T15:37:15Z</time>
      </trkpt>
      <trkpt lat="43.90393" lon="5.11069">
        <ele>164.04</ele>
        <time>2013-03-10T15:37:27Z</time>
      </trkpt>
      <trkpt lat="43.90397" lon="5.11068">
        <ele>163.08</ele>
        <time>2013-03-10T15:37:29Z</time>
      </trkpt>
      <trkpt lat="43.90414" lon="5.11058">
        <ele>152.99</ele>
        <time>2013-03-10T15:37:42Z</time>
      </trkpt>
      <trkpt lat="43.90419" lon="5.11054">
        <ele>150.1</ele>
        <time>2013-03-10T15:37:46Z</time>
      </trkpt>
      <trkpt lat="43.90425" lon="5.11049">
        <ele>147.7</ele>
        <time>2013-03-10T15:37:53Z</time>
      </trkpt>
      <trkpt lat="43.90435" lon="5.11042">
        <ele>144.34</ele>
        <time>2013-03-10T15:38:04Z</time>
      </trkpt>
      <trkpt lat="43.90442" lon="5.11036">
        <ele>141.93</ele>
        <time>2013-03-10T15:38:17Z</time>
      </trkpt>
      <trkpt lat="43.90447" lon="5.11032">
        <ele>142.41</ele>
        <time>2013-03-10T15:38:28Z</time>
      </trkpt>
      <trkpt lat="43.90453" lon="5.11027">
        <ele>147.7</ele>
        <time>2013-03-10T15:38:38Z</time>
      </trkpt>
      <trkpt lat="43.90458" lon="5.11021">
        <ele>149.14</ele>
        <time>2013-03-10T15:38:48Z</time>
      </trkpt>
      <trkpt lat="43.90463" lon="5.11016">
        <ele>149.14</ele>
        <time>2013-03-10T15:38:58Z</time>
      </trkpt>
      <trkpt lat="43.90477" lon="5.11012">
        <ele>137.61</ele>
        <time>2013-03-10T15:39:10Z</time>
      </trkpt>
      <trkpt lat="43.90488" lon="5.11004">
        <ele>131.36</ele>
        <time>2013-03-10T15:39:20Z</time>
      </trkpt>
      <trkpt lat="43.90492" lon="5.11001">
        <ele>129.92</ele>
        <time>2013-03-10T15:39:26Z</time>
      </trkpt>
      <trkpt lat="43.90503" lon="5.10985">
        <ele>125.11</ele>
        <time>2013-03-10T15:39:39Z</time>
      </trkpt>
      <trkpt lat="43.90513" lon="5.1097">
        <ele>120.78</ele>
        <time>2013-03-10T15:39:49Z</time>
      </trkpt>
      <trkpt lat="43.90531" lon="5.10939">
        <ele>110.21</ele>
        <time>2013-03-10T15:40:02Z</time>
      </trkpt>
      <trkpt lat="43.90544" lon="5.10916">
        <ele>102.52</ele>
        <time>2013-03-10T15:40:13Z</time>
      </trkpt>
      <trkpt lat="43.90553" lon="5.10908">
        <ele>101.56</ele>
        <time>2013-03-10T15:40:26Z</time>
      </trkpt>
      <trkpt lat="43.90566" lon="5.10896">
        <ele>102.52</ele>
        <time>2013-03-10T15:40:39Z</time>
      </trkpt>
      <trkpt lat="43.90573" lon="5.10891">
        <ele>102.52</ele>
        <time>2013-03-10T15:40:45Z</time>
      </trkpt>
      <trkpt lat="43.90577" lon="5.10886">
        <ele>103</ele>
        <time>2013-03-10T15:40:54Z</time>
      </trkpt>
      <trkpt lat="43.90581" lon="5.10885">
        <ele>102.04</ele>
        <time>2013-03-10T15:41:01Z</time>
      </trkpt>
      <trkpt lat="43.90591" lon="5.10882">
        <ele>99.15</ele>
        <time>2013-03-10T15:41:11Z</time>
      </trkpt>
      <trkpt lat="43.90597" lon="5.10878">
        <ele>99.63</ele>
        <time>2013-03-10T15:41:17Z</time>
      </trkpt>
      <trkpt lat="43.90609" lon="5.10874">
        <ele>102.04</ele>
        <time>2013-03-10T15:41:31Z</time>
      </trkpt>
      <trkpt lat="43.90622" lon="5.1087">
        <ele>104.44</ele>
        <time>2013-03-10T15:41:45Z</time>
      </trkpt>
      <trkpt lat="43.90633" lon="5.10865">
        <ele>105.4</ele>
        <time>2013-03-10T15:41:58Z</time>
      </trkpt>
      <trkpt lat="43.90646" lon="5.10858">
        <ele>108.77</ele>
        <time>2013-03-10T15:42:10Z</time>
      </trkpt>
      <trkpt lat="43.90654" lon="5.10858">
        <ele>108.77</ele>
        <time>2013-03-10T15:42:19Z</time>
      </trkpt>
      <trkpt lat="43.90665" lon="5.10853">
        <ele>109.73</ele>
        <time>2013-03-10T15:42:30Z</time>
      </trkpt>
      <trkpt lat="43.90677" lon="5.1085">
        <ele>110.69</ele>
        <time>2013-03-10T15:42:42Z</time>
      </trkpt>
      <trkpt lat="43.90678" lon="5.10851">
        <ele>110.21</ele>
        <time>2013-03-10T15:42:44Z</time>
      </trkpt>
      <trkpt lat="43.90688" lon="5.1085">
        <ele>109.73</ele>
        <time>2013-03-10T15:42:52Z</time>
      </trkpt>
      <trkpt lat="43.90691" lon="5.10848">
        <ele>108.77</ele>
        <time>2013-03-10T15:42:55Z</time>
      </trkpt>
      <trkpt lat="43.90704" lon="5.10845">
        <ele>107.81</ele>
        <time>2013-03-10T15:43:07Z</time>
      </trkpt>
      <trkpt lat="43.90713" lon="5.10848">
        <ele>108.29</ele>
        <time>2013-03-10T15:43:15Z</time>
      </trkpt>
      <trkpt lat="43.90714" lon="5.10848">
        <ele>107.81</ele>
        <time>2013-03-10T15:43:16Z</time>
      </trkpt>
      <trkpt lat="43.90717" lon="5.10848">
        <ele>108.29</ele>
        <time>2013-03-10T15:43:18Z</time>
      </trkpt>
      <trkpt lat="43.9073" lon="5.1085">
        <ele>110.21</ele>
        <time>2013-03-10T15:43:31Z</time>
      </trkpt>
      <trkpt lat="43.90739" lon="5.10852">
        <ele>112.13</ele>
        <time>2013-03-10T15:43:42Z</time>
      </trkpt>
      <trkpt lat="43.90748" lon="5.10855">
        <ele>114.05</ele>
        <time>2013-03-10T15:43:55Z</time>
      </trkpt>
      <trkpt lat="43.90759" lon="5.10863">
        <ele>117.42</ele>
        <time>2013-03-10T15:44:06Z</time>
      </trkpt>
      <trkpt lat="43.90772" lon="5.10866">
        <ele>118.86</ele>
        <time>2013-03-10T15:44:18Z</time>
      </trkpt>
      <trkpt lat="43.90784" lon="5.10871">
        <ele>120.3</ele>
        <time>2013-03-10T15:44:30Z</time>
      </trkpt>
      <trkpt lat="43.90795" lon="5.10874">
        <ele>122.22</ele>
        <time>2013-03-10T15:44:41Z</time>
      </trkpt>
      <trkpt lat="43.90805" lon="5.10875">
        <ele>129.43</ele>
        <time>2013-03-10T15:44:54Z</time>
      </trkpt>
      <trkpt lat="43.90811" lon="5.10879">
        <ele>135.2</ele>
        <time>2013-03-10T15:45:07Z</time>
      </trkpt>
      <trkpt lat="43.90824" lon="5.10873">
        <ele>136.16</ele>
        <time>2013-03-10T15:45:18Z</time>
      </trkpt>
      <trkpt lat="43.90839" lon="5.10869">
        <ele>131.36</ele>
        <time>2013-03-10T15:45:29Z</time>
      </trkpt>
      <trkpt lat="43.90844" lon="5.10867">
        <ele>130.4</ele>
        <time>2013-03-10T15:45:32Z</time>
      </trkpt>
      <trkpt lat="43.90859" lon="5.1087">
        <ele>124.15</ele>
        <time>2013-03-10T15:45:44Z</time>
      </trkpt>
      <trkpt lat="43.90871" lon="5.10873">
        <ele>125.11</ele>
        <time>2013-03-10T15:45:56Z</time>
      </trkpt>
      <trkpt lat="43.90882" lon="5.10876">
        <ele>127.51</ele>
        <time>2013-03-10T15:46:08Z</time>
      </trkpt>
      <trkpt lat="43.90889" lon="5.10878">
        <ele>129.43</ele>
        <time>2013-03-10T15:46:18Z</time>
      </trkpt>
      <trkpt lat="43.90897" lon="5.10878">
        <ele>128.95</ele>
        <time>2013-03-10T15:46:27Z</time>
      </trkpt>
      <trkpt lat="43.909" lon="5.1088">
        <ele>127.03</ele>
        <time>2013-03-10T15:46:30Z</time>
      </trkpt>
      <trkpt lat="43.90903" lon="5.10888">
        <ele>131.36</ele>
        <time>2013-03-10T15:46:42Z</time>
      </trkpt>
      <trkpt lat="43.90902" lon="5.10889">
        <ele>131.84</ele>
        <time>2013-03-10T15:46:43Z</time>
      </trkpt>
      <trkpt lat="43.90898" lon="5.10903">
        <ele>134.72</ele>
        <time>2013-03-10T15:46:53Z</time>
      </trkpt>
      <trkpt lat="43.90893" lon="5.10911">
        <ele>132.8</ele>
        <time>2013-03-10T15:46:59Z</time>
      </trkpt>
      <trkpt lat="43.90892" lon="5.10918">
        <ele>131.36</ele>
        <time>2013-03-10T15:47:03Z</time>
      </trkpt>
      <trkpt lat="43.9089" lon="5.10925">
        <ele>130.4</ele>
        <time>2013-03-10T15:47:10Z</time>
      </trkpt>
      <trkpt lat="43.90888" lon="5.10931">
        <ele>130.4</ele>
        <time>2013-03-10T15:47:15Z</time>
      </trkpt>
      <trkpt lat="43.90881" lon="5.10938">
        <ele>129.43</ele>
        <time>2013-03-10T15:47:22Z</time>
      </trkpt>
      <trkpt lat="43.90875" lon="5.10948">
        <ele>127.03</ele>
        <time>2013-03-10T15:47:31Z</time>
      </trkpt>
      <trkpt lat="43.90871" lon="5.10953">
        <ele>125.59</ele>
        <time>2013-03-10T15:47:42Z</time>
      </trkpt>
      <trkpt lat="43.90869" lon="5.10956">
        <ele>125.11</ele>
        <time>2013-03-10T15:47:47Z</time>
      </trkpt>
      <trkpt lat="43.90865" lon="5.10966">
        <ele>124.63</ele>
        <time>2013-03-10T15:47:59Z</time>
      </trkpt>
      <trkpt lat="43.90861" lon="5.10972">
        <ele>123.19</ele>
        <time>2013-03-10T15:48:05Z</time>
      </trkpt>
      <trkpt lat="43.9086" lon="5.10983">
        <ele>124.15</ele>
        <time>2013-03-10T15:48:11Z</time>
      </trkpt>
      <trkpt lat="43.90855" lon="5.10996">
        <ele>125.11</ele>
        <time>2013-03-10T15:48:23Z</time>
      </trkpt>
      <trkpt lat="43.90857" lon="5.11003">
        <ele>126.07</ele>
        <time>2013-03-10T15:48:34Z</time>
      </trkpt>
      <trkpt lat="43.9086" lon="5.11007">
        <ele>124.15</ele>
        <time>2013-03-10T15:48:48Z</time>
      </trkpt>
      <trkpt lat="43.90865" lon="5.11019">
        <ele>119.82</ele>
        <time>2013-03-10T15:48:59Z</time>
      </trkpt>
      <trkpt lat="43.90873" lon="5.11038">
        <ele>112.13</ele>
        <time>2013-03-10T15:49:16Z</time>
      </trkpt>
      <trkpt lat="43.90881" lon="5.11049">
        <ele>107.32</ele>
        <time>2013-03-10T15:49:31Z</time>
      </trkpt>
      <trkpt lat="43.90889" lon="5.11049">
        <ele>103.96</ele>
        <time>2013-03-10T15:49:45Z</time>
      </trkpt>
      <trkpt lat="43.90889" lon="5.11049">
        <ele>103.96</ele>
        <time>2013-03-10T15:49:47Z</time>
      </trkpt>
      <trkpt lat="43.90891" lon="5.11047">
        <ele>103.48</ele>
        <time>2013-03-10T15:50:01Z</time>
      </trkpt>
      <trkpt lat="43.90892" lon="5.11045">
        <ele>103.48</ele>
        <time>2013-03-10T15:50:14Z</time>
      </trkpt>
      <trkpt lat="43.90893" lon="5.11045">
        <ele>103</ele>
        <time>2013-03-10T15:50:27Z</time>
      </trkpt>
      <trkpt lat="43.90893" lon="5.11045">
        <ele>103</ele>
        <time>2013-03-10T15:50:59Z</time>
      </trkpt>
      <trkpt lat="43.90893" lon="5.11045">
        <ele>103</ele>
        <time>2013-03-10T15:51:29Z</time>
      </trkpt>
      <trkpt lat="43.90893" lon="5.11044">
        <ele>103</ele>
        <time>2013-03-10T15:51:54Z</time>
      </trkpt>
      <trkpt lat="43.90894" lon="5.11044">
        <ele>103</ele>
        <time>2013-03-10T15:52:23Z</time>
      </trkpt>
      <trkpt lat="43.90894" lon="5.11044">
        <ele>103</ele>
        <time>2013-03-10T15:52:53Z</time>
      </trkpt>
      <trkpt lat="43.90894" lon="5.11043">
        <ele>103</ele>
        <time>2013-03-10T15:53:24Z</time>
      </trkpt>
      <trkpt lat="43.90894" lon="5.11043">
        <ele>103</ele>
        <time>2013-03-10T15:53:57Z</time>
      </trkpt>
      <trkpt lat="43.90895" lon="5.11042">
        <ele>103</ele>
        <time>2013-03-10T15:54:29Z</time>
      </trkpt>
      <trkpt lat="43.90895" lon="5.11042">
        <ele>102.04</ele>
        <time>2013-03-10T15:54:52Z</time>
      </trkpt>
      <trkpt lat="43.90895" lon="5.11042">
        <ele>102.04</ele>
        <time>2013-03-10T15:55:06Z</time>
      </trkpt>
      <trkpt lat="43.90895" lon="5.11042">
        <ele>102.04</ele>
        <time>2013-03-10T15:55:30Z</time>
      </trkpt>
      <trkpt lat="43.90904" lon="5.11032">
        <ele>96.75</ele>
        <time>2013-03-10T15:55:46Z</time>
      </trkpt>
      <trkpt lat="43.90905" lon="5.11029">
        <ele>96.27</ele>
        <time>2013-03-10T15:55:49Z</time>
      </trkpt>
      <trkpt lat="43.90916" lon="5.11015">
        <ele>94.35</ele>
        <time>2013-03-10T15:56:05Z</time>
      </trkpt>
      <trkpt lat="43.9092" lon="5.11013">
        <ele>93.87</ele>
        <time>2013-03-10T15:56:09Z</time>
      </trkpt>
      <trkpt lat="43.90929" lon="5.11009">
        <ele>97.23</ele>
        <time>2013-03-10T15:56:21Z</time>
      </trkpt>
      <trkpt lat="43.90934" lon="5.11008">
        <ele>99.15</ele>
        <time>2013-03-10T15:56:36Z</time>
      </trkpt>
      <trkpt lat="43.90939" lon="5.11008">
        <ele>99.63</ele>
        <time>2013-03-10T15:56:47Z</time>
      </trkpt>
      <trkpt lat="43.90956" lon="5.11006">
        <ele>100.11</ele>
        <time>2013-03-10T15:57:02Z</time>
      </trkpt>
      <trkpt lat="43.90968" lon="5.11007">
        <ele>101.56</ele>
        <time>2013-03-10T15:57:13Z</time>
      </trkpt>
      <trkpt lat="43.90974" lon="5.1101">
        <ele>103.48</ele>
        <time>2013-03-10T15:57:22Z</time>
      </trkpt>
      <trkpt lat="43.90977" lon="5.1101">
        <ele>104.44</ele>
        <time>2013-03-10T15:57:24Z</time>
      </trkpt>
      <trkpt lat="43.9099" lon="5.11012">
        <ele>107.32</ele>
        <time>2013-03-10T15:57:37Z</time>
      </trkpt>
      <trkpt lat="43.91002" lon="5.11009">
        <ele>110.21</ele>
        <time>2013-03-10T15:57:51Z</time>
      </trkpt>
      <trkpt lat="43.91014" lon="5.11007">
        <ele>114.53</ele>
        <time>2013-03-10T15:58:04Z</time>
      </trkpt>
      <trkpt lat="43.91026" lon="5.10999">
        <ele>117.42</ele>
        <time>2013-03-10T15:58:18Z</time>
      </trkpt>
      <trkpt lat="43.91036" lon="5.11001">
        <ele>121.26</ele>
        <time>2013-03-10T15:58:31Z</time>
      </trkpt>
      <trkpt lat="43.9105" lon="5.10999">
        <ele>121.26</ele>
        <time>2013-03-10T15:58:42Z</time>
      </trkpt>
      <trkpt lat="43.91068" lon="5.10992">
        <ele>118.86</ele>
        <time>2013-03-10T15:58:57Z</time>
      </trkpt>
      <trkpt lat="43.91077" lon="5.11001">
        <ele>114.05</ele>
        <time>2013-03-10T15:59:08Z</time>
      </trkpt>
      <trkpt lat="43.91089" lon="5.11014">
        <ele>112.61</ele>
        <time>2013-03-10T15:59:23Z</time>
      </trkpt>
      <trkpt lat="43.91099" lon="5.1103">
        <ele>113.57</ele>
        <time>2013-03-10T15:59:39Z</time>
      </trkpt>
      <trkpt lat="43.91108" lon="5.11043">
        <ele>114.53</ele>
        <time>2013-03-10T15:59:51Z</time>
      </trkpt>
      <trkpt lat="43.91119" lon="5.11058">
        <ele>116.46</ele>
        <time>2013-03-10T16:00:04Z</time>
      </trkpt>
      <trkpt lat="43.91127" lon="5.11073">
        <ele>120.78</ele>
        <time>2013-03-10T16:00:17Z</time>
      </trkpt>
      <trkpt lat="43.91137" lon="5.11086">
        <ele>125.11</ele>
        <time>2013-03-10T16:00:29Z</time>
      </trkpt>
      <trkpt lat="43.91147" lon="5.11101">
        <ele>128.95</ele>
        <time>2013-03-10T16:00:44Z</time>
      </trkpt>
      <trkpt lat="43.91154" lon="5.11108">
        <ele>136.64</ele>
        <time>2013-03-10T16:00:59Z</time>
      </trkpt>
      <trkpt lat="43.91168" lon="5.11125">
        <ele>138.09</ele>
        <time>2013-03-10T16:01:12Z</time>
      </trkpt>
      <trkpt lat="43.91179" lon="5.11135">
        <ele>140.49</ele>
        <time>2013-03-10T16:01:26Z</time>
      </trkpt>
      <trkpt lat="43.91188" lon="5.1115">
        <ele>139.53</ele>
        <time>2013-03-10T16:01:37Z</time>
      </trkpt>
      <trkpt lat="43.91199" lon="5.11166">
        <ele>141.93</ele>
        <time>2013-03-10T16:01:52Z</time>
      </trkpt>
      <trkpt lat="43.91207" lon="5.11176">
        <ele>144.82</ele>
        <time>2013-03-10T16:02:07Z</time>
      </trkpt>
      <trkpt lat="43.91216" lon="5.11182">
        <ele>151.06</ele>
        <time>2013-03-10T16:02:20Z</time>
      </trkpt>
      <trkpt lat="43.91224" lon="5.11196">
        <ele>152.99</ele>
        <time>2013-03-10T16:02:33Z</time>
      </trkpt>
      <trkpt lat="43.91223" lon="5.11203">
        <ele>157.31</ele>
        <time>2013-03-10T16:02:46Z</time>
      </trkpt>
      <trkpt lat="43.91225" lon="5.11219">
        <ele>160.2</ele>
        <time>2013-03-10T16:02:58Z</time>
      </trkpt>
      <trkpt lat="43.91233" lon="5.11227">
        <ele>163.08</ele>
        <time>2013-03-10T16:03:08Z</time>
      </trkpt>
      <trkpt lat="43.91244" lon="5.1123">
        <ele>167.41</ele>
        <time>2013-03-10T16:03:21Z</time>
      </trkpt>
      <trkpt lat="43.91246" lon="5.1123">
        <ele>167.89</ele>
        <time>2013-03-10T16:03:23Z</time>
      </trkpt>
      <trkpt lat="43.91261" lon="5.11233">
        <ele>168.85</ele>
        <time>2013-03-10T16:03:38Z</time>
      </trkpt>
      <trkpt lat="43.91275" lon="5.11237">
        <ele>166.93</ele>
        <time>2013-03-10T16:03:50Z</time>
      </trkpt>
      <trkpt lat="43.91281" lon="5.11242">
        <ele>166.93</ele>
        <time>2013-03-10T16:03:56Z</time>
      </trkpt>
      <trkpt lat="43.91289" lon="5.11249">
        <ele>165.96</ele>
        <time>2013-03-10T16:04:03Z</time>
      </trkpt>
      <trkpt lat="43.91304" lon="5.11266">
        <ele>158.75</ele>
        <time>2013-03-10T16:04:16Z</time>
      </trkpt>
      <trkpt lat="43.91318" lon="5.11274">
        <ele>151.06</ele>
        <time>2013-03-10T16:04:30Z</time>
      </trkpt>
      <trkpt lat="43.91324" lon="5.11265">
        <ele>152.51</ele>
        <time>2013-03-10T16:04:44Z</time>
      </trkpt>
      <trkpt lat="43.91325" lon="5.11259">
        <ele>154.43</ele>
        <time>2013-03-10T16:04:57Z</time>
      </trkpt>
      <trkpt lat="43.9133" lon="5.1126">
        <ele>152.03</ele>
        <time>2013-03-10T16:05:12Z</time>
      </trkpt>
      <trkpt lat="43.91357" lon="5.11257">
        <ele>148.18</ele>
        <time>2013-03-10T16:05:26Z</time>
      </trkpt>
      <trkpt lat="43.91372" lon="5.11251">
        <ele>147.22</ele>
        <time>2013-03-10T16:05:38Z</time>
      </trkpt>
      <trkpt lat="43.91397" lon="5.11246">
        <ele>143.37</ele>
        <time>2013-03-10T16:05:53Z</time>
      </trkpt>
      <trkpt lat="43.91398" lon="5.11246">
        <ele>142.89</ele>
        <time>2013-03-10T16:05:54Z</time>
      </trkpt>
      <trkpt lat="43.91415" lon="5.11251">
        <ele>138.09</ele>
        <time>2013-03-10T16:06:08Z</time>
      </trkpt>
      <trkpt lat="43.9143" lon="5.1126">
        <ele>134.24</ele>
        <time>2013-03-10T16:06:22Z</time>
      </trkpt>
      <trkpt lat="43.91443" lon="5.11269">
        <ele>131.84</ele>
        <time>2013-03-10T16:06:35Z</time>
      </trkpt>
      <trkpt lat="43.91462" lon="5.11278">
        <ele>128.95</ele>
        <time>2013-03-10T16:06:51Z</time>
      </trkpt>
      <trkpt lat="43.91472" lon="5.11278">
        <ele>124.15</ele>
        <time>2013-03-10T16:07:02Z</time>
      </trkpt>
      <trkpt lat="43.91482" lon="5.11281">
        <ele>126.07</ele>
        <time>2013-03-10T16:07:15Z</time>
      </trkpt>
      <trkpt lat="43.9149" lon="5.11294">
        <ele>125.11</ele>
        <time>2013-03-10T16:07:29Z</time>
      </trkpt>
      <trkpt lat="43.91493" lon="5.11296">
        <ele>124.15</ele>
        <time>2013-03-10T16:07:36Z</time>
      </trkpt>
      <trkpt lat="43.91502" lon="5.11301">
        <ele>121.74</ele>
        <time>2013-03-10T16:07:46Z</time>
      </trkpt>
      <trkpt lat="43.91502" lon="5.11301">
        <ele>121.74</ele>
        <time>2013-03-10T16:08:13Z</time>
      </trkpt>
      <trkpt lat="43.91503" lon="5.11301">
        <ele>121.26</ele>
        <time>2013-03-10T16:08:41Z</time>
      </trkpt>
      <trkpt lat="43.91503" lon="5.11301">
        <ele>121.26</ele>
        <time>2013-03-10T16:09:08Z</time>
      </trkpt>
      <trkpt lat="43.91503" lon="5.11301">
        <ele>121.26</ele>
        <time>2013-03-10T16:09:21Z</time>
      </trkpt>
      <trkpt lat="43.91513" lon="5.11303">
        <ele>115.5</ele>
        <time>2013-03-10T16:09:35Z</time>
      </trkpt>
      <trkpt lat="43.91526" lon="5.11302">
        <ele>109.25</ele>
        <time>2013-03-10T16:09:49Z</time>
      </trkpt>
      <trkpt lat="43.91526" lon="5.11302">
        <ele>109.25</ele>
        <time>2013-03-10T16:10:09Z</time>
      </trkpt>
      <trkpt lat="43.91526" lon="5.11302">
        <ele>109.25</ele>
        <time>2013-03-10T16:10:22Z</time>
      </trkpt>
      <trkpt lat="43.91529" lon="5.113">
        <ele>108.29</ele>
        <time>2013-03-10T16:10:37Z</time>
      </trkpt>
      <trkpt lat="43.91544" lon="5.11295">
        <ele>104.44</ele>
        <time>2013-03-10T16:10:51Z</time>
      </trkpt>
      <trkpt lat="43.91547" lon="5.11293">
        <ele>103.96</ele>
        <time>2013-03-10T16:10:54Z</time>
      </trkpt>
      <trkpt lat="43.91561" lon="5.11285">
        <ele>101.08</ele>
        <time>2013-03-10T16:11:07Z</time>
      </trkpt>
      <trkpt lat="43.91572" lon="5.1128">
        <ele>100.6</ele>
        <time>2013-03-10T16:11:18Z</time>
      </trkpt>
      <trkpt lat="43.91589" lon="5.11267">
        <ele>98.67</ele>
        <time>2013-03-10T16:11:32Z</time>
      </trkpt>
      <trkpt lat="43.91606" lon="5.11258">
        <ele>95.79</ele>
        <time>2013-03-10T16:11:46Z</time>
      </trkpt>
      <trkpt lat="43.91607" lon="5.11258">
        <ele>95.79</ele>
        <time>2013-03-10T16:11:47Z</time>
      </trkpt>
      <trkpt lat="43.9161" lon="5.11256">
        <ele>95.79</ele>
        <time>2013-03-10T16:11:50Z</time>
      </trkpt>
      <trkpt lat="43.91622" lon="5.11253">
        <ele>95.31</ele>
        <time>2013-03-10T16:12:05Z</time>
      </trkpt>
      <trkpt lat="43.91625" lon="5.11248">
        <ele>96.75</ele>
        <time>2013-03-10T16:12:16Z</time>
      </trkpt>
      <trkpt lat="43.91626" lon="5.11241">
        <ele>98.67</ele>
        <time>2013-03-10T16:12:22Z</time>
      </trkpt>
      <trkpt lat="43.91626" lon="5.11226">
        <ele>101.56</ele>
        <time>2013-03-10T16:12:35Z</time>
      </trkpt>
      <trkpt lat="43.91625" lon="5.1122">
        <ele>102.04</ele>
        <time>2013-03-10T16:12:57Z</time>
      </trkpt>
      <trkpt lat="43.91629" lon="5.11217">
        <ele>103</ele>
        <time>2013-03-10T16:13:10Z</time>
      </trkpt>
      <trkpt lat="43.91642" lon="5.11201">
        <ele>108.77</ele>
        <time>2013-03-10T16:13:25Z</time>
      </trkpt>
      <trkpt lat="43.91645" lon="5.11199">
        <ele>109.73</ele>
        <time>2013-03-10T16:13:28Z</time>
      </trkpt>
      <trkpt lat="43.91648" lon="5.11197">
        <ele>111.17</ele>
        <time>2013-03-10T16:13:31Z</time>
      </trkpt>
      <trkpt lat="43.91661" lon="5.1118">
        <ele>110.69</ele>
        <time>2013-03-10T16:13:46Z</time>
      </trkpt>
      <trkpt lat="43.91663" lon="5.11179">
        <ele>110.69</ele>
        <time>2013-03-10T16:13:47Z</time>
      </trkpt>
      <trkpt lat="43.91675" lon="5.11165">
        <ele>108.77</ele>
        <time>2013-03-10T16:14:00Z</time>
      </trkpt>
      <trkpt lat="43.91682" lon="5.11156">
        <ele>108.77</ele>
        <time>2013-03-10T16:14:11Z</time>
      </trkpt>
      <trkpt lat="43.91695" lon="5.11148">
        <ele>110.69</ele>
        <time>2013-03-10T16:14:24Z</time>
      </trkpt>
      <trkpt lat="43.91706" lon="5.11144">
        <ele>113.57</ele>
        <time>2013-03-10T16:14:37Z</time>
      </trkpt>
      <trkpt lat="43.91711" lon="5.11142">
        <ele>114.05</ele>
        <time>2013-03-10T16:14:40Z</time>
      </trkpt>
      <trkpt lat="43.91718" lon="5.11139">
        <ele>114.05</ele>
        <time>2013-03-10T16:14:45Z</time>
      </trkpt>
      <trkpt lat="43.91734" lon="5.11133">
        <ele>112.61</ele>
        <time>2013-03-10T16:14:58Z</time>
      </trkpt>
      <trkpt lat="43.91737" lon="5.11133">
        <ele>112.13</ele>
        <time>2013-03-10T16:15:01Z</time>
      </trkpt>
      <trkpt lat="43.91743" lon="5.11128">
        <ele>112.61</ele>
        <time>2013-03-10T16:15:06Z</time>
      </trkpt>
      <trkpt lat="43.9176" lon="5.11128">
        <ele>109.73</ele>
        <time>2013-03-10T16:15:21Z</time>
      </trkpt>
      <trkpt lat="43.91761" lon="5.11128">
        <ele>109.73</ele>
        <time>2013-03-10T16:15:22Z</time>
      </trkpt>
      <trkpt lat="43.91781" lon="5.11124">
        <ele>108.77</ele>
        <time>2013-03-10T16:15:37Z</time>
      </trkpt>
      <trkpt lat="43.91794" lon="5.11123">
        <ele>105.88</ele>
        <time>2013-03-10T16:15:52Z</time>
      </trkpt>
      <trkpt lat="43.91796" lon="5.11124">
        <ele>105.88</ele>
        <time>2013-03-10T16:15:54Z</time>
      </trkpt>
      <trkpt lat="43.91813" lon="5.11127">
        <ele>104.44</ele>
        <time>2013-03-10T16:16:09Z</time>
      </trkpt>
      <trkpt lat="43.91815" lon="5.11126">
        <ele>103.48</ele>
        <time>2013-03-10T16:16:11Z</time>
      </trkpt>
      <trkpt lat="43.91831" lon="5.11124">
        <ele>102.04</ele>
        <time>2013-03-10T16:16:27Z</time>
      </trkpt>
      <trkpt lat="43.91844" lon="5.11124">
        <ele>101.08</ele>
        <time>2013-03-10T16:16:39Z</time>
      </trkpt>
      <trkpt lat="43.91856" lon="5.1112">
        <ele>100.6</ele>
        <time>2013-03-10T16:16:51Z</time>
      </trkpt>
      <trkpt lat="43.91871" lon="5.1111">
        <ele>102.04</ele>
        <time>2013-03-10T16:17:06Z</time>
      </trkpt>
      <trkpt lat="43.91883" lon="5.11104">
        <ele>101.08</ele>
        <time>2013-03-10T16:17:22Z</time>
      </trkpt>
      <trkpt lat="43.91889" lon="5.11097">
        <ele>102.04</ele>
        <time>2013-03-10T16:17:28Z</time>
      </trkpt>
      <trkpt lat="43.91907" lon="5.11076">
        <ele>105.88</ele>
        <time>2013-03-10T16:17:43Z</time>
      </trkpt>
      <trkpt lat="43.91915" lon="5.11065">
        <ele>107.32</ele>
        <time>2013-03-10T16:17:53Z</time>
      </trkpt>
      <trkpt lat="43.91918" lon="5.1106">
        <ele>107.32</ele>
        <time>2013-03-10T16:17:57Z</time>
      </trkpt>
      <trkpt lat="43.91927" lon="5.1105">
        <ele>105.88</ele>
        <time>2013-03-10T16:18:06Z</time>
      </trkpt>
      <trkpt lat="43.91929" lon="5.11045">
        <ele>105.4</ele>
        <time>2013-03-10T16:18:09Z</time>
      </trkpt>
      <trkpt lat="43.91936" lon="5.11032">
        <ele>108.77</ele>
        <time>2013-03-10T16:18:23Z</time>
      </trkpt>
      <trkpt lat="43.91943" lon="5.11019">
        <ele>112.13</ele>
        <time>2013-03-10T16:18:37Z</time>
      </trkpt>
      <trkpt lat="43.91945" lon="5.11002">
        <ele>110.69</ele>
        <time>2013-03-10T16:18:50Z</time>
      </trkpt>
      <trkpt lat="43.9195" lon="5.10986">
        <ele>111.17</ele>
        <time>2013-03-10T16:19:03Z</time>
      </trkpt>
      <trkpt lat="43.9196" lon="5.10958">
        <ele>107.32</ele>
        <time>2013-03-10T16:19:19Z</time>
      </trkpt>
      <trkpt lat="43.91967" lon="5.10937">
        <ele>105.4</ele>
        <time>2013-03-10T16:19:32Z</time>
      </trkpt>
      <trkpt lat="43.91971" lon="5.10925">
        <ele>107.32</ele>
        <time>2013-03-10T16:19:42Z</time>
      </trkpt>
      <trkpt lat="43.91976" lon="5.10909">
        <ele>109.25</ele>
        <time>2013-03-10T16:19:54Z</time>
      </trkpt>
      <trkpt lat="43.91978" lon="5.10893">
        <ele>109.73</ele>
        <time>2013-03-10T16:20:06Z</time>
      </trkpt>
      <trkpt lat="43.91981" lon="5.10865">
        <ele>104.44</ele>
        <time>2013-03-10T16:20:19Z</time>
      </trkpt>
      <trkpt lat="43.91985" lon="5.10851">
        <ele>104.92</ele>
        <time>2013-03-10T16:20:29Z</time>
      </trkpt>
      <trkpt lat="43.91983" lon="5.10829">
        <ele>107.32</ele>
        <time>2013-03-10T16:20:46Z</time>
      </trkpt>
      <trkpt lat="43.91987" lon="5.10816">
        <ele>112.61</ele>
        <time>2013-03-10T16:21:02Z</time>
      </trkpt>
      <trkpt lat="43.91989" lon="5.108">
        <ele>113.57</ele>
        <time>2013-03-10T16:21:12Z</time>
      </trkpt>
      <trkpt lat="43.9199" lon="5.10796">
        <ele>114.05</ele>
        <time>2013-03-10T16:21:15Z</time>
      </trkpt>
      <trkpt lat="43.91991" lon="5.1077">
        <ele>110.69</ele>
        <time>2013-03-10T16:21:29Z</time>
      </trkpt>
      <trkpt lat="43.91991" lon="5.10762">
        <ele>108.77</ele>
        <time>2013-03-10T16:21:34Z</time>
      </trkpt>
      <trkpt lat="43.91989" lon="5.10756">
        <ele>107.81</ele>
        <time>2013-03-10T16:21:37Z</time>
      </trkpt>
      <trkpt lat="43.91992" lon="5.10735">
        <ele>105.88</ele>
        <time>2013-03-10T16:21:50Z</time>
      </trkpt>
      <trkpt lat="43.91993" lon="5.10729">
        <ele>106.36</ele>
        <time>2013-03-10T16:21:54Z</time>
      </trkpt>
      <trkpt lat="43.91989" lon="5.10712">
        <ele>103.96</ele>
        <time>2013-03-10T16:22:04Z</time>
      </trkpt>
      <trkpt lat="43.91989" lon="5.10707">
        <ele>103.48</ele>
        <time>2013-03-10T16:22:07Z</time>
      </trkpt>
      <trkpt lat="43.91989" lon="5.10703">
        <ele>103.48</ele>
        <time>2013-03-10T16:22:10Z</time>
      </trkpt>
      <trkpt lat="43.91989" lon="5.10684">
        <ele>103</ele>
        <time>2013-03-10T16:22:22Z</time>
      </trkpt>
      <trkpt lat="43.91989" lon="5.10663">
        <ele>102.52</ele>
        <time>2013-03-10T16:22:34Z</time>
      </trkpt>
      <trkpt lat="43.91989" lon="5.1066">
        <ele>102.52</ele>
        <time>2013-03-10T16:22:36Z</time>
      </trkpt>
      <trkpt lat="43.91991" lon="5.10657">
        <ele>103.48</ele>
        <time>2013-03-10T16:22:39Z</time>
      </trkpt>
      <trkpt lat="43.91991" lon="5.10648">
        <ele>102.52</ele>
        <time>2013-03-10T16:22:44Z</time>
      </trkpt>
      <trkpt lat="43.91991" lon="5.10644">
        <ele>102.52</ele>
        <time>2013-03-10T16:22:46Z</time>
      </trkpt>
      <trkpt lat="43.91991" lon="5.10638">
        <ele>102.52</ele>
        <time>2013-03-10T16:22:50Z</time>
      </trkpt>
      <trkpt lat="43.91992" lon="5.10625">
        <ele>104.44</ele>
        <time>2013-03-10T16:23:00Z</time>
      </trkpt>
      <trkpt lat="43.91993" lon="5.1062">
        <ele>105.4</ele>
        <time>2013-03-10T16:23:03Z</time>
      </trkpt>
      <trkpt lat="43.91996" lon="5.10613">
        <ele>104.92</ele>
        <time>2013-03-10T16:23:08Z</time>
      </trkpt>
      <trkpt lat="43.92005" lon="5.10591">
        <ele>102.04</ele>
        <time>2013-03-10T16:23:23Z</time>
      </trkpt>
      <trkpt lat="43.92011" lon="5.10578">
        <ele>99.63</ele>
        <time>2013-03-10T16:23:32Z</time>
      </trkpt>
      <trkpt lat="43.92012" lon="5.10572">
        <ele>99.15</ele>
        <time>2013-03-10T16:23:36Z</time>
      </trkpt>
      <trkpt lat="43.92014" lon="5.10569">
        <ele>98.67</ele>
        <time>2013-03-10T16:23:38Z</time>
      </trkpt>
      <trkpt lat="43.92017" lon="5.10556">
        <ele>97.71</ele>
        <time>2013-03-10T16:23:47Z</time>
      </trkpt>
      <trkpt lat="43.92023" lon="5.10534">
        <ele>96.75</ele>
        <time>2013-03-10T16:24:01Z</time>
      </trkpt>
      <trkpt lat="43.92025" lon="5.10531">
        <ele>96.75</ele>
        <time>2013-03-10T16:24:04Z</time>
      </trkpt>
      <trkpt lat="43.92026" lon="5.10525">
        <ele>96.27</ele>
        <time>2013-03-10T16:24:08Z</time>
      </trkpt>
      <trkpt lat="43.92028" lon="5.10521">
        <ele>97.23</ele>
        <time>2013-03-10T16:24:12Z</time>
      </trkpt>
      <trkpt lat="43.9203" lon="5.10519">
        <ele>97.71</ele>
        <time>2013-03-10T16:24:14Z</time>
      </trkpt>
      <trkpt lat="43.92033" lon="5.10517">
        <ele>98.19</ele>
        <time>2013-03-10T16:24:17Z</time>
      </trkpt>
      <trkpt lat="43.92038" lon="5.10514">
        <ele>98.67</ele>
        <time>2013-03-10T16:24:22Z</time>
      </trkpt>
      <trkpt lat="43.92045" lon="5.10512">
        <ele>98.67</ele>
        <time>2013-03-10T16:24:28Z</time>
      </trkpt>
      <trkpt lat="43.92061" lon="5.10513">
        <ele>99.15</ele>
        <time>2013-03-10T16:24:43Z</time>
      </trkpt>
      <trkpt lat="43.92063" lon="5.10513">
        <ele>99.15</ele>
        <time>2013-03-10T16:24:44Z</time>
      </trkpt>
      <trkpt lat="43.92065" lon="5.10513">
        <ele>99.15</ele>
        <time>2013-03-10T16:24:46Z</time>
      </trkpt>
      <trkpt lat="43.92078" lon="5.10512">
        <ele>98.19</ele>
        <time>2013-03-10T16:24:58Z</time>
      </trkpt>
      <trkpt lat="43.9208" lon="5.10511">
        <ele>97.71</ele>
        <time>2013-03-10T16:25:00Z</time>
      </trkpt>
      <trkpt lat="43.92083" lon="5.10511">
        <ele>97.71</ele>
        <time>2013-03-10T16:25:03Z</time>
      </trkpt>
      <trkpt lat="43.92085" lon="5.1051">
        <ele>97.71</ele>
        <time>2013-03-10T16:25:05Z</time>
      </trkpt>
      <trkpt lat="43.92097" lon="5.10512">
        <ele>97.71</ele>
        <time>2013-03-10T16:25:18Z</time>
      </trkpt>
      <trkpt lat="43.92104" lon="5.10514">
        <ele>97.71</ele>
        <time>2013-03-10T16:25:25Z</time>
      </trkpt>
      <trkpt lat="43.92115" lon="5.10514">
        <ele>98.19</ele>
        <time>2013-03-10T16:25:36Z</time>
      </trkpt>
      <trkpt lat="43.92117" lon="5.10516">
        <ele>98.67</ele>
        <time>2013-03-10T16:25:39Z</time>
      </trkpt>
      <trkpt lat="43.9212" lon="5.10518">
        <ele>100.6</ele>
        <time>2013-03-10T16:25:52Z</time>
      </trkpt>
      <trkpt lat="43.92123" lon="5.10519">
        <ele>101.08</ele>
        <time>2013-03-10T16:26:03Z</time>
      </trkpt>
      <trkpt lat="43.92123" lon="5.10519">
        <ele>101.08</ele>
        <time>2013-03-10T16:26:28Z</time>
      </trkpt>
      <trkpt lat="43.92123" lon="5.10519">
        <ele>101.08</ele>
        <time>2013-03-10T16:27:05Z</time>
      </trkpt>
      <trkpt lat="43.92123" lon="5.10519">
        <ele>101.08</ele>
        <time>2013-03-10T16:27:42Z</time>
      </trkpt>
      <trkpt lat="43.92123" lon="5.10518">
        <ele>101.08</ele>
        <time>2013-03-10T16:28:11Z</time>
      </trkpt>
      <trkpt lat="43.92123" lon="5.10518">
        <ele>101.08</ele>
        <time>2013-03-10T16:28:22Z</time>
      </trkpt>
      <trkpt lat="43.92124" lon="5.10519">
        <ele>101.08</ele>
        <time>2013-03-10T16:28:50Z</time>
      </trkpt>
      <trkpt lat="43.92124" lon="5.10519">
        <ele>101.08</ele>
        <time>2013-03-10T16:28:56Z</time>
      </trkpt>
      <trkpt lat="43.92125" lon="5.10521">
        <ele>101.56</ele>
        <time>2013-03-10T16:31:22Z</time>
      </trkpt>
      <trkpt lat="43.92125" lon="5.10521">
        <ele>101.56</ele>
        <time>2013-03-10T16:31:50Z</time>
      </trkpt>
      <trkpt lat="43.92125" lon="5.10522">
        <ele>101.08</ele>
        <time>2013-03-10T16:32:07Z</time>
      </trkpt>
    </trkseg>
  </trk>
</gpx>